<?xml version="1.0" encoding="utf-8"?>
<gpx xmlns:xsi="http://www.w3.org/2001/XMLSchema-instance" xmlns:xsd="http://www.w3.org/2001/XMLSchema" version="1.1" creator="Shapelink.com" xmlns="http://www.topografix.com/GPX/1/1" xmlns:gpxtpx="http://www.garmin.com/xmlschemas/TrackPointExtension/v1">
  <metadata>
    <name>Sykling 70.26 km, 2012-05-27</name>
    <desc></desc>
    <author><name>Mikael Blom</name></author> 
    <time>2012-05-27T07:37:56Z</time>
  </metadata>
  <trk>
    <name>Sykling 70.26 km, 2012-05-27</name>
    <trkseg>
      <trkpt lat="59.9790289" lon="17.7393355">
        <ele>35.7061</ele>
        <time>2012-05-27T07:37:56Z</time>
      </trkpt>
      <trkpt lat="59.979203" lon="17.739217">
        <ele>33.7834</ele>
        <time>2012-05-27T07:38:01Z</time>
      </trkpt>
      <trkpt lat="59.9794901" lon="17.7390268">
        <ele>32.8223</ele>
        <time>2012-05-27T07:38:08Z</time>
      </trkpt>
      <trkpt lat="59.9797627" lon="17.7388768">
        <ele>35.7061</ele>
        <time>2012-05-27T07:38:14Z</time>
      </trkpt>
      <trkpt lat="59.979865" lon="17.7388217">
        <ele>36.6675</ele>
        <time>2012-05-27T07:38:16Z</time>
      </trkpt>
      <trkpt lat="59.9802042" lon="17.7387976">
        <ele>37.6287</ele>
        <time>2012-05-27T07:38:23Z</time>
      </trkpt>
      <trkpt lat="59.9803253" lon="17.738785">
        <ele>36.6675</ele>
        <time>2012-05-27T07:38:26Z</time>
      </trkpt>
      <trkpt lat="59.9806743" lon="17.7386742">
        <ele>33.7834</ele>
        <time>2012-05-27T07:38:34Z</time>
      </trkpt>
      <trkpt lat="59.980924" lon="17.7385981">
        <ele>34.2642</ele>
        <time>2012-05-27T07:38:40Z</time>
      </trkpt>
      <trkpt lat="59.9811721" lon="17.7385265">
        <ele>36.6675</ele>
        <time>2012-05-27T07:38:46Z</time>
      </trkpt>
      <trkpt lat="59.9814199" lon="17.7384405">
        <ele>39.5513</ele>
        <time>2012-05-27T07:38:52Z</time>
      </trkpt>
      <trkpt lat="59.9816575" lon="17.7383721">
        <ele>40.5128</ele>
        <time>2012-05-27T07:38:59Z</time>
      </trkpt>
      <trkpt lat="59.9819328" lon="17.7382487">
        <ele>41.474</ele>
        <time>2012-05-27T07:39:06Z</time>
      </trkpt>
      <trkpt lat="59.9822002" lon="17.7381333">
        <ele>40.9934</ele>
        <time>2012-05-27T07:39:11Z</time>
      </trkpt>
      <trkpt lat="59.9824968" lon="17.7380842">
        <ele>40.5128</ele>
        <time>2012-05-27T07:39:16Z</time>
      </trkpt>
      <trkpt lat="59.9828641" lon="17.7381536">
        <ele>40.5128</ele>
        <time>2012-05-27T07:39:22Z</time>
      </trkpt>
      <trkpt lat="59.9831869" lon="17.7381358">
        <ele>40.0321</ele>
        <time>2012-05-27T07:39:27Z</time>
      </trkpt>
      <trkpt lat="59.9836085" lon="17.7380375">
        <ele>40.0321</ele>
        <time>2012-05-27T07:39:33Z</time>
      </trkpt>
      <trkpt lat="59.9840239" lon="17.7379505">
        <ele>42.916</ele>
        <time>2012-05-27T07:39:39Z</time>
      </trkpt>
      <trkpt lat="59.9843147" lon="17.7379685">
        <ele>47.2418</ele>
        <time>2012-05-27T07:39:44Z</time>
      </trkpt>
      <trkpt lat="59.9847699" lon="17.7380672">
        <ele>52.0486</ele>
        <time>2012-05-27T07:39:51Z</time>
      </trkpt>
      <trkpt lat="59.9851091" lon="17.738137">
        <ele>54.9324</ele>
        <time>2012-05-27T07:39:57Z</time>
      </trkpt>
      <trkpt lat="59.9855163" lon="17.7382381">
        <ele>57.3358</ele>
        <time>2012-05-27T07:40:04Z</time>
      </trkpt>
      <trkpt lat="59.9858007" lon="17.7383607">
        <ele>58.2971</ele>
        <time>2012-05-27T07:40:09Z</time>
      </trkpt>
      <trkpt lat="59.9861151" lon="17.7385383">
        <ele>59.2584</ele>
        <time>2012-05-27T07:40:15Z</time>
      </trkpt>
      <trkpt lat="59.98621" lon="17.7386129">
        <ele>59.2584</ele>
        <time>2012-05-27T07:40:17Z</time>
      </trkpt>
      <trkpt lat="59.9863342" lon="17.738739">
        <ele>58.7777</ele>
        <time>2012-05-27T07:40:20Z</time>
      </trkpt>
      <trkpt lat="59.9866076" lon="17.738998">
        <ele>60.7003</ele>
        <time>2012-05-27T07:40:26Z</time>
      </trkpt>
      <trkpt lat="59.9869383" lon="17.7393046">
        <ele>59.7391</ele>
        <time>2012-05-27T07:40:33Z</time>
      </trkpt>
      <trkpt lat="59.9872505" lon="17.7393922">
        <ele>57.3358</ele>
        <time>2012-05-27T07:40:39Z</time>
      </trkpt>
      <trkpt lat="59.9876667" lon="17.7393337">
        <ele>55.4131</ele>
        <time>2012-05-27T07:40:47Z</time>
      </trkpt>
      <trkpt lat="59.9880205" lon="17.739285">
        <ele>54.9324</ele>
        <time>2012-05-27T07:40:54Z</time>
      </trkpt>
      <trkpt lat="59.9882533" lon="17.7392272">
        <ele>53.9712</ele>
        <time>2012-05-27T07:40:59Z</time>
      </trkpt>
      <trkpt lat="59.9883458" lon="17.7391845">
        <ele>53.9712</ele>
        <time>2012-05-27T07:41:01Z</time>
      </trkpt>
      <trkpt lat="59.9885285" lon="17.7390724">
        <ele>53.9712</ele>
        <time>2012-05-27T07:41:05Z</time>
      </trkpt>
      <trkpt lat="59.9887087" lon="17.7389442">
        <ele>53.9712</ele>
        <time>2012-05-27T07:41:09Z</time>
      </trkpt>
      <trkpt lat="59.9890215" lon="17.7387074">
        <ele>54.4518</ele>
        <time>2012-05-27T07:41:16Z</time>
      </trkpt>
      <trkpt lat="59.9894346" lon="17.7384976">
        <ele>55.4131</ele>
        <time>2012-05-27T07:41:24Z</time>
      </trkpt>
      <trkpt lat="59.9898666" lon="17.7383117">
        <ele>55.8938</ele>
        <time>2012-05-27T07:41:31Z</time>
      </trkpt>
      <trkpt lat="59.9901967" lon="17.7381777">
        <ele>55.4131</ele>
        <time>2012-05-27T07:41:36Z</time>
      </trkpt>
      <trkpt lat="59.990612" lon="17.7379754">
        <ele>54.9324</ele>
        <time>2012-05-27T07:41:42Z</time>
      </trkpt>
      <trkpt lat="59.9909517" lon="17.7377629">
        <ele>55.4131</ele>
        <time>2012-05-27T07:41:47Z</time>
      </trkpt>
      <trkpt lat="59.9912242" lon="17.7376324">
        <ele>55.4131</ele>
        <time>2012-05-27T07:41:51Z</time>
      </trkpt>
      <trkpt lat="59.9915945" lon="17.7375716">
        <ele>56.3745</ele>
        <time>2012-05-27T07:41:57Z</time>
      </trkpt>
      <trkpt lat="59.9920121" lon="17.7374962">
        <ele>55.4131</ele>
        <time>2012-05-27T07:42:04Z</time>
      </trkpt>
      <trkpt lat="59.9920784" lon="17.7374895">
        <ele>54.9324</ele>
        <time>2012-05-27T07:42:05Z</time>
      </trkpt>
      <trkpt lat="59.9924411" lon="17.7372538">
        <ele>53.0098</ele>
        <time>2012-05-27T07:42:11Z</time>
      </trkpt>
      <trkpt lat="59.992787" lon="17.7367589">
        <ele>51.5679</ele>
        <time>2012-05-27T07:42:17Z</time>
      </trkpt>
      <trkpt lat="59.9931756" lon="17.736012">
        <ele>48.2034</ele>
        <time>2012-05-27T07:42:24Z</time>
      </trkpt>
      <trkpt lat="59.9933545" lon="17.7357387">
        <ele>46.7612</ele>
        <time>2012-05-27T07:42:27Z</time>
      </trkpt>
      <trkpt lat="59.9936357" lon="17.7355273">
        <ele>45.7999</ele>
        <time>2012-05-27T07:42:31Z</time>
      </trkpt>
      <trkpt lat="59.9937987" lon="17.7355355">
        <ele>45.3192</ele>
        <time>2012-05-27T07:42:33Z</time>
      </trkpt>
      <trkpt lat="59.9944158" lon="17.7356874">
        <ele>46.2806</ele>
        <time>2012-05-27T07:42:40Z</time>
      </trkpt>
      <trkpt lat="59.9948669" lon="17.7359861">
        <ele>45.3192</ele>
        <time>2012-05-27T07:42:46Z</time>
      </trkpt>
      <trkpt lat="59.9952403" lon="17.7360818">
        <ele>45.3192</ele>
        <time>2012-05-27T07:42:51Z</time>
      </trkpt>
      <trkpt lat="59.9956294" lon="17.7360997">
        <ele>46.2806</ele>
        <time>2012-05-27T07:42:57Z</time>
      </trkpt>
      <trkpt lat="59.995938" lon="17.7360987">
        <ele>46.7612</ele>
        <time>2012-05-27T07:43:03Z</time>
      </trkpt>
      <trkpt lat="59.996236" lon="17.7361742">
        <ele>47.2418</ele>
        <time>2012-05-27T07:43:08Z</time>
      </trkpt>
      <trkpt lat="59.9964633" lon="17.7363146">
        <ele>47.7225</ele>
        <time>2012-05-27T07:43:12Z</time>
      </trkpt>
      <trkpt lat="59.9966903" lon="17.7364377">
        <ele>49.1646</ele>
        <time>2012-05-27T07:43:16Z</time>
      </trkpt>
      <trkpt lat="59.9970222" lon="17.7365307">
        <ele>50.126</ele>
        <time>2012-05-27T07:43:22Z</time>
      </trkpt>
      <trkpt lat="59.9973212" lon="17.7365898">
        <ele>50.126</ele>
        <time>2012-05-27T07:43:28Z</time>
      </trkpt>
      <trkpt lat="59.9975939" lon="17.7366192">
        <ele>50.126</ele>
        <time>2012-05-27T07:43:34Z</time>
      </trkpt>
      <trkpt lat="59.9979888" lon="17.7366347">
        <ele>50.126</ele>
        <time>2012-05-27T07:43:41Z</time>
      </trkpt>
      <trkpt lat="59.9983875" lon="17.7366628">
        <ele>50.126</ele>
        <time>2012-05-27T07:43:47Z</time>
      </trkpt>
      <trkpt lat="59.998872" lon="17.7367461">
        <ele>49.1646</ele>
        <time>2012-05-27T07:43:53Z</time>
      </trkpt>
      <trkpt lat="59.9993292" lon="17.7368264">
        <ele>49.6453</ele>
        <time>2012-05-27T07:43:59Z</time>
      </trkpt>
      <trkpt lat="59.9997044" lon="17.7368906">
        <ele>50.6066</ele>
        <time>2012-05-27T07:44:05Z</time>
      </trkpt>
      <trkpt lat="60.0001366" lon="17.7368938">
        <ele>51.0872</ele>
        <time>2012-05-27T07:44:12Z</time>
      </trkpt>
      <trkpt lat="60.0005148" lon="17.7367102">
        <ele>50.126</ele>
        <time>2012-05-27T07:44:17Z</time>
      </trkpt>
      <trkpt lat="60.000937" lon="17.7363973">
        <ele>50.6066</ele>
        <time>2012-05-27T07:44:23Z</time>
      </trkpt>
      <trkpt lat="60.0013726" lon="17.7361323">
        <ele>50.6066</ele>
        <time>2012-05-27T07:44:30Z</time>
      </trkpt>
      <trkpt lat="60.0017056" lon="17.7357303">
        <ele>49.6453</ele>
        <time>2012-05-27T07:44:36Z</time>
      </trkpt>
      <trkpt lat="60.0017679" lon="17.7356459">
        <ele>48.684</ele>
        <time>2012-05-27T07:44:37Z</time>
      </trkpt>
      <trkpt lat="60.0019958" lon="17.7351614">
        <ele>46.7612</ele>
        <time>2012-05-27T07:44:41Z</time>
      </trkpt>
      <trkpt lat="60.0022319" lon="17.7340233">
        <ele>45.3192</ele>
        <time>2012-05-27T07:44:48Z</time>
      </trkpt>
      <trkpt lat="60.0022684" lon="17.7337049">
        <ele>44.8386</ele>
        <time>2012-05-27T07:44:50Z</time>
      </trkpt>
      <trkpt lat="60.0022532" lon="17.7327853">
        <ele>42.4354</ele>
        <time>2012-05-27T07:44:55Z</time>
      </trkpt>
      <trkpt lat="60.0023261" lon="17.7321466">
        <ele>40.9934</ele>
        <time>2012-05-27T07:44:58Z</time>
      </trkpt>
      <trkpt lat="60.0025536" lon="17.7313344">
        <ele>40.0321</ele>
        <time>2012-05-27T07:45:03Z</time>
      </trkpt>
      <trkpt lat="60.0028836" lon="17.7305801">
        <ele>37.6287</ele>
        <time>2012-05-27T07:45:09Z</time>
      </trkpt>
      <trkpt lat="60.0033188" lon="17.729844">
        <ele>35.7061</ele>
        <time>2012-05-27T07:45:16Z</time>
      </trkpt>
      <trkpt lat="60.0037986" lon="17.7290236">
        <ele>34.7449</ele>
        <time>2012-05-27T07:45:24Z</time>
      </trkpt>
      <trkpt lat="60.0038527" lon="17.7289502">
        <ele>34.7449</ele>
        <time>2012-05-27T07:45:25Z</time>
      </trkpt>
      <trkpt lat="60.0040414" lon="17.7287802">
        <ele>34.2642</ele>
        <time>2012-05-27T07:45:30Z</time>
      </trkpt>
      <trkpt lat="60.0040957" lon="17.7285678">
        <ele>33.7834</ele>
        <time>2012-05-27T07:45:34Z</time>
      </trkpt>
      <trkpt lat="60.004119" lon="17.7285204">
        <ele>33.7834</ele>
        <time>2012-05-27T07:45:35Z</time>
      </trkpt>
      <trkpt lat="60.0042636" lon="17.7283579">
        <ele>34.7449</ele>
        <time>2012-05-27T07:45:40Z</time>
      </trkpt>
      <trkpt lat="60.0044325" lon="17.7282424">
        <ele>34.7449</ele>
        <time>2012-05-27T07:45:44Z</time>
      </trkpt>
      <trkpt lat="60.004783" lon="17.7280528">
        <ele>33.7834</ele>
        <time>2012-05-27T07:45:50Z</time>
      </trkpt>
      <trkpt lat="60.0052192" lon="17.7279437">
        <ele>31.8607</ele>
        <time>2012-05-27T07:45:56Z</time>
      </trkpt>
      <trkpt lat="60.0056948" lon="17.7280306">
        <ele>32.3416</ele>
        <time>2012-05-27T07:46:02Z</time>
      </trkpt>
      <trkpt lat="60.0059701" lon="17.7278622">
        <ele>30.8995</ele>
        <time>2012-05-27T07:46:06Z</time>
      </trkpt>
      <trkpt lat="60.0064528" lon="17.7273442">
        <ele>30.4188</ele>
        <time>2012-05-27T07:46:13Z</time>
      </trkpt>
      <trkpt lat="60.006994" lon="17.7270705">
        <ele>28.4962</ele>
        <time>2012-05-27T07:46:20Z</time>
      </trkpt>
      <trkpt lat="60.0073671" lon="17.7268203">
        <ele>26.5736</ele>
        <time>2012-05-27T07:46:25Z</time>
      </trkpt>
      <trkpt lat="60.0077238" lon="17.7268143">
        <ele>24.1703</ele>
        <time>2012-05-27T07:46:29Z</time>
      </trkpt>
      <trkpt lat="60.0080799" lon="17.72715">
        <ele>23.209</ele>
        <time>2012-05-27T07:46:33Z</time>
      </trkpt>
      <trkpt lat="60.0081584" lon="17.7272655">
        <ele>22.7283</ele>
        <time>2012-05-27T07:46:34Z</time>
      </trkpt>
      <trkpt lat="60.0085854" lon="17.7279212">
        <ele>23.6896</ele>
        <time>2012-05-27T07:46:40Z</time>
      </trkpt>
      <trkpt lat="60.0087844" lon="17.7281658">
        <ele>24.651</ele>
        <time>2012-05-27T07:46:43Z</time>
      </trkpt>
      <trkpt lat="60.0090269" lon="17.7287061">
        <ele>25.1317</ele>
        <time>2012-05-27T07:46:48Z</time>
      </trkpt>
      <trkpt lat="60.0093562" lon="17.7296939">
        <ele>27.5349</ele>
        <time>2012-05-27T07:46:57Z</time>
      </trkpt>
      <trkpt lat="60.0095832" lon="17.7303118">
        <ele>29.9381</ele>
        <time>2012-05-27T07:47:04Z</time>
      </trkpt>
      <trkpt lat="60.0098741" lon="17.7310188">
        <ele>31.3801</ele>
        <time>2012-05-27T07:47:13Z</time>
      </trkpt>
      <trkpt lat="60.0102379" lon="17.7315544">
        <ele>32.3416</ele>
        <time>2012-05-27T07:47:21Z</time>
      </trkpt>
      <trkpt lat="60.010487" lon="17.7320265">
        <ele>32.8223</ele>
        <time>2012-05-27T07:47:27Z</time>
      </trkpt>
      <trkpt lat="60.0106067" lon="17.7322712">
        <ele>33.3029</ele>
        <time>2012-05-27T07:47:30Z</time>
      </trkpt>
      <trkpt lat="60.0109197" lon="17.7325948">
        <ele>34.2642</ele>
        <time>2012-05-27T07:47:36Z</time>
      </trkpt>
      <trkpt lat="60.011355" lon="17.7328181">
        <ele>34.7449</ele>
        <time>2012-05-27T07:47:43Z</time>
      </trkpt>
      <trkpt lat="60.0117815" lon="17.732872">
        <ele>37.1481</ele>
        <time>2012-05-27T07:47:49Z</time>
      </trkpt>
      <trkpt lat="60.0123589" lon="17.7327313">
        <ele>37.1481</ele>
        <time>2012-05-27T07:47:57Z</time>
      </trkpt>
      <trkpt lat="60.0130697" lon="17.7325124">
        <ele>36.1868</ele>
        <time>2012-05-27T07:48:06Z</time>
      </trkpt>
      <trkpt lat="60.0135988" lon="17.732539">
        <ele>34.7449</ele>
        <time>2012-05-27T07:48:12Z</time>
      </trkpt>
      <trkpt lat="60.0141095" lon="17.7326964">
        <ele>34.7449</ele>
        <time>2012-05-27T07:48:18Z</time>
      </trkpt>
      <trkpt lat="60.0146498" lon="17.7330477">
        <ele>35.7061</ele>
        <time>2012-05-27T07:48:25Z</time>
      </trkpt>
      <trkpt lat="60.0151776" lon="17.7334198">
        <ele>36.6675</ele>
        <time>2012-05-27T07:48:32Z</time>
      </trkpt>
      <trkpt lat="60.0156996" lon="17.7335605">
        <ele>38.5901</ele>
        <time>2012-05-27T07:48:39Z</time>
      </trkpt>
      <trkpt lat="60.016412" lon="17.7337527">
        <ele>40.0321</ele>
        <time>2012-05-27T07:48:49Z</time>
      </trkpt>
      <trkpt lat="60.0170628" lon="17.7339747">
        <ele>41.474</ele>
        <time>2012-05-27T07:48:59Z</time>
      </trkpt>
      <trkpt lat="60.0174961" lon="17.7341094">
        <ele>41.9547</ele>
        <time>2012-05-27T07:49:06Z</time>
      </trkpt>
      <trkpt lat="60.0179643" lon="17.7344098">
        <ele>43.3966</ele>
        <time>2012-05-27T07:49:14Z</time>
      </trkpt>
      <trkpt lat="60.0183463" lon="17.734813">
        <ele>44.358</ele>
        <time>2012-05-27T07:49:22Z</time>
      </trkpt>
      <trkpt lat="60.0187389" lon="17.7352188">
        <ele>42.916</ele>
        <time>2012-05-27T07:49:29Z</time>
      </trkpt>
      <trkpt lat="60.0191849" lon="17.73585">
        <ele>42.916</ele>
        <time>2012-05-27T07:49:37Z</time>
      </trkpt>
      <trkpt lat="60.0197019" lon="17.7365851">
        <ele>41.474</ele>
        <time>2012-05-27T07:49:46Z</time>
      </trkpt>
      <trkpt lat="60.0200241" lon="17.7371705">
        <ele>40.9934</ele>
        <time>2012-05-27T07:49:52Z</time>
      </trkpt>
      <trkpt lat="60.0202479" lon="17.7379096">
        <ele>40.9934</ele>
        <time>2012-05-27T07:49:58Z</time>
      </trkpt>
      <trkpt lat="60.0205903" lon="17.7388209">
        <ele>40.9934</ele>
        <time>2012-05-27T07:50:06Z</time>
      </trkpt>
      <trkpt lat="60.0209714" lon="17.7394489">
        <ele>40.9934</ele>
        <time>2012-05-27T07:50:13Z</time>
      </trkpt>
      <trkpt lat="60.0213705" lon="17.7399286">
        <ele>40.5128</ele>
        <time>2012-05-27T07:50:20Z</time>
      </trkpt>
      <trkpt lat="60.0217627" lon="17.7403504">
        <ele>40.0321</ele>
        <time>2012-05-27T07:50:27Z</time>
      </trkpt>
      <trkpt lat="60.0222821" lon="17.7409116">
        <ele>39.0707</ele>
        <time>2012-05-27T07:50:37Z</time>
      </trkpt>
      <trkpt lat="60.0224272" lon="17.7411279">
        <ele>39.5513</ele>
        <time>2012-05-27T07:50:40Z</time>
      </trkpt>
      <trkpt lat="60.0225961" lon="17.7411849">
        <ele>39.5513</ele>
        <time>2012-05-27T07:50:43Z</time>
      </trkpt>
      <trkpt lat="60.0226763" lon="17.7409959">
        <ele>39.5513</ele>
        <time>2012-05-27T07:50:45Z</time>
      </trkpt>
      <trkpt lat="60.0226991" lon="17.7408591">
        <ele>39.5513</ele>
        <time>2012-05-27T07:50:46Z</time>
      </trkpt>
      <trkpt lat="60.0227747" lon="17.7398172">
        <ele>39.5513</ele>
        <time>2012-05-27T07:50:53Z</time>
      </trkpt>
      <trkpt lat="60.0228764" lon="17.7386305">
        <ele>39.0707</ele>
        <time>2012-05-27T07:51:00Z</time>
      </trkpt>
      <trkpt lat="60.0229888" lon="17.7371599">
        <ele>37.6287</ele>
        <time>2012-05-27T07:51:08Z</time>
      </trkpt>
      <trkpt lat="60.0231415" lon="17.7353359">
        <ele>37.1481</ele>
        <time>2012-05-27T07:51:18Z</time>
      </trkpt>
      <trkpt lat="60.0232808" lon="17.734212">
        <ele>38.1094</ele>
        <time>2012-05-27T07:51:25Z</time>
      </trkpt>
      <trkpt lat="60.0234136" lon="17.7330712">
        <ele>39.5513</ele>
        <time>2012-05-27T07:51:33Z</time>
      </trkpt>
      <trkpt lat="60.0234171" lon="17.7329319">
        <ele>40.0321</ele>
        <time>2012-05-27T07:51:34Z</time>
      </trkpt>
      <trkpt lat="60.0233243" lon="17.7321377">
        <ele>39.0707</ele>
        <time>2012-05-27T07:51:40Z</time>
      </trkpt>
      <trkpt lat="60.0231719" lon="17.7316655">
        <ele>38.5901</ele>
        <time>2012-05-27T07:51:44Z</time>
      </trkpt>
      <trkpt lat="60.0226898" lon="17.7306062">
        <ele>34.2642</ele>
        <time>2012-05-27T07:51:53Z</time>
      </trkpt>
      <trkpt lat="60.0224868" lon="17.7298042">
        <ele>31.3801</ele>
        <time>2012-05-27T07:51:58Z</time>
      </trkpt>
      <trkpt lat="60.0224342" lon="17.7291273">
        <ele>31.3801</ele>
        <time>2012-05-27T07:52:02Z</time>
      </trkpt>
      <trkpt lat="60.0224562" lon="17.7284242">
        <ele>33.7834</ele>
        <time>2012-05-27T07:52:07Z</time>
      </trkpt>
      <trkpt lat="60.0224909" lon="17.7278177">
        <ele>36.1868</ele>
        <time>2012-05-27T07:52:13Z</time>
      </trkpt>
      <trkpt lat="60.0224976" lon="17.7268957">
        <ele>36.6675</ele>
        <time>2012-05-27T07:52:22Z</time>
      </trkpt>
      <trkpt lat="60.0224471" lon="17.7258838">
        <ele>35.2255</ele>
        <time>2012-05-27T07:52:30Z</time>
      </trkpt>
      <trkpt lat="60.0223505" lon="17.7247752">
        <ele>34.7449</ele>
        <time>2012-05-27T07:52:38Z</time>
      </trkpt>
      <trkpt lat="60.0222296" lon="17.7234949">
        <ele>35.2255</ele>
        <time>2012-05-27T07:52:47Z</time>
      </trkpt>
      <trkpt lat="60.0221455" lon="17.7226983">
        <ele>36.6675</ele>
        <time>2012-05-27T07:52:53Z</time>
      </trkpt>
      <trkpt lat="60.0220987" lon="17.7223475">
        <ele>37.1481</ele>
        <time>2012-05-27T07:52:56Z</time>
      </trkpt>
      <trkpt lat="60.0219132" lon="17.7218348">
        <ele>37.1481</ele>
        <time>2012-05-27T07:53:01Z</time>
      </trkpt>
      <trkpt lat="60.0216647" lon="17.7216156">
        <ele>37.1481</ele>
        <time>2012-05-27T07:53:05Z</time>
      </trkpt>
      <trkpt lat="60.0215978" lon="17.7215865">
        <ele>37.1481</ele>
        <time>2012-05-27T07:53:06Z</time>
      </trkpt>
      <trkpt lat="60.0208404" lon="17.7214016">
        <ele>37.6287</ele>
        <time>2012-05-27T07:53:17Z</time>
      </trkpt>
      <trkpt lat="60.0202492" lon="17.7212591">
        <ele>37.1481</ele>
        <time>2012-05-27T07:53:26Z</time>
      </trkpt>
      <trkpt lat="60.0197266" lon="17.721122">
        <ele>35.2255</ele>
        <time>2012-05-27T07:53:33Z</time>
      </trkpt>
      <trkpt lat="60.0189697" lon="17.7209098">
        <ele>33.3029</ele>
        <time>2012-05-27T07:53:43Z</time>
      </trkpt>
      <trkpt lat="60.0182006" lon="17.7206852">
        <ele>31.8607</ele>
        <time>2012-05-27T07:53:53Z</time>
      </trkpt>
      <trkpt lat="60.0176128" lon="17.7205459">
        <ele>32.3416</ele>
        <time>2012-05-27T07:54:01Z</time>
      </trkpt>
      <trkpt lat="60.0170633" lon="17.7205434">
        <ele>33.3029</ele>
        <time>2012-05-27T07:54:09Z</time>
      </trkpt>
      <trkpt lat="60.0169004" lon="17.7203164">
        <ele>32.8223</ele>
        <time>2012-05-27T07:54:12Z</time>
      </trkpt>
      <trkpt lat="60.0168811" lon="17.7199987">
        <ele>31.8607</ele>
        <time>2012-05-27T07:54:14Z</time>
      </trkpt>
      <trkpt lat="60.0168891" lon="17.7198336">
        <ele>31.8607</ele>
        <time>2012-05-27T07:54:15Z</time>
      </trkpt>
      <trkpt lat="60.0169459" lon="17.7187177">
        <ele>28.4962</ele>
        <time>2012-05-27T07:54:21Z</time>
      </trkpt>
      <trkpt lat="60.0170601" lon="17.717233">
        <ele>25.1317</ele>
        <time>2012-05-27T07:54:28Z</time>
      </trkpt>
      <trkpt lat="60.0172532" lon="17.7161931">
        <ele>23.209</ele>
        <time>2012-05-27T07:54:33Z</time>
      </trkpt>
      <trkpt lat="60.0175132" lon="17.7151015">
        <ele>23.6896</ele>
        <time>2012-05-27T07:54:39Z</time>
      </trkpt>
      <trkpt lat="60.0176826" lon="17.7141345">
        <ele>25.1317</ele>
        <time>2012-05-27T07:54:45Z</time>
      </trkpt>
      <trkpt lat="60.0177732" lon="17.7130801">
        <ele>27.0543</ele>
        <time>2012-05-27T07:54:52Z</time>
      </trkpt>
      <trkpt lat="60.0178619" lon="17.7117385">
        <ele>28.9769</ele>
        <time>2012-05-27T07:55:02Z</time>
      </trkpt>
      <trkpt lat="60.017949" lon="17.7104063">
        <ele>29.9381</ele>
        <time>2012-05-27T07:55:13Z</time>
      </trkpt>
      <trkpt lat="60.0180432" lon="17.7090182">
        <ele>30.4188</ele>
        <time>2012-05-27T07:55:24Z</time>
      </trkpt>
      <trkpt lat="60.0181114" lon="17.7079417">
        <ele>30.4188</ele>
        <time>2012-05-27T07:55:32Z</time>
      </trkpt>
      <trkpt lat="60.0182199" lon="17.7066869">
        <ele>30.4188</ele>
        <time>2012-05-27T07:55:41Z</time>
      </trkpt>
      <trkpt lat="60.0183949" lon="17.7057049">
        <ele>29.9381</ele>
        <time>2012-05-27T07:55:48Z</time>
      </trkpt>
      <trkpt lat="60.0187156" lon="17.704604">
        <ele>28.9769</ele>
        <time>2012-05-27T07:55:56Z</time>
      </trkpt>
      <trkpt lat="60.0190911" lon="17.7037704">
        <ele>28.9769</ele>
        <time>2012-05-27T07:56:03Z</time>
      </trkpt>
      <trkpt lat="60.0196171" lon="17.7028874">
        <ele>29.9381</ele>
        <time>2012-05-27T07:56:12Z</time>
      </trkpt>
      <trkpt lat="60.0200666" lon="17.7020172">
        <ele>31.3801</ele>
        <time>2012-05-27T07:56:21Z</time>
      </trkpt>
      <trkpt lat="60.0203789" lon="17.7011714">
        <ele>32.3416</ele>
        <time>2012-05-27T07:56:29Z</time>
      </trkpt>
      <trkpt lat="60.0206842" lon="17.7000726">
        <ele>33.3029</ele>
        <time>2012-05-27T07:56:39Z</time>
      </trkpt>
      <trkpt lat="60.0209786" lon="17.6989665">
        <ele>33.7834</ele>
        <time>2012-05-27T07:56:49Z</time>
      </trkpt>
      <trkpt lat="60.0212944" lon="17.6977722">
        <ele>32.3416</ele>
        <time>2012-05-27T07:56:59Z</time>
      </trkpt>
      <trkpt lat="60.021546" lon="17.6968091">
        <ele>30.8995</ele>
        <time>2012-05-27T07:57:06Z</time>
      </trkpt>
      <trkpt lat="60.0219293" lon="17.6953505">
        <ele>29.4575</ele>
        <time>2012-05-27T07:57:16Z</time>
      </trkpt>
      <trkpt lat="60.0221685" lon="17.6941921">
        <ele>29.4575</ele>
        <time>2012-05-27T07:57:24Z</time>
      </trkpt>
      <trkpt lat="60.0223317" lon="17.6929094">
        <ele>29.9381</ele>
        <time>2012-05-27T07:57:33Z</time>
      </trkpt>
      <trkpt lat="60.0224023" lon="17.6917623">
        <ele>30.4188</ele>
        <time>2012-05-27T07:57:41Z</time>
      </trkpt>
      <trkpt lat="60.0224815" lon="17.6900911">
        <ele>30.8995</ele>
        <time>2012-05-27T07:57:53Z</time>
      </trkpt>
      <trkpt lat="60.0225514" lon="17.6885862">
        <ele>31.3801</ele>
        <time>2012-05-27T07:58:04Z</time>
      </trkpt>
      <trkpt lat="60.0226406" lon="17.6867639">
        <ele>31.3801</ele>
        <time>2012-05-27T07:58:17Z</time>
      </trkpt>
      <trkpt lat="60.0227167" lon="17.6850948">
        <ele>30.4188</ele>
        <time>2012-05-27T07:58:28Z</time>
      </trkpt>
      <trkpt lat="60.0227292" lon="17.6836548">
        <ele>30.4188</ele>
        <time>2012-05-27T07:58:37Z</time>
      </trkpt>
      <trkpt lat="60.022674" lon="17.6820282">
        <ele>29.4575</ele>
        <time>2012-05-27T07:58:47Z</time>
      </trkpt>
      <trkpt lat="60.0225318" lon="17.6803937">
        <ele>28.9769</ele>
        <time>2012-05-27T07:58:57Z</time>
      </trkpt>
      <trkpt lat="60.0223052" lon="17.6787788">
        <ele>28.9769</ele>
        <time>2012-05-27T07:59:07Z</time>
      </trkpt>
      <trkpt lat="60.0219755" lon="17.6766786">
        <ele>28.4962</ele>
        <time>2012-05-27T07:59:20Z</time>
      </trkpt>
      <trkpt lat="60.0218685" lon="17.6755622">
        <ele>28.4962</ele>
        <time>2012-05-27T07:59:27Z</time>
      </trkpt>
      <trkpt lat="60.0218356" lon="17.6741265">
        <ele>28.0155</ele>
        <time>2012-05-27T07:59:36Z</time>
      </trkpt>
      <trkpt lat="60.0218266" lon="17.6724513">
        <ele>28.0155</ele>
        <time>2012-05-27T07:59:47Z</time>
      </trkpt>
      <trkpt lat="60.0217458" lon="17.6712961">
        <ele>27.5349</ele>
        <time>2012-05-27T07:59:55Z</time>
      </trkpt>
      <trkpt lat="60.021561" lon="17.670044">
        <ele>27.5349</ele>
        <time>2012-05-27T08:00:04Z</time>
      </trkpt>
      <trkpt lat="60.021327" lon="17.6690101">
        <ele>27.5349</ele>
        <time>2012-05-27T08:00:12Z</time>
      </trkpt>
      <trkpt lat="60.0209778" lon="17.6679088">
        <ele>28.0155</ele>
        <time>2012-05-27T08:00:21Z</time>
      </trkpt>
      <trkpt lat="60.020405" lon="17.6663496">
        <ele>28.4962</ele>
        <time>2012-05-27T08:00:34Z</time>
      </trkpt>
      <trkpt lat="60.0200283" lon="17.66528">
        <ele>28.4962</ele>
        <time>2012-05-27T08:00:43Z</time>
      </trkpt>
      <trkpt lat="60.0196667" lon="17.6640858">
        <ele>28.4962</ele>
        <time>2012-05-27T08:00:53Z</time>
      </trkpt>
      <trkpt lat="60.0194596" lon="17.6630888">
        <ele>28.4962</ele>
        <time>2012-05-27T08:01:01Z</time>
      </trkpt>
      <trkpt lat="60.0192808" lon="17.6617902">
        <ele>28.4962</ele>
        <time>2012-05-27T08:01:11Z</time>
      </trkpt>
      <trkpt lat="60.0191324" lon="17.6599774">
        <ele>28.9769</ele>
        <time>2012-05-27T08:01:24Z</time>
      </trkpt>
      <trkpt lat="60.0189856" lon="17.6580212">
        <ele>28.9769</ele>
        <time>2012-05-27T08:01:38Z</time>
      </trkpt>
      <trkpt lat="60.0188674" lon="17.6564461">
        <ele>28.4962</ele>
        <time>2012-05-27T08:01:49Z</time>
      </trkpt>
      <trkpt lat="60.0187216" lon="17.6545013">
        <ele>28.4962</ele>
        <time>2012-05-27T08:02:02Z</time>
      </trkpt>
      <trkpt lat="60.0185623" lon="17.6524704">
        <ele>29.4575</ele>
        <time>2012-05-27T08:02:15Z</time>
      </trkpt>
      <trkpt lat="60.0184571" lon="17.6509409">
        <ele>30.4188</ele>
        <time>2012-05-27T08:02:25Z</time>
      </trkpt>
      <trkpt lat="60.0184074" lon="17.649525">
        <ele>31.3801</ele>
        <time>2012-05-27T08:02:35Z</time>
      </trkpt>
      <trkpt lat="60.0183992" lon="17.6479995">
        <ele>31.3801</ele>
        <time>2012-05-27T08:02:46Z</time>
      </trkpt>
      <trkpt lat="60.0183885" lon="17.6459339">
        <ele>31.3801</ele>
        <time>2012-05-27T08:03:00Z</time>
      </trkpt>
      <trkpt lat="60.0183823" lon="17.6446222">
        <ele>32.3416</ele>
        <time>2012-05-27T08:03:09Z</time>
      </trkpt>
      <trkpt lat="60.018396" lon="17.642996">
        <ele>33.7834</ele>
        <time>2012-05-27T08:03:21Z</time>
      </trkpt>
      <trkpt lat="60.0183352" lon="17.641886">
        <ele>32.8223</ele>
        <time>2012-05-27T08:03:29Z</time>
      </trkpt>
      <trkpt lat="60.0181962" lon="17.6404201">
        <ele>32.3416</ele>
        <time>2012-05-27T08:03:39Z</time>
      </trkpt>
      <trkpt lat="60.0180389" lon="17.638806">
        <ele>31.8607</ele>
        <time>2012-05-27T08:03:50Z</time>
      </trkpt>
      <trkpt lat="60.0178859" lon="17.6378219">
        <ele>32.3416</ele>
        <time>2012-05-27T08:03:57Z</time>
      </trkpt>
      <trkpt lat="60.0176063" lon="17.6367733">
        <ele>32.3416</ele>
        <time>2012-05-27T08:04:05Z</time>
      </trkpt>
      <trkpt lat="60.0172241" lon="17.6354675">
        <ele>32.8223</ele>
        <time>2012-05-27T08:04:15Z</time>
      </trkpt>
      <trkpt lat="60.0168824" lon="17.6342801">
        <ele>32.8223</ele>
        <time>2012-05-27T08:04:24Z</time>
      </trkpt>
      <trkpt lat="60.0165506" lon="17.6334072">
        <ele>32.8223</ele>
        <time>2012-05-27T08:04:31Z</time>
      </trkpt>
      <trkpt lat="60.0160463" lon="17.632447">
        <ele>33.7834</ele>
        <time>2012-05-27T08:04:40Z</time>
      </trkpt>
      <trkpt lat="60.0155801" lon="17.6314455">
        <ele>33.7834</ele>
        <time>2012-05-27T08:04:49Z</time>
      </trkpt>
      <trkpt lat="60.0151365" lon="17.6304176">
        <ele>32.8223</ele>
        <time>2012-05-27T08:04:58Z</time>
      </trkpt>
      <trkpt lat="60.0146547" lon="17.6296368">
        <ele>32.3416</ele>
        <time>2012-05-27T08:05:06Z</time>
      </trkpt>
      <trkpt lat="60.014172" lon="17.6289809">
        <ele>32.3416</ele>
        <time>2012-05-27T08:05:14Z</time>
      </trkpt>
      <trkpt lat="60.0136928" lon="17.6282981">
        <ele>32.3416</ele>
        <time>2012-05-27T08:05:22Z</time>
      </trkpt>
      <trkpt lat="60.0132413" lon="17.6275919">
        <ele>32.8223</ele>
        <time>2012-05-27T08:05:30Z</time>
      </trkpt>
      <trkpt lat="60.0127968" lon="17.6267715">
        <ele>32.8223</ele>
        <time>2012-05-27T08:05:38Z</time>
      </trkpt>
      <trkpt lat="60.012328" lon="17.6256939">
        <ele>32.3416</ele>
        <time>2012-05-27T08:05:47Z</time>
      </trkpt>
      <trkpt lat="60.0118582" lon="17.6244721">
        <ele>32.3416</ele>
        <time>2012-05-27T08:05:57Z</time>
      </trkpt>
      <trkpt lat="60.0116436" lon="17.6239717">
        <ele>31.8607</ele>
        <time>2012-05-27T08:06:01Z</time>
      </trkpt>
      <trkpt lat="60.0111889" lon="17.6231543">
        <ele>32.3416</ele>
        <time>2012-05-27T08:06:09Z</time>
      </trkpt>
      <trkpt lat="60.0107026" lon="17.6225394">
        <ele>33.3029</ele>
        <time>2012-05-27T08:06:17Z</time>
      </trkpt>
      <trkpt lat="60.0100396" lon="17.6218505">
        <ele>34.7449</ele>
        <time>2012-05-27T08:06:28Z</time>
      </trkpt>
      <trkpt lat="60.0095316" lon="17.6211956">
        <ele>36.1868</ele>
        <time>2012-05-27T08:06:37Z</time>
      </trkpt>
      <trkpt lat="60.0090272" lon="17.6203116">
        <ele>37.6287</ele>
        <time>2012-05-27T08:06:47Z</time>
      </trkpt>
      <trkpt lat="60.008627" lon="17.6193678">
        <ele>38.1094</ele>
        <time>2012-05-27T08:06:56Z</time>
      </trkpt>
      <trkpt lat="60.0083186" lon="17.6184124">
        <ele>38.1094</ele>
        <time>2012-05-27T08:07:04Z</time>
      </trkpt>
      <trkpt lat="60.008044" lon="17.6172055">
        <ele>38.1094</ele>
        <time>2012-05-27T08:07:13Z</time>
      </trkpt>
      <trkpt lat="60.0078562" lon="17.6158823">
        <ele>37.6287</ele>
        <time>2012-05-27T08:07:22Z</time>
      </trkpt>
      <trkpt lat="60.0077717" lon="17.6146283">
        <ele>37.6287</ele>
        <time>2012-05-27T08:07:30Z</time>
      </trkpt>
      <trkpt lat="60.0077602" lon="17.6131415">
        <ele>37.1481</ele>
        <time>2012-05-27T08:07:39Z</time>
      </trkpt>
      <trkpt lat="60.0078185" lon="17.6111556">
        <ele>37.1481</ele>
        <time>2012-05-27T08:07:51Z</time>
      </trkpt>
      <trkpt lat="60.0078957" lon="17.6098485">
        <ele>36.6675</ele>
        <time>2012-05-27T08:07:59Z</time>
      </trkpt>
      <trkpt lat="60.0080648" lon="17.6079211">
        <ele>36.6675</ele>
        <time>2012-05-27T08:08:11Z</time>
      </trkpt>
      <trkpt lat="60.0082626" lon="17.6062444">
        <ele>36.6675</ele>
        <time>2012-05-27T08:08:22Z</time>
      </trkpt>
      <trkpt lat="60.0085075" lon="17.6044894">
        <ele>37.1481</ele>
        <time>2012-05-27T08:08:34Z</time>
      </trkpt>
      <trkpt lat="60.0087466" lon="17.6028505">
        <ele>38.5901</ele>
        <time>2012-05-27T08:08:46Z</time>
      </trkpt>
      <trkpt lat="60.0089449" lon="17.6015419">
        <ele>38.5901</ele>
        <time>2012-05-27T08:08:56Z</time>
      </trkpt>
      <trkpt lat="60.0091557" lon="17.6002285">
        <ele>38.5901</ele>
        <time>2012-05-27T08:09:06Z</time>
      </trkpt>
      <trkpt lat="60.0093723" lon="17.5989059">
        <ele>38.5901</ele>
        <time>2012-05-27T08:09:16Z</time>
      </trkpt>
      <trkpt lat="60.0096073" lon="17.5974925">
        <ele>36.1868</ele>
        <time>2012-05-27T08:09:26Z</time>
      </trkpt>
      <trkpt lat="60.009944" lon="17.5955931">
        <ele>36.1868</ele>
        <time>2012-05-27T08:09:39Z</time>
      </trkpt>
      <trkpt lat="60.0101212" lon="17.5946177">
        <ele>36.1868</ele>
        <time>2012-05-27T08:09:46Z</time>
      </trkpt>
      <trkpt lat="60.0103968" lon="17.593159">
        <ele>35.2255</ele>
        <time>2012-05-27T08:09:56Z</time>
      </trkpt>
      <trkpt lat="60.0107578" lon="17.5915174">
        <ele>34.7449</ele>
        <time>2012-05-27T08:10:07Z</time>
      </trkpt>
      <trkpt lat="60.0111174" lon="17.5903682">
        <ele>35.2255</ele>
        <time>2012-05-27T08:10:15Z</time>
      </trkpt>
      <trkpt lat="60.0115418" lon="17.589379">
        <ele>35.2255</ele>
        <time>2012-05-27T08:10:23Z</time>
      </trkpt>
      <trkpt lat="60.0119525" lon="17.5886692">
        <ele>35.2255</ele>
        <time>2012-05-27T08:10:30Z</time>
      </trkpt>
      <trkpt lat="60.0125088" lon="17.5879261">
        <ele>35.7061</ele>
        <time>2012-05-27T08:10:39Z</time>
      </trkpt>
      <trkpt lat="60.0130282" lon="17.5874411">
        <ele>35.7061</ele>
        <time>2012-05-27T08:10:47Z</time>
      </trkpt>
      <trkpt lat="60.0135309" lon="17.5871097">
        <ele>35.7061</ele>
        <time>2012-05-27T08:10:55Z</time>
      </trkpt>
      <trkpt lat="60.0141939" lon="17.5868124">
        <ele>37.1481</ele>
        <time>2012-05-27T08:11:05Z</time>
      </trkpt>
      <trkpt lat="60.0149334" lon="17.5865294">
        <ele>37.6287</ele>
        <time>2012-05-27T08:11:16Z</time>
      </trkpt>
      <trkpt lat="60.0155284" lon="17.5862911">
        <ele>38.5901</ele>
        <time>2012-05-27T08:11:25Z</time>
      </trkpt>
      <trkpt lat="60.0161788" lon="17.5859333">
        <ele>38.5901</ele>
        <time>2012-05-27T08:11:35Z</time>
      </trkpt>
      <trkpt lat="60.0167016" lon="17.5855036">
        <ele>39.0707</ele>
        <time>2012-05-27T08:11:43Z</time>
      </trkpt>
      <trkpt lat="60.017214" lon="17.5849037">
        <ele>39.0707</ele>
        <time>2012-05-27T08:11:51Z</time>
      </trkpt>
      <trkpt lat="60.0177054" lon="17.584158">
        <ele>40.0321</ele>
        <time>2012-05-27T08:11:59Z</time>
      </trkpt>
      <trkpt lat="60.0181326" lon="17.5832753">
        <ele>40.0321</ele>
        <time>2012-05-27T08:12:07Z</time>
      </trkpt>
      <trkpt lat="60.0183709" lon="17.5826753">
        <ele>40.0321</ele>
        <time>2012-05-27T08:12:12Z</time>
      </trkpt>
      <trkpt lat="60.0187353" lon="17.5814815">
        <ele>39.5513</ele>
        <time>2012-05-27T08:12:21Z</time>
      </trkpt>
      <trkpt lat="60.0189796" lon="17.5803371">
        <ele>38.5901</ele>
        <time>2012-05-27T08:12:29Z</time>
      </trkpt>
      <trkpt lat="60.0190558" lon="17.5799044">
        <ele>38.5901</ele>
        <time>2012-05-27T08:12:32Z</time>
      </trkpt>
      <trkpt lat="60.0192832" lon="17.5795529">
        <ele>38.1094</ele>
        <time>2012-05-27T08:12:36Z</time>
      </trkpt>
      <trkpt lat="60.0194979" lon="17.5793643">
        <ele>37.1481</ele>
        <time>2012-05-27T08:12:39Z</time>
      </trkpt>
      <trkpt lat="60.0197354" lon="17.5789395">
        <ele>35.2255</ele>
        <time>2012-05-27T08:12:43Z</time>
      </trkpt>
      <trkpt lat="60.0199439" lon="17.5780443">
        <ele>33.3029</ele>
        <time>2012-05-27T08:12:49Z</time>
      </trkpt>
      <trkpt lat="60.0200478" lon="17.5769096">
        <ele>32.3416</ele>
        <time>2012-05-27T08:12:56Z</time>
      </trkpt>
      <trkpt lat="60.0200952" lon="17.5764298">
        <ele>32.3416</ele>
        <time>2012-05-27T08:12:59Z</time>
      </trkpt>
      <trkpt lat="60.0203188" lon="17.5756647">
        <ele>33.3029</ele>
        <time>2012-05-27T08:13:04Z</time>
      </trkpt>
      <trkpt lat="60.0204899" lon="17.5753801">
        <ele>33.3029</ele>
        <time>2012-05-27T08:13:07Z</time>
      </trkpt>
      <trkpt lat="60.0209317" lon="17.5749886">
        <ele>35.2255</ele>
        <time>2012-05-27T08:13:14Z</time>
      </trkpt>
      <trkpt lat="60.0213506" lon="17.5748622">
        <ele>35.7061</ele>
        <time>2012-05-27T08:13:20Z</time>
      </trkpt>
      <trkpt lat="60.0217518" lon="17.5746857">
        <ele>39.0707</ele>
        <time>2012-05-27T08:13:26Z</time>
      </trkpt>
      <trkpt lat="60.0222197" lon="17.5744293">
        <ele>44.358</ele>
        <time>2012-05-27T08:13:33Z</time>
      </trkpt>
      <trkpt lat="60.0225415" lon="17.5743034">
        <ele>45.7999</ele>
        <time>2012-05-27T08:13:38Z</time>
      </trkpt>
      <trkpt lat="60.0229351" lon="17.5742123">
        <ele>47.2418</ele>
        <time>2012-05-27T08:13:44Z</time>
      </trkpt>
      <trkpt lat="60.0230025" lon="17.5742117">
        <ele>47.7225</ele>
        <time>2012-05-27T08:13:45Z</time>
      </trkpt>
      <trkpt lat="60.0233528" lon="17.5742835">
        <ele>45.7999</ele>
        <time>2012-05-27T08:13:51Z</time>
      </trkpt>
      <trkpt lat="60.0237771" lon="17.5743558">
        <ele>45.7999</ele>
        <time>2012-05-27T08:13:58Z</time>
      </trkpt>
      <trkpt lat="60.0240118" lon="17.5743371">
        <ele>46.2806</ele>
        <time>2012-05-27T08:14:02Z</time>
      </trkpt>
      <trkpt lat="60.0243775" lon="17.574162">
        <ele>45.3192</ele>
        <time>2012-05-27T08:14:08Z</time>
      </trkpt>
      <trkpt lat="60.0246135" lon="17.5739512">
        <ele>41.9547</ele>
        <time>2012-05-27T08:14:12Z</time>
      </trkpt>
      <trkpt lat="60.0249777" lon="17.5737328">
        <ele>35.2255</ele>
        <time>2012-05-27T08:14:18Z</time>
      </trkpt>
      <trkpt lat="60.0252115" lon="17.5735632">
        <ele>38.5901</ele>
        <time>2012-05-27T08:14:21Z</time>
      </trkpt>
      <trkpt lat="60.0254497" lon="17.5730919">
        <ele>38.5901</ele>
        <time>2012-05-27T08:14:25Z</time>
      </trkpt>
      <trkpt lat="60.0255285" lon="17.5725893">
        <ele>38.5901</ele>
        <time>2012-05-27T08:14:28Z</time>
      </trkpt>
      <trkpt lat="60.0255998" lon="17.5716784">
        <ele>38.5901</ele>
        <time>2012-05-27T08:14:34Z</time>
      </trkpt>
      <trkpt lat="60.025691" lon="17.5711376">
        <ele>38.1094</ele>
        <time>2012-05-27T08:14:40Z</time>
      </trkpt>
      <trkpt lat="60.0257049" lon="17.5705176">
        <ele>37.1481</ele>
        <time>2012-05-27T08:14:46Z</time>
      </trkpt>
      <trkpt lat="60.0255943" lon="17.5700428">
        <ele>36.1868</ele>
        <time>2012-05-27T08:14:51Z</time>
      </trkpt>
      <trkpt lat="60.0253217" lon="17.5694883">
        <ele>35.7061</ele>
        <time>2012-05-27T08:14:58Z</time>
      </trkpt>
      <trkpt lat="60.0251104" lon="17.5689644">
        <ele>36.1868</ele>
        <time>2012-05-27T08:15:04Z</time>
      </trkpt>
      <trkpt lat="60.0249353" lon="17.5683484">
        <ele>37.6287</ele>
        <time>2012-05-27T08:15:11Z</time>
      </trkpt>
      <trkpt lat="60.0248057" lon="17.5677417">
        <ele>37.1481</ele>
        <time>2012-05-27T08:15:18Z</time>
      </trkpt>
      <trkpt lat="60.0247094" lon="17.5672339">
        <ele>35.2255</ele>
        <time>2012-05-27T08:15:23Z</time>
      </trkpt>
      <trkpt lat="60.0246334" lon="17.5669298">
        <ele>34.2642</ele>
        <time>2012-05-27T08:15:26Z</time>
      </trkpt>
      <trkpt lat="60.0243894" lon="17.5662668">
        <ele>33.7834</ele>
        <time>2012-05-27T08:15:33Z</time>
      </trkpt>
      <trkpt lat="60.0241065" lon="17.5657354">
        <ele>37.6287</ele>
        <time>2012-05-27T08:15:40Z</time>
      </trkpt>
      <trkpt lat="60.0238864" lon="17.565273">
        <ele>36.6675</ele>
        <time>2012-05-27T08:15:46Z</time>
      </trkpt>
      <trkpt lat="60.0237582" lon="17.5646091">
        <ele>34.7449</ele>
        <time>2012-05-27T08:15:51Z</time>
      </trkpt>
      <trkpt lat="60.0237525" lon="17.5634361">
        <ele>33.3029</ele>
        <time>2012-05-27T08:15:59Z</time>
      </trkpt>
      <trkpt lat="60.0238199" lon="17.5623265">
        <ele>34.2642</ele>
        <time>2012-05-27T08:16:07Z</time>
      </trkpt>
      <trkpt lat="60.0239418" lon="17.5610915">
        <ele>33.7834</ele>
        <time>2012-05-27T08:16:16Z</time>
      </trkpt>
      <trkpt lat="60.0241185" lon="17.5601164">
        <ele>32.8223</ele>
        <time>2012-05-27T08:16:23Z</time>
      </trkpt>
      <trkpt lat="60.0244219" lon="17.5592607">
        <ele>33.7834</ele>
        <time>2012-05-27T08:16:30Z</time>
      </trkpt>
      <trkpt lat="60.0248494" lon="17.5583813">
        <ele>34.7449</ele>
        <time>2012-05-27T08:16:38Z</time>
      </trkpt>
      <trkpt lat="60.0253255" lon="17.5576841">
        <ele>36.1868</ele>
        <time>2012-05-27T08:16:46Z</time>
      </trkpt>
      <trkpt lat="60.0258113" lon="17.5570651">
        <ele>36.6675</ele>
        <time>2012-05-27T08:16:54Z</time>
      </trkpt>
      <trkpt lat="60.0261091" lon="17.5564235">
        <ele>39.0707</ele>
        <time>2012-05-27T08:17:00Z</time>
      </trkpt>
      <trkpt lat="60.0262682" lon="17.5557924">
        <ele>39.5513</ele>
        <time>2012-05-27T08:17:05Z</time>
      </trkpt>
      <trkpt lat="60.0263271" lon="17.5550821">
        <ele>40.0321</ele>
        <time>2012-05-27T08:17:10Z</time>
      </trkpt>
      <trkpt lat="60.0263183" lon="17.5540764">
        <ele>40.9934</ele>
        <time>2012-05-27T08:17:17Z</time>
      </trkpt>
      <trkpt lat="60.0262894" lon="17.5536633">
        <ele>40.9934</ele>
        <time>2012-05-27T08:17:20Z</time>
      </trkpt>
      <trkpt lat="60.026294" lon="17.5531981">
        <ele>40.9934</ele>
        <time>2012-05-27T08:17:24Z</time>
      </trkpt>
      <trkpt lat="60.0262133" lon="17.5529447">
        <ele>40.9934</ele>
        <time>2012-05-27T08:17:27Z</time>
      </trkpt>
      <trkpt lat="60.0260413" lon="17.5528257">
        <ele>40.9934</ele>
        <time>2012-05-27T08:17:30Z</time>
      </trkpt>
      <trkpt lat="60.0259008" lon="17.5528325">
        <ele>40.9934</ele>
        <time>2012-05-27T08:17:32Z</time>
      </trkpt>
      <trkpt lat="60.0254363" lon="17.5530079">
        <ele>40.0321</ele>
        <time>2012-05-27T08:17:38Z</time>
      </trkpt>
      <trkpt lat="60.0249084" lon="17.5532873">
        <ele>37.1481</ele>
        <time>2012-05-27T08:17:44Z</time>
      </trkpt>
      <trkpt lat="60.0242956" lon="17.5535791">
        <ele>35.7061</ele>
        <time>2012-05-27T08:17:51Z</time>
      </trkpt>
      <trkpt lat="60.023312" lon="17.554012">
        <ele>34.2642</ele>
        <time>2012-05-27T08:18:02Z</time>
      </trkpt>
      <trkpt lat="60.0222749" lon="17.5544807">
        <ele>33.7834</ele>
        <time>2012-05-27T08:18:14Z</time>
      </trkpt>
      <trkpt lat="60.0214341" lon="17.5548568">
        <ele>34.2642</ele>
        <time>2012-05-27T08:18:25Z</time>
      </trkpt>
      <trkpt lat="60.0207285" lon="17.5551666">
        <ele>34.2642</ele>
        <time>2012-05-27T08:18:35Z</time>
      </trkpt>
      <trkpt lat="60.019952" lon="17.5555182">
        <ele>34.2642</ele>
        <time>2012-05-27T08:18:46Z</time>
      </trkpt>
      <trkpt lat="60.0192331" lon="17.5558353">
        <ele>34.7449</ele>
        <time>2012-05-27T08:18:56Z</time>
      </trkpt>
      <trkpt lat="60.0183908" lon="17.55626">
        <ele>34.7449</ele>
        <time>2012-05-27T08:19:08Z</time>
      </trkpt>
      <trkpt lat="60.0182583" lon="17.5563557">
        <ele>35.2255</ele>
        <time>2012-05-27T08:19:10Z</time>
      </trkpt>
      <trkpt lat="60.0180577" lon="17.5563149">
        <ele>35.2255</ele>
        <time>2012-05-27T08:19:13Z</time>
      </trkpt>
      <trkpt lat="60.0178609" lon="17.5560906">
        <ele>35.2255</ele>
        <time>2012-05-27T08:19:16Z</time>
      </trkpt>
      <trkpt lat="60.0176414" lon="17.5561799">
        <ele>34.7449</ele>
        <time>2012-05-27T08:19:19Z</time>
      </trkpt>
      <trkpt lat="60.0175768" lon="17.5562638">
        <ele>34.7449</ele>
        <time>2012-05-27T08:19:20Z</time>
      </trkpt>
      <trkpt lat="60.0171673" lon="17.5567371">
        <ele>33.7834</ele>
        <time>2012-05-27T08:19:26Z</time>
      </trkpt>
      <trkpt lat="60.0166981" lon="17.556961">
        <ele>33.3029</ele>
        <time>2012-05-27T08:19:32Z</time>
      </trkpt>
      <trkpt lat="60.0157747" lon="17.557395">
        <ele>33.3029</ele>
        <time>2012-05-27T08:19:44Z</time>
      </trkpt>
      <trkpt lat="60.0148267" lon="17.5578279">
        <ele>32.8223</ele>
        <time>2012-05-27T08:19:56Z</time>
      </trkpt>
      <trkpt lat="60.0138511" lon="17.5582731">
        <ele>31.8607</ele>
        <time>2012-05-27T08:20:08Z</time>
      </trkpt>
      <trkpt lat="60.0133386" lon="17.558515">
        <ele>31.8607</ele>
        <time>2012-05-27T08:20:15Z</time>
      </trkpt>
      <trkpt lat="60.0124716" lon="17.5589131">
        <ele>32.3416</ele>
        <time>2012-05-27T08:20:27Z</time>
      </trkpt>
      <trkpt lat="60.0117981" lon="17.5592195">
        <ele>31.8607</ele>
        <time>2012-05-27T08:20:36Z</time>
      </trkpt>
      <trkpt lat="60.0108165" lon="17.5596637">
        <ele>31.3801</ele>
        <time>2012-05-27T08:20:49Z</time>
      </trkpt>
      <trkpt lat="60.0098281" lon="17.5601151">
        <ele>31.3801</ele>
        <time>2012-05-27T08:21:02Z</time>
      </trkpt>
      <trkpt lat="60.0087517" lon="17.5605982">
        <ele>31.3801</ele>
        <time>2012-05-27T08:21:16Z</time>
      </trkpt>
      <trkpt lat="60.007915" lon="17.5609755">
        <ele>31.8607</ele>
        <time>2012-05-27T08:21:27Z</time>
      </trkpt>
      <trkpt lat="60.0071956" lon="17.561294">
        <ele>31.8607</ele>
        <time>2012-05-27T08:21:37Z</time>
      </trkpt>
      <trkpt lat="60.0064189" lon="17.5616521">
        <ele>32.8223</ele>
        <time>2012-05-27T08:21:48Z</time>
      </trkpt>
      <trkpt lat="60.0056344" lon="17.5620052">
        <ele>32.3416</ele>
        <time>2012-05-27T08:21:59Z</time>
      </trkpt>
      <trkpt lat="60.0050773" lon="17.562257">
        <ele>31.3801</ele>
        <time>2012-05-27T08:22:07Z</time>
      </trkpt>
      <trkpt lat="60.0042517" lon="17.5626602">
        <ele>32.8223</ele>
        <time>2012-05-27T08:22:18Z</time>
      </trkpt>
      <trkpt lat="60.003187" lon="17.5631646">
        <ele>32.3416</ele>
        <time>2012-05-27T08:22:32Z</time>
      </trkpt>
      <trkpt lat="60.0024869" lon="17.5635013">
        <ele>32.3416</ele>
        <time>2012-05-27T08:22:42Z</time>
      </trkpt>
      <trkpt lat="60.0018191" lon="17.5638202">
        <ele>32.8223</ele>
        <time>2012-05-27T08:22:52Z</time>
      </trkpt>
      <trkpt lat="60.001143" lon="17.564137">
        <ele>30.8995</ele>
        <time>2012-05-27T08:23:01Z</time>
      </trkpt>
      <trkpt lat="60.0002293" lon="17.5645527">
        <ele>29.9381</ele>
        <time>2012-05-27T08:23:13Z</time>
      </trkpt>
      <trkpt lat="59.9994379" lon="17.5649192">
        <ele>28.9769</ele>
        <time>2012-05-27T08:23:23Z</time>
      </trkpt>
      <trkpt lat="59.9985759" lon="17.5653212">
        <ele>28.4962</ele>
        <time>2012-05-27T08:23:34Z</time>
      </trkpt>
      <trkpt lat="59.9977404" lon="17.5657029">
        <ele>28.0155</ele>
        <time>2012-05-27T08:23:45Z</time>
      </trkpt>
      <trkpt lat="59.9969867" lon="17.5660649">
        <ele>27.0543</ele>
        <time>2012-05-27T08:23:55Z</time>
      </trkpt>
      <trkpt lat="59.9960915" lon="17.566489">
        <ele>26.5736</ele>
        <time>2012-05-27T08:24:06Z</time>
      </trkpt>
      <trkpt lat="59.9951351" lon="17.566957">
        <ele>26.5736</ele>
        <time>2012-05-27T08:24:18Z</time>
      </trkpt>
      <trkpt lat="59.9944135" lon="17.567288">
        <ele>26.5736</ele>
        <time>2012-05-27T08:24:28Z</time>
      </trkpt>
      <trkpt lat="59.9936624" lon="17.5676075">
        <ele>27.0543</ele>
        <time>2012-05-27T08:24:39Z</time>
      </trkpt>
      <trkpt lat="59.9930647" lon="17.5678288">
        <ele>27.0543</ele>
        <time>2012-05-27T08:24:48Z</time>
      </trkpt>
      <trkpt lat="59.9923215" lon="17.5680577">
        <ele>28.0155</ele>
        <time>2012-05-27T08:24:59Z</time>
      </trkpt>
      <trkpt lat="59.9915248" lon="17.5682706">
        <ele>30.8995</ele>
        <time>2012-05-27T08:25:11Z</time>
      </trkpt>
      <trkpt lat="59.9907186" lon="17.5684717">
        <ele>32.8223</ele>
        <time>2012-05-27T08:25:23Z</time>
      </trkpt>
      <trkpt lat="59.9901176" lon="17.5686434">
        <ele>34.7449</ele>
        <time>2012-05-27T08:25:32Z</time>
      </trkpt>
      <trkpt lat="59.9895429" lon="17.5688389">
        <ele>36.1868</ele>
        <time>2012-05-27T08:25:41Z</time>
      </trkpt>
      <trkpt lat="59.9888009" lon="17.5691522">
        <ele>38.5901</ele>
        <time>2012-05-27T08:25:53Z</time>
      </trkpt>
      <trkpt lat="59.9882096" lon="17.5694589">
        <ele>42.916</ele>
        <time>2012-05-27T08:26:03Z</time>
      </trkpt>
      <trkpt lat="59.9877596" lon="17.5697235">
        <ele>46.7612</ele>
        <time>2012-05-27T08:26:10Z</time>
      </trkpt>
      <trkpt lat="59.9871643" lon="17.5701415">
        <ele>48.2034</ele>
        <time>2012-05-27T08:26:19Z</time>
      </trkpt>
      <trkpt lat="59.9866077" lon="17.5705685">
        <ele>44.8386</ele>
        <time>2012-05-27T08:26:27Z</time>
      </trkpt>
      <trkpt lat="59.9860083" lon="17.5710414">
        <ele>40.9934</ele>
        <time>2012-05-27T08:26:35Z</time>
      </trkpt>
      <trkpt lat="59.9852455" lon="17.5716164">
        <ele>35.2255</ele>
        <time>2012-05-27T08:26:45Z</time>
      </trkpt>
      <trkpt lat="59.9844212" lon="17.5721569">
        <ele>31.8607</ele>
        <time>2012-05-27T08:26:55Z</time>
      </trkpt>
      <trkpt lat="59.9837006" lon="17.5725488">
        <ele>29.4575</ele>
        <time>2012-05-27T08:27:04Z</time>
      </trkpt>
      <trkpt lat="59.9828098" lon="17.5729766">
        <ele>28.4962</ele>
        <time>2012-05-27T08:27:15Z</time>
      </trkpt>
      <trkpt lat="59.9818795" lon="17.5734259">
        <ele>28.0155</ele>
        <time>2012-05-27T08:27:27Z</time>
      </trkpt>
      <trkpt lat="59.9811126" lon="17.573786">
        <ele>28.0155</ele>
        <time>2012-05-27T08:27:37Z</time>
      </trkpt>
      <trkpt lat="59.9801561" lon="17.574246">
        <ele>27.5349</ele>
        <time>2012-05-27T08:27:49Z</time>
      </trkpt>
      <trkpt lat="59.979434" lon="17.5746081">
        <ele>27.0543</ele>
        <time>2012-05-27T08:27:58Z</time>
      </trkpt>
      <trkpt lat="59.9786707" lon="17.5749834">
        <ele>26.5736</ele>
        <time>2012-05-27T08:28:07Z</time>
      </trkpt>
      <trkpt lat="59.9778268" lon="17.5754897">
        <ele>26.0929</ele>
        <time>2012-05-27T08:28:17Z</time>
      </trkpt>
      <trkpt lat="59.9771163" lon="17.5759273">
        <ele>25.6123</ele>
        <time>2012-05-27T08:28:26Z</time>
      </trkpt>
      <trkpt lat="59.9763805" lon="17.5763551">
        <ele>25.1317</ele>
        <time>2012-05-27T08:28:35Z</time>
      </trkpt>
      <trkpt lat="59.9756576" lon="17.5766796">
        <ele>24.1703</ele>
        <time>2012-05-27T08:28:43Z</time>
      </trkpt>
      <trkpt lat="59.9751375" lon="17.5768305">
        <ele>24.1703</ele>
        <time>2012-05-27T08:28:49Z</time>
      </trkpt>
      <trkpt lat="59.9744803" lon="17.5770323">
        <ele>28.4962</ele>
        <time>2012-05-27T08:28:57Z</time>
      </trkpt>
      <trkpt lat="59.9739217" lon="17.5772444">
        <ele>29.9381</ele>
        <time>2012-05-27T08:29:05Z</time>
      </trkpt>
      <trkpt lat="59.9731461" lon="17.5775922">
        <ele>29.9381</ele>
        <time>2012-05-27T08:29:17Z</time>
      </trkpt>
      <trkpt lat="59.9724854" lon="17.5778925">
        <ele>30.4188</ele>
        <time>2012-05-27T08:29:27Z</time>
      </trkpt>
      <trkpt lat="59.9717008" lon="17.5782621">
        <ele>30.8995</ele>
        <time>2012-05-27T08:29:39Z</time>
      </trkpt>
      <trkpt lat="59.9707467" lon="17.5786921">
        <ele>30.8995</ele>
        <time>2012-05-27T08:29:53Z</time>
      </trkpt>
      <trkpt lat="59.9700373" lon="17.5790213">
        <ele>31.3801</ele>
        <time>2012-05-27T08:30:03Z</time>
      </trkpt>
      <trkpt lat="59.9692601" lon="17.5793725">
        <ele>31.8607</ele>
        <time>2012-05-27T08:30:14Z</time>
      </trkpt>
      <trkpt lat="59.9683961" lon="17.5797679">
        <ele>31.8607</ele>
        <time>2012-05-27T08:30:26Z</time>
      </trkpt>
      <trkpt lat="59.9676477" lon="17.5801036">
        <ele>31.8607</ele>
        <time>2012-05-27T08:30:36Z</time>
      </trkpt>
      <trkpt lat="59.9669829" lon="17.580405">
        <ele>31.8607</ele>
        <time>2012-05-27T08:30:45Z</time>
      </trkpt>
      <trkpt lat="59.966198" lon="17.5807645">
        <ele>30.8995</ele>
        <time>2012-05-27T08:30:55Z</time>
      </trkpt>
      <trkpt lat="59.9652756" lon="17.5811798">
        <ele>29.4575</ele>
        <time>2012-05-27T08:31:06Z</time>
      </trkpt>
      <trkpt lat="59.9645188" lon="17.5815299">
        <ele>29.4575</ele>
        <time>2012-05-27T08:31:15Z</time>
      </trkpt>
      <trkpt lat="59.963844" lon="17.5818379">
        <ele>29.4575</ele>
        <time>2012-05-27T08:31:23Z</time>
      </trkpt>
      <trkpt lat="59.9633299" lon="17.582074">
        <ele>31.3801</ele>
        <time>2012-05-27T08:31:30Z</time>
      </trkpt>
      <trkpt lat="59.9627855" lon="17.5823834">
        <ele>37.1481</ele>
        <time>2012-05-27T08:31:38Z</time>
      </trkpt>
      <trkpt lat="59.9626127" lon="17.5825168">
        <ele>38.5901</ele>
        <time>2012-05-27T08:31:41Z</time>
      </trkpt>
      <trkpt lat="59.9624512" lon="17.5828697">
        <ele>39.5513</ele>
        <time>2012-05-27T08:31:45Z</time>
      </trkpt>
      <trkpt lat="59.9623464" lon="17.5829815">
        <ele>40.0321</ele>
        <time>2012-05-27T08:31:47Z</time>
      </trkpt>
      <trkpt lat="59.9622893" lon="17.5829978">
        <ele>40.0321</ele>
        <time>2012-05-27T08:31:48Z</time>
      </trkpt>
      <trkpt lat="59.9618019" lon="17.5831806">
        <ele>39.0707</ele>
        <time>2012-05-27T08:31:56Z</time>
      </trkpt>
      <trkpt lat="59.9612698" lon="17.5834277">
        <ele>35.7061</ele>
        <time>2012-05-27T08:32:04Z</time>
      </trkpt>
      <trkpt lat="59.9606028" lon="17.5837054">
        <ele>33.3029</ele>
        <time>2012-05-27T08:32:14Z</time>
      </trkpt>
      <trkpt lat="59.9601473" lon="17.5838989">
        <ele>32.8223</ele>
        <time>2012-05-27T08:32:21Z</time>
      </trkpt>
      <trkpt lat="59.9596836" lon="17.5842128">
        <ele>32.8223</ele>
        <time>2012-05-27T08:32:28Z</time>
      </trkpt>
      <trkpt lat="59.9593127" lon="17.5843569">
        <ele>31.3801</ele>
        <time>2012-05-27T08:32:33Z</time>
      </trkpt>
      <trkpt lat="59.9589268" lon="17.5845061">
        <ele>32.3416</ele>
        <time>2012-05-27T08:32:38Z</time>
      </trkpt>
      <trkpt lat="59.958569" lon="17.5846494">
        <ele>33.7834</ele>
        <time>2012-05-27T08:32:44Z</time>
      </trkpt>
      <trkpt lat="59.9580276" lon="17.5848821">
        <ele>34.7449</ele>
        <time>2012-05-27T08:32:53Z</time>
      </trkpt>
      <trkpt lat="59.9576455" lon="17.5850526">
        <ele>35.7061</ele>
        <time>2012-05-27T08:33:00Z</time>
      </trkpt>
      <trkpt lat="59.9573531" lon="17.585183">
        <ele>37.1481</ele>
        <time>2012-05-27T08:33:06Z</time>
      </trkpt>
      <trkpt lat="59.957174" lon="17.5851881">
        <ele>38.1094</ele>
        <time>2012-05-27T08:33:10Z</time>
      </trkpt>
      <trkpt lat="59.95709" lon="17.5851659">
        <ele>38.5901</ele>
        <time>2012-05-27T08:33:12Z</time>
      </trkpt>
      <trkpt lat="59.9567818" lon="17.5852655">
        <ele>39.0707</ele>
        <time>2012-05-27T08:33:19Z</time>
      </trkpt>
      <trkpt lat="59.956438" lon="17.585445">
        <ele>39.0707</ele>
        <time>2012-05-27T08:33:26Z</time>
      </trkpt>
      <trkpt lat="59.9559341" lon="17.5857021">
        <ele>38.5901</ele>
        <time>2012-05-27T08:33:35Z</time>
      </trkpt>
      <trkpt lat="59.9558758" lon="17.5857411">
        <ele>38.5901</ele>
        <time>2012-05-27T08:33:36Z</time>
      </trkpt>
      <trkpt lat="59.9556857" lon="17.5860711">
        <ele>38.1094</ele>
        <time>2012-05-27T08:33:40Z</time>
      </trkpt>
      <trkpt lat="59.9555073" lon="17.5864967">
        <ele>36.1868</ele>
        <time>2012-05-27T08:33:44Z</time>
      </trkpt>
      <trkpt lat="59.9552831" lon="17.5865572">
        <ele>34.7449</ele>
        <time>2012-05-27T08:33:47Z</time>
      </trkpt>
      <trkpt lat="59.9548453" lon="17.5864631">
        <ele>36.6675</ele>
        <time>2012-05-27T08:33:53Z</time>
      </trkpt>
      <trkpt lat="59.9544573" lon="17.5865335">
        <ele>36.6675</ele>
        <time>2012-05-27T08:33:59Z</time>
      </trkpt>
      <trkpt lat="59.9539492" lon="17.5867491">
        <ele>36.1868</ele>
        <time>2012-05-27T08:34:06Z</time>
      </trkpt>
      <trkpt lat="59.9537256" lon="17.5867508">
        <ele>36.1868</ele>
        <time>2012-05-27T08:34:09Z</time>
      </trkpt>
      <trkpt lat="59.9532862" lon="17.5869051">
        <ele>36.1868</ele>
        <time>2012-05-27T08:34:15Z</time>
      </trkpt>
      <trkpt lat="59.9532082" lon="17.5869391">
        <ele>35.7061</ele>
        <time>2012-05-27T08:34:16Z</time>
      </trkpt>
      <trkpt lat="59.9528357" lon="17.5872785">
        <ele>35.2255</ele>
        <time>2012-05-27T08:34:21Z</time>
      </trkpt>
      <trkpt lat="59.9527541" lon="17.5873292">
        <ele>34.2642</ele>
        <time>2012-05-27T08:34:22Z</time>
      </trkpt>
      <trkpt lat="59.9519375" lon="17.5877473">
        <ele>30.8995</ele>
        <time>2012-05-27T08:34:31Z</time>
      </trkpt>
      <trkpt lat="59.951472" lon="17.5879631">
        <ele>30.4188</ele>
        <time>2012-05-27T08:34:36Z</time>
      </trkpt>
      <trkpt lat="59.9512101" lon="17.5882112">
        <ele>31.3801</ele>
        <time>2012-05-27T08:34:40Z</time>
      </trkpt>
      <trkpt lat="59.951134" lon="17.588206">
        <ele>32.3416</ele>
        <time>2012-05-27T08:34:42Z</time>
      </trkpt>
      <trkpt lat="59.9511087" lon="17.5881508">
        <ele>32.3416</ele>
        <time>2012-05-27T08:34:43Z</time>
      </trkpt>
      <trkpt lat="59.9509338" lon="17.5878888">
        <ele>33.7834</ele>
        <time>2012-05-27T08:34:48Z</time>
      </trkpt>
      <trkpt lat="59.9507491" lon="17.5878908">
        <ele>34.2642</ele>
        <time>2012-05-27T08:34:51Z</time>
      </trkpt>
      <trkpt lat="59.9501493" lon="17.5881514">
        <ele>37.1481</ele>
        <time>2012-05-27T08:34:59Z</time>
      </trkpt>
      <trkpt lat="59.9493349" lon="17.5885233">
        <ele>40.0321</ele>
        <time>2012-05-27T08:35:09Z</time>
      </trkpt>
      <trkpt lat="59.9485568" lon="17.5888961">
        <ele>41.474</ele>
        <time>2012-05-27T08:35:19Z</time>
      </trkpt>
      <trkpt lat="59.9477986" lon="17.5892564">
        <ele>41.474</ele>
        <time>2012-05-27T08:35:29Z</time>
      </trkpt>
      <trkpt lat="59.9471062" lon="17.5895955">
        <ele>41.9547</ele>
        <time>2012-05-27T08:35:39Z</time>
      </trkpt>
      <trkpt lat="59.9465593" lon="17.5898581">
        <ele>42.916</ele>
        <time>2012-05-27T08:35:48Z</time>
      </trkpt>
      <trkpt lat="59.9461508" lon="17.5900503">
        <ele>43.8773</ele>
        <time>2012-05-27T08:35:56Z</time>
      </trkpt>
      <trkpt lat="59.9457092" lon="17.5902667">
        <ele>43.8773</ele>
        <time>2012-05-27T08:36:05Z</time>
      </trkpt>
      <trkpt lat="59.945255" lon="17.5904933">
        <ele>43.3966</ele>
        <time>2012-05-27T08:36:14Z</time>
      </trkpt>
      <trkpt lat="59.9447755" lon="17.590745">
        <ele>42.916</ele>
        <time>2012-05-27T08:36:23Z</time>
      </trkpt>
      <trkpt lat="59.9442815" lon="17.5910092">
        <ele>42.4354</ele>
        <time>2012-05-27T08:36:31Z</time>
      </trkpt>
      <trkpt lat="59.9437041" lon="17.5912997">
        <ele>41.474</ele>
        <time>2012-05-27T08:36:39Z</time>
      </trkpt>
      <trkpt lat="59.942982" lon="17.5916522">
        <ele>40.5128</ele>
        <time>2012-05-27T08:36:48Z</time>
      </trkpt>
      <trkpt lat="59.9421435" lon="17.5920684">
        <ele>39.5513</ele>
        <time>2012-05-27T08:36:58Z</time>
      </trkpt>
      <trkpt lat="59.9412587" lon="17.5924953">
        <ele>39.0707</ele>
        <time>2012-05-27T08:37:09Z</time>
      </trkpt>
      <trkpt lat="59.9405338" lon="17.5928497">
        <ele>38.5901</ele>
        <time>2012-05-27T08:37:19Z</time>
      </trkpt>
      <trkpt lat="59.9398328" lon="17.5931878">
        <ele>38.1094</ele>
        <time>2012-05-27T08:37:29Z</time>
      </trkpt>
      <trkpt lat="59.9391332" lon="17.5935186">
        <ele>37.6287</ele>
        <time>2012-05-27T08:37:39Z</time>
      </trkpt>
      <trkpt lat="59.9384969" lon="17.593823">
        <ele>37.1481</ele>
        <time>2012-05-27T08:37:48Z</time>
      </trkpt>
      <trkpt lat="59.9378486" lon="17.5941371">
        <ele>36.1868</ele>
        <time>2012-05-27T08:37:57Z</time>
      </trkpt>
      <trkpt lat="59.9369712" lon="17.5945719">
        <ele>34.7449</ele>
        <time>2012-05-27T08:38:09Z</time>
      </trkpt>
      <trkpt lat="59.9363013" lon="17.5948884">
        <ele>33.3029</ele>
        <time>2012-05-27T08:38:18Z</time>
      </trkpt>
      <trkpt lat="59.9354629" lon="17.5952842">
        <ele>31.8607</ele>
        <time>2012-05-27T08:38:29Z</time>
      </trkpt>
      <trkpt lat="59.934696" lon="17.5956552">
        <ele>30.8995</ele>
        <time>2012-05-27T08:38:39Z</time>
      </trkpt>
      <trkpt lat="59.9339022" lon="17.5960343">
        <ele>29.4575</ele>
        <time>2012-05-27T08:38:49Z</time>
      </trkpt>
      <trkpt lat="59.9330091" lon="17.5964554">
        <ele>28.0155</ele>
        <time>2012-05-27T08:39:00Z</time>
      </trkpt>
      <trkpt lat="59.9323043" lon="17.5967675">
        <ele>27.5349</ele>
        <time>2012-05-27T08:39:09Z</time>
      </trkpt>
      <trkpt lat="59.9315765" lon="17.5971479">
        <ele>27.0543</ele>
        <time>2012-05-27T08:39:19Z</time>
      </trkpt>
      <trkpt lat="59.930841" lon="17.5975197">
        <ele>27.0543</ele>
        <time>2012-05-27T08:39:29Z</time>
      </trkpt>
      <trkpt lat="59.930127" lon="17.597863">
        <ele>27.0543</ele>
        <time>2012-05-27T08:39:39Z</time>
      </trkpt>
      <trkpt lat="59.929433" lon="17.5982003">
        <ele>26.5736</ele>
        <time>2012-05-27T08:39:49Z</time>
      </trkpt>
      <trkpt lat="59.928768" lon="17.5985175">
        <ele>26.0929</ele>
        <time>2012-05-27T08:39:58Z</time>
      </trkpt>
      <trkpt lat="59.9279307" lon="17.5989227">
        <ele>25.6123</ele>
        <time>2012-05-27T08:40:09Z</time>
      </trkpt>
      <trkpt lat="59.9270028" lon="17.5993766">
        <ele>25.1317</ele>
        <time>2012-05-27T08:40:21Z</time>
      </trkpt>
      <trkpt lat="59.9264777" lon="17.5996237">
        <ele>24.651</ele>
        <time>2012-05-27T08:40:28Z</time>
      </trkpt>
      <trkpt lat="59.9258215" lon="17.599933">
        <ele>24.651</ele>
        <time>2012-05-27T08:40:37Z</time>
      </trkpt>
      <trkpt lat="59.9251614" lon="17.6002619">
        <ele>24.1703</ele>
        <time>2012-05-27T08:40:46Z</time>
      </trkpt>
      <trkpt lat="59.9242441" lon="17.6007132">
        <ele>24.1703</ele>
        <time>2012-05-27T08:40:58Z</time>
      </trkpt>
      <trkpt lat="59.9233728" lon="17.6011307">
        <ele>24.1703</ele>
        <time>2012-05-27T08:41:09Z</time>
      </trkpt>
      <trkpt lat="59.9222844" lon="17.6016548">
        <ele>22.7283</ele>
        <time>2012-05-27T08:41:23Z</time>
      </trkpt>
      <trkpt lat="59.9214221" lon="17.6020796">
        <ele>22.7283</ele>
        <time>2012-05-27T08:41:34Z</time>
      </trkpt>
      <trkpt lat="59.9207966" lon="17.6023831">
        <ele>22.7283</ele>
        <time>2012-05-27T08:41:42Z</time>
      </trkpt>
      <trkpt lat="59.9200534" lon="17.6027414">
        <ele>22.7283</ele>
        <time>2012-05-27T08:41:52Z</time>
      </trkpt>
      <trkpt lat="59.9192261" lon="17.6031447">
        <ele>22.2476</ele>
        <time>2012-05-27T08:42:03Z</time>
      </trkpt>
      <trkpt lat="59.9183735" lon="17.6035678">
        <ele>20.8057</ele>
        <time>2012-05-27T08:42:14Z</time>
      </trkpt>
      <trkpt lat="59.9175099" lon="17.6040008">
        <ele>19.3638</ele>
        <time>2012-05-27T08:42:25Z</time>
      </trkpt>
      <trkpt lat="59.9166762" lon="17.60441">
        <ele>18.8831</ele>
        <time>2012-05-27T08:42:35Z</time>
      </trkpt>
      <trkpt lat="59.9157908" lon="17.6048379">
        <ele>18.8831</ele>
        <time>2012-05-27T08:42:46Z</time>
      </trkpt>
      <trkpt lat="59.9149929" lon="17.6052291">
        <ele>19.3638</ele>
        <time>2012-05-27T08:42:56Z</time>
      </trkpt>
      <trkpt lat="59.914216" lon="17.6056488">
        <ele>19.8444</ele>
        <time>2012-05-27T08:43:06Z</time>
      </trkpt>
      <trkpt lat="59.9135858" lon="17.6059166">
        <ele>20.325</ele>
        <time>2012-05-27T08:43:14Z</time>
      </trkpt>
      <trkpt lat="59.9129805" lon="17.6061748">
        <ele>20.8057</ele>
        <time>2012-05-27T08:43:22Z</time>
      </trkpt>
      <trkpt lat="59.9122346" lon="17.6065262">
        <ele>21.2864</ele>
        <time>2012-05-27T08:43:32Z</time>
      </trkpt>
      <trkpt lat="59.9115477" lon="17.6068467">
        <ele>21.2864</ele>
        <time>2012-05-27T08:43:41Z</time>
      </trkpt>
      <trkpt lat="59.9105639" lon="17.6073263">
        <ele>20.8057</ele>
        <time>2012-05-27T08:43:54Z</time>
      </trkpt>
      <trkpt lat="59.9097981" lon="17.6076965">
        <ele>20.8057</ele>
        <time>2012-05-27T08:44:04Z</time>
      </trkpt>
      <trkpt lat="59.9091172" lon="17.6080345">
        <ele>19.8444</ele>
        <time>2012-05-27T08:44:13Z</time>
      </trkpt>
      <trkpt lat="59.9083083" lon="17.608419">
        <ele>21.2864</ele>
        <time>2012-05-27T08:44:24Z</time>
      </trkpt>
      <trkpt lat="59.907715" lon="17.6086941">
        <ele>23.209</ele>
        <time>2012-05-27T08:44:33Z</time>
      </trkpt>
      <trkpt lat="59.9070293" lon="17.6090254">
        <ele>24.651</ele>
        <time>2012-05-27T08:44:44Z</time>
      </trkpt>
      <trkpt lat="59.9065811" lon="17.6092401">
        <ele>25.1317</ele>
        <time>2012-05-27T08:44:51Z</time>
      </trkpt>
      <trkpt lat="59.9059318" lon="17.6095551">
        <ele>25.6123</ele>
        <time>2012-05-27T08:45:01Z</time>
      </trkpt>
      <trkpt lat="59.9053915" lon="17.6098999">
        <ele>25.6123</ele>
        <time>2012-05-27T08:45:09Z</time>
      </trkpt>
      <trkpt lat="59.9047627" lon="17.6102174">
        <ele>25.1317</ele>
        <time>2012-05-27T08:45:18Z</time>
      </trkpt>
      <trkpt lat="59.904575" lon="17.6105966">
        <ele>24.1703</ele>
        <time>2012-05-27T08:45:22Z</time>
      </trkpt>
      <trkpt lat="59.9044961" lon="17.6110282">
        <ele>22.2476</ele>
        <time>2012-05-27T08:45:25Z</time>
      </trkpt>
      <trkpt lat="59.9043784" lon="17.6112425">
        <ele>21.767</ele>
        <time>2012-05-27T08:45:27Z</time>
      </trkpt>
      <trkpt lat="59.9040484" lon="17.6116933">
        <ele>19.3638</ele>
        <time>2012-05-27T08:45:32Z</time>
      </trkpt>
      <trkpt lat="59.9038257" lon="17.6123501">
        <ele>18.4023</ele>
        <time>2012-05-27T08:45:37Z</time>
      </trkpt>
      <trkpt lat="59.9036174" lon="17.6134722">
        <ele>17.4412</ele>
        <time>2012-05-27T08:45:45Z</time>
      </trkpt>
      <trkpt lat="59.9035376" lon="17.6142936">
        <ele>16.9604</ele>
        <time>2012-05-27T08:45:51Z</time>
      </trkpt>
      <trkpt lat="59.9034496" lon="17.6154738">
        <ele>16.4797</ele>
        <time>2012-05-27T08:45:59Z</time>
      </trkpt>
      <trkpt lat="59.9032832" lon="17.6161074">
        <ele>16.9604</ele>
        <time>2012-05-27T08:46:04Z</time>
      </trkpt>
      <trkpt lat="59.9029223" lon="17.6173604">
        <ele>15.999</ele>
        <time>2012-05-27T08:46:14Z</time>
      </trkpt>
      <trkpt lat="59.9025631" lon="17.6184348">
        <ele>15.5184</ele>
        <time>2012-05-27T08:46:22Z</time>
      </trkpt>
      <trkpt lat="59.9021316" lon="17.6195324">
        <ele>15.0377</ele>
        <time>2012-05-27T08:46:31Z</time>
      </trkpt>
      <trkpt lat="59.9015635" lon="17.6209989">
        <ele>15.0377</ele>
        <time>2012-05-27T08:46:43Z</time>
      </trkpt>
      <trkpt lat="59.901291" lon="17.6220744">
        <ele>15.5184</ele>
        <time>2012-05-27T08:46:51Z</time>
      </trkpt>
      <trkpt lat="59.9010086" lon="17.6234045">
        <ele>16.4797</ele>
        <time>2012-05-27T08:47:01Z</time>
      </trkpt>
      <trkpt lat="59.9008744" lon="17.6242863">
        <ele>18.8831</ele>
        <time>2012-05-27T08:47:08Z</time>
      </trkpt>
      <trkpt lat="59.9008207" lon="17.6248815">
        <ele>20.8057</ele>
        <time>2012-05-27T08:47:14Z</time>
      </trkpt>
      <trkpt lat="59.9007902" lon="17.6255481">
        <ele>21.767</ele>
        <time>2012-05-27T08:47:20Z</time>
      </trkpt>
      <trkpt lat="59.9007837" lon="17.6263529">
        <ele>22.7283</ele>
        <time>2012-05-27T08:47:26Z</time>
      </trkpt>
      <trkpt lat="59.9008117" lon="17.6266329">
        <ele>23.209</ele>
        <time>2012-05-27T08:47:28Z</time>
      </trkpt>
      <trkpt lat="59.901032" lon="17.6276214">
        <ele>22.7283</ele>
        <time>2012-05-27T08:47:35Z</time>
      </trkpt>
      <trkpt lat="59.9012546" lon="17.6286639">
        <ele>22.2476</ele>
        <time>2012-05-27T08:47:42Z</time>
      </trkpt>
      <trkpt lat="59.9013257" lon="17.6295989">
        <ele>22.2476</ele>
        <time>2012-05-27T08:47:48Z</time>
      </trkpt>
      <trkpt lat="59.9013796" lon="17.6309639">
        <ele>24.1703</ele>
        <time>2012-05-27T08:47:57Z</time>
      </trkpt>
      <trkpt lat="59.9012558" lon="17.6318247">
        <ele>23.6896</ele>
        <time>2012-05-27T08:48:03Z</time>
      </trkpt>
      <trkpt lat="59.9010118" lon="17.6325323">
        <ele>23.6896</ele>
        <time>2012-05-27T08:48:09Z</time>
      </trkpt>
      <trkpt lat="59.9006803" lon="17.6331092">
        <ele>23.6896</ele>
        <time>2012-05-27T08:48:15Z</time>
      </trkpt>
      <trkpt lat="59.9002409" lon="17.6336554">
        <ele>21.767</ele>
        <time>2012-05-27T08:48:22Z</time>
      </trkpt>
      <trkpt lat="59.8997825" lon="17.633995">
        <ele>17.9218</ele>
        <time>2012-05-27T08:48:29Z</time>
      </trkpt>
      <trkpt lat="59.8992091" lon="17.6343014">
        <ele>17.9218</ele>
        <time>2012-05-27T08:48:38Z</time>
      </trkpt>
      <trkpt lat="59.8988357" lon="17.6344421">
        <ele>18.8831</ele>
        <time>2012-05-27T08:48:44Z</time>
      </trkpt>
      <trkpt lat="59.8984439" lon="17.6344196">
        <ele>21.2864</ele>
        <time>2012-05-27T08:48:51Z</time>
      </trkpt>
      <trkpt lat="59.8983507" lon="17.6344206">
        <ele>22.2476</ele>
        <time>2012-05-27T08:48:53Z</time>
      </trkpt>
      <trkpt lat="59.8982343" lon="17.6344579">
        <ele>22.7283</ele>
        <time>2012-05-27T08:48:56Z</time>
      </trkpt>
      <trkpt lat="59.8980571" lon="17.6347013">
        <ele>22.2476</ele>
        <time>2012-05-27T08:49:01Z</time>
      </trkpt>
      <trkpt lat="59.8980291" lon="17.6347821">
        <ele>22.2476</ele>
        <time>2012-05-27T08:49:02Z</time>
      </trkpt>
      <trkpt lat="59.8978055" lon="17.6352264">
        <ele>22.7283</ele>
        <time>2012-05-27T08:49:08Z</time>
      </trkpt>
      <trkpt lat="59.8975562" lon="17.6359187">
        <ele>24.651</ele>
        <time>2012-05-27T08:49:16Z</time>
      </trkpt>
      <trkpt lat="59.8973619" lon="17.6365214">
        <ele>26.5736</ele>
        <time>2012-05-27T08:49:23Z</time>
      </trkpt>
      <trkpt lat="59.8971775" lon="17.6367872">
        <ele>26.5736</ele>
        <time>2012-05-27T08:49:28Z</time>
      </trkpt>
      <trkpt lat="59.8970841" lon="17.6367687">
        <ele>26.0929</ele>
        <time>2012-05-27T08:49:30Z</time>
      </trkpt>
      <trkpt lat="59.8966899" lon="17.6365749">
        <ele>25.6123</ele>
        <time>2012-05-27T08:49:38Z</time>
      </trkpt>
      <trkpt lat="59.8963574" lon="17.6364501">
        <ele>25.1317</ele>
        <time>2012-05-27T08:49:44Z</time>
      </trkpt>
      <trkpt lat="59.8959083" lon="17.6363429">
        <ele>24.1703</ele>
        <time>2012-05-27T08:49:52Z</time>
      </trkpt>
      <trkpt lat="59.8955461" lon="17.6364413">
        <ele>23.6896</ele>
        <time>2012-05-27T08:49:58Z</time>
      </trkpt>
      <trkpt lat="59.8950951" lon="17.6367209">
        <ele>21.767</ele>
        <time>2012-05-27T08:50:05Z</time>
      </trkpt>
      <trkpt lat="59.8946059" lon="17.6370307">
        <ele>22.2476</ele>
        <time>2012-05-27T08:50:12Z</time>
      </trkpt>
      <trkpt lat="59.8940036" lon="17.6374246">
        <ele>22.2476</ele>
        <time>2012-05-27T08:50:21Z</time>
      </trkpt>
      <trkpt lat="59.8933712" lon="17.6378819">
        <ele>20.8057</ele>
        <time>2012-05-27T08:50:30Z</time>
      </trkpt>
      <trkpt lat="59.892953" lon="17.6381179">
        <ele>19.3638</ele>
        <time>2012-05-27T08:50:36Z</time>
      </trkpt>
      <trkpt lat="59.8928796" lon="17.6381428">
        <ele>18.8831</ele>
        <time>2012-05-27T08:50:37Z</time>
      </trkpt>
      <trkpt lat="59.8927144" lon="17.638405">
        <ele>18.8831</ele>
        <time>2012-05-27T08:50:40Z</time>
      </trkpt>
      <trkpt lat="59.8926785" lon="17.6388643">
        <ele>19.8444</ele>
        <time>2012-05-27T08:50:43Z</time>
      </trkpt>
      <trkpt lat="59.8926766" lon="17.6401295">
        <ele>22.2476</ele>
        <time>2012-05-27T08:50:52Z</time>
      </trkpt>
      <trkpt lat="59.892619" lon="17.6412308">
        <ele>22.7283</ele>
        <time>2012-05-27T08:51:00Z</time>
      </trkpt>
      <trkpt lat="59.8925352" lon="17.6423735">
        <ele>23.209</ele>
        <time>2012-05-27T08:51:08Z</time>
      </trkpt>
      <trkpt lat="59.8924382" lon="17.6433285">
        <ele>21.2864</ele>
        <time>2012-05-27T08:51:15Z</time>
      </trkpt>
      <trkpt lat="59.8923018" lon="17.644587">
        <ele>18.8831</ele>
        <time>2012-05-27T08:51:24Z</time>
      </trkpt>
      <trkpt lat="59.8921835" lon="17.645878">
        <ele>16.4797</ele>
        <time>2012-05-27T08:51:33Z</time>
      </trkpt>
      <trkpt lat="59.8919698" lon="17.6476303">
        <ele>15.5184</ele>
        <time>2012-05-27T08:51:45Z</time>
      </trkpt>
      <trkpt lat="59.8917622" lon="17.6488444">
        <ele>15.5184</ele>
        <time>2012-05-27T08:51:54Z</time>
      </trkpt>
      <trkpt lat="59.8914997" lon="17.6500774">
        <ele>15.0377</ele>
        <time>2012-05-27T08:52:03Z</time>
      </trkpt>
      <trkpt lat="59.8911354" lon="17.6512305">
        <ele>14.557</ele>
        <time>2012-05-27T08:52:12Z</time>
      </trkpt>
      <trkpt lat="59.8907495" lon="17.6523409">
        <ele>15.999</ele>
        <time>2012-05-27T08:52:21Z</time>
      </trkpt>
      <trkpt lat="59.8904273" lon="17.6531891">
        <ele>16.4797</ele>
        <time>2012-05-27T08:52:28Z</time>
      </trkpt>
      <trkpt lat="59.8900277" lon="17.6543116">
        <ele>16.9604</ele>
        <time>2012-05-27T08:52:37Z</time>
      </trkpt>
      <trkpt lat="59.8895737" lon="17.6555993">
        <ele>17.4412</ele>
        <time>2012-05-27T08:52:47Z</time>
      </trkpt>
      <trkpt lat="59.8892017" lon="17.6566295">
        <ele>18.4023</ele>
        <time>2012-05-27T08:52:55Z</time>
      </trkpt>
      <trkpt lat="59.8887879" lon="17.6577993">
        <ele>20.325</ele>
        <time>2012-05-27T08:53:04Z</time>
      </trkpt>
      <trkpt lat="59.8884369" lon="17.6587932">
        <ele>21.767</ele>
        <time>2012-05-27T08:53:12Z</time>
      </trkpt>
      <trkpt lat="59.8880707" lon="17.6597719">
        <ele>21.2864</ele>
        <time>2012-05-27T08:53:20Z</time>
      </trkpt>
      <trkpt lat="59.8877523" lon="17.6605557">
        <ele>20.325</ele>
        <time>2012-05-27T08:53:27Z</time>
      </trkpt>
      <trkpt lat="59.8876462" lon="17.660728">
        <ele>20.325</ele>
        <time>2012-05-27T08:53:29Z</time>
      </trkpt>
      <trkpt lat="59.8873436" lon="17.6609419">
        <ele>20.8057</ele>
        <time>2012-05-27T08:53:34Z</time>
      </trkpt>
      <trkpt lat="59.8872821" lon="17.6609129">
        <ele>20.8057</ele>
        <time>2012-05-27T08:53:35Z</time>
      </trkpt>
      <trkpt lat="59.8870457" lon="17.6609181">
        <ele>21.767</ele>
        <time>2012-05-27T08:53:39Z</time>
      </trkpt>
      <trkpt lat="59.8870011" lon="17.6611435">
        <ele>22.7283</ele>
        <time>2012-05-27T08:53:41Z</time>
      </trkpt>
      <trkpt lat="59.8870064" lon="17.66127">
        <ele>23.209</ele>
        <time>2012-05-27T08:53:42Z</time>
      </trkpt>
      <trkpt lat="59.88703" lon="17.6620142">
        <ele>24.1703</ele>
        <time>2012-05-27T08:53:48Z</time>
      </trkpt>
      <trkpt lat="59.8869892" lon="17.6622635">
        <ele>24.1703</ele>
        <time>2012-05-27T08:53:50Z</time>
      </trkpt>
      <trkpt lat="59.8867324" lon="17.66305">
        <ele>22.7283</ele>
        <time>2012-05-27T08:53:57Z</time>
      </trkpt>
      <trkpt lat="59.8864571" lon="17.6634912">
        <ele>22.2476</ele>
        <time>2012-05-27T08:54:02Z</time>
      </trkpt>
      <trkpt lat="59.8861725" lon="17.6636456">
        <ele>21.767</ele>
        <time>2012-05-27T08:54:06Z</time>
      </trkpt>
      <trkpt lat="59.8860973" lon="17.6636231">
        <ele>21.767</ele>
        <time>2012-05-27T08:54:07Z</time>
      </trkpt>
      <trkpt lat="59.8857316" lon="17.6636231">
        <ele>21.767</ele>
        <time>2012-05-27T08:54:12Z</time>
      </trkpt>
      <trkpt lat="59.8855669" lon="17.6639116">
        <ele>22.2476</ele>
        <time>2012-05-27T08:54:15Z</time>
      </trkpt>
      <trkpt lat="59.8855306" lon="17.6640378">
        <ele>22.7283</ele>
        <time>2012-05-27T08:54:16Z</time>
      </trkpt>
      <trkpt lat="59.8852711" lon="17.6650582">
        <ele>22.7283</ele>
        <time>2012-05-27T08:54:24Z</time>
      </trkpt>
      <trkpt lat="59.8851121" lon="17.6659026">
        <ele>22.7283</ele>
        <time>2012-05-27T08:54:31Z</time>
      </trkpt>
      <trkpt lat="59.885028" lon="17.6667463">
        <ele>22.7283</ele>
        <time>2012-05-27T08:54:38Z</time>
      </trkpt>
      <trkpt lat="59.8848981" lon="17.6671577">
        <ele>22.7283</ele>
        <time>2012-05-27T08:54:42Z</time>
      </trkpt>
      <trkpt lat="59.8847927" lon="17.6674549">
        <ele>22.7283</ele>
        <time>2012-05-27T08:54:45Z</time>
      </trkpt>
      <trkpt lat="59.8847943" lon="17.6677083">
        <ele>22.7283</ele>
        <time>2012-05-27T08:54:47Z</time>
      </trkpt>
      <trkpt lat="59.8847521" lon="17.6683309">
        <ele>22.7283</ele>
        <time>2012-05-27T08:54:52Z</time>
      </trkpt>
      <trkpt lat="59.8844417" lon="17.6692884">
        <ele>22.7283</ele>
        <time>2012-05-27T08:55:01Z</time>
      </trkpt>
      <trkpt lat="59.8840794" lon="17.6701008">
        <ele>23.209</ele>
        <time>2012-05-27T08:55:10Z</time>
      </trkpt>
      <trkpt lat="59.8838682" lon="17.6702845">
        <ele>22.7283</ele>
        <time>2012-05-27T08:55:14Z</time>
      </trkpt>
      <trkpt lat="59.8836683" lon="17.6704776">
        <ele>22.7283</ele>
        <time>2012-05-27T08:55:18Z</time>
      </trkpt>
      <trkpt lat="59.8836197" lon="17.6706863">
        <ele>23.6896</ele>
        <time>2012-05-27T08:55:20Z</time>
      </trkpt>
      <trkpt lat="59.8834454" lon="17.6711727">
        <ele>24.1703</ele>
        <time>2012-05-27T08:55:25Z</time>
      </trkpt>
      <trkpt lat="59.8829193" lon="17.67183">
        <ele>25.1317</ele>
        <time>2012-05-27T08:55:35Z</time>
      </trkpt>
      <trkpt lat="59.8823531" lon="17.6723019">
        <ele>25.1317</ele>
        <time>2012-05-27T08:55:44Z</time>
      </trkpt>
      <trkpt lat="59.8815844" lon="17.6729309">
        <ele>24.651</ele>
        <time>2012-05-27T08:55:56Z</time>
      </trkpt>
      <trkpt lat="59.8809561" lon="17.673457">
        <ele>25.1317</ele>
        <time>2012-05-27T08:56:06Z</time>
      </trkpt>
      <trkpt lat="59.8802114" lon="17.6741788">
        <ele>25.1317</ele>
        <time>2012-05-27T08:56:18Z</time>
      </trkpt>
      <trkpt lat="59.8795718" lon="17.674802">
        <ele>25.1317</ele>
        <time>2012-05-27T08:56:28Z</time>
      </trkpt>
      <trkpt lat="59.879317" lon="17.675054">
        <ele>25.1317</ele>
        <time>2012-05-27T08:56:32Z</time>
      </trkpt>
      <trkpt lat="59.8790535" lon="17.6751734">
        <ele>25.1317</ele>
        <time>2012-05-27T08:56:36Z</time>
      </trkpt>
      <trkpt lat="59.8789072" lon="17.6754398">
        <ele>25.1317</ele>
        <time>2012-05-27T08:56:39Z</time>
      </trkpt>
      <trkpt lat="59.8786614" lon="17.675939">
        <ele>25.6123</ele>
        <time>2012-05-27T08:56:44Z</time>
      </trkpt>
      <trkpt lat="59.8780681" lon="17.6765667">
        <ele>24.651</ele>
        <time>2012-05-27T08:56:53Z</time>
      </trkpt>
      <trkpt lat="59.8773999" lon="17.6771722">
        <ele>24.1703</ele>
        <time>2012-05-27T08:57:03Z</time>
      </trkpt>
      <trkpt lat="59.8770057" lon="17.6774491">
        <ele>24.1703</ele>
        <time>2012-05-27T08:57:09Z</time>
      </trkpt>
      <trkpt lat="59.8768186" lon="17.6775598">
        <ele>24.1703</ele>
        <time>2012-05-27T08:57:12Z</time>
      </trkpt>
      <trkpt lat="59.8766222" lon="17.6776023">
        <ele>24.1703</ele>
        <time>2012-05-27T08:57:16Z</time>
      </trkpt>
      <trkpt lat="59.8765747" lon="17.6775573">
        <ele>23.6896</ele>
        <time>2012-05-27T08:57:17Z</time>
      </trkpt>
      <trkpt lat="59.8762927" lon="17.6774796">
        <ele>22.7283</ele>
        <time>2012-05-27T08:57:22Z</time>
      </trkpt>
      <trkpt lat="59.8761696" lon="17.6777798">
        <ele>22.7283</ele>
        <time>2012-05-27T08:57:25Z</time>
      </trkpt>
      <trkpt lat="59.8761996" lon="17.6781504">
        <ele>22.7283</ele>
        <time>2012-05-27T08:57:28Z</time>
      </trkpt>
      <trkpt lat="59.8763458" lon="17.6783773">
        <ele>23.209</ele>
        <time>2012-05-27T08:57:31Z</time>
      </trkpt>
      <trkpt lat="59.8764027" lon="17.6784146">
        <ele>22.7283</ele>
        <time>2012-05-27T08:57:32Z</time>
      </trkpt>
      <trkpt lat="59.8767133" lon="17.6787459">
        <ele>22.2476</ele>
        <time>2012-05-27T08:57:38Z</time>
      </trkpt>
      <trkpt lat="59.877173" lon="17.6796783">
        <ele>23.209</ele>
        <time>2012-05-27T08:57:49Z</time>
      </trkpt>
      <trkpt lat="59.8772543" lon="17.6801174">
        <ele>23.209</ele>
        <time>2012-05-27T08:57:53Z</time>
      </trkpt>
      <trkpt lat="59.8771443" lon="17.6804363">
        <ele>22.2476</ele>
        <time>2012-05-27T08:57:56Z</time>
      </trkpt>
      <trkpt lat="59.8766985" lon="17.6813932">
        <ele>20.325</ele>
        <time>2012-05-27T08:58:06Z</time>
      </trkpt>
      <trkpt lat="59.8762573" lon="17.6823041">
        <ele>19.3638</ele>
        <time>2012-05-27T08:58:15Z</time>
      </trkpt>
      <trkpt lat="59.8757437" lon="17.6834026">
        <ele>18.4023</ele>
        <time>2012-05-27T08:58:25Z</time>
      </trkpt>
      <trkpt lat="59.8753077" lon="17.6843733">
        <ele>19.8444</ele>
        <time>2012-05-27T08:58:33Z</time>
      </trkpt>
      <trkpt lat="59.8748155" lon="17.6854058">
        <ele>17.4412</ele>
        <time>2012-05-27T08:58:42Z</time>
      </trkpt>
      <trkpt lat="59.8742736" lon="17.6865825">
        <ele>15.999</ele>
        <time>2012-05-27T08:58:52Z</time>
      </trkpt>
      <trkpt lat="59.8739856" lon="17.6872316">
        <ele>16.4797</ele>
        <time>2012-05-27T08:58:58Z</time>
      </trkpt>
      <trkpt lat="59.8738907" lon="17.6877">
        <ele>16.4797</ele>
        <time>2012-05-27T08:59:02Z</time>
      </trkpt>
      <trkpt lat="59.8738473" lon="17.6880118">
        <ele>16.4797</ele>
        <time>2012-05-27T08:59:05Z</time>
      </trkpt>
      <trkpt lat="59.8737482" lon="17.6881449">
        <ele>16.4797</ele>
        <time>2012-05-27T08:59:07Z</time>
      </trkpt>
      <trkpt lat="59.873222" lon="17.6887013">
        <ele>16.4797</ele>
        <time>2012-05-27T08:59:16Z</time>
      </trkpt>
      <trkpt lat="59.8731624" lon="17.6887695">
        <ele>16.4797</ele>
        <time>2012-05-27T08:59:17Z</time>
      </trkpt>
      <trkpt lat="59.8728661" lon="17.6893278">
        <ele>15.999</ele>
        <time>2012-05-27T08:59:23Z</time>
      </trkpt>
      <trkpt lat="59.8725814" lon="17.6900963">
        <ele>17.9218</ele>
        <time>2012-05-27T08:59:30Z</time>
      </trkpt>
      <trkpt lat="59.8723607" lon="17.6908432">
        <ele>18.8831</ele>
        <time>2012-05-27T08:59:36Z</time>
      </trkpt>
      <trkpt lat="59.8720429" lon="17.6914924">
        <ele>14.0764</ele>
        <time>2012-05-27T08:59:42Z</time>
      </trkpt>
      <trkpt lat="59.8717292" lon="17.6921688">
        <ele>13.1151</ele>
        <time>2012-05-27T08:59:48Z</time>
      </trkpt>
      <trkpt lat="59.8714117" lon="17.6928503">
        <ele>14.0764</ele>
        <time>2012-05-27T08:59:54Z</time>
      </trkpt>
      <trkpt lat="59.8710461" lon="17.6936045">
        <ele>15.5184</ele>
        <time>2012-05-27T09:00:01Z</time>
      </trkpt>
      <trkpt lat="59.8706922" lon="17.6940961">
        <ele>15.5184</ele>
        <time>2012-05-27T09:00:07Z</time>
      </trkpt>
      <trkpt lat="59.8701343" lon="17.6947253">
        <ele>15.5184</ele>
        <time>2012-05-27T09:00:16Z</time>
      </trkpt>
      <trkpt lat="59.8695247" lon="17.6953886">
        <ele>15.5184</ele>
        <time>2012-05-27T09:00:26Z</time>
      </trkpt>
      <trkpt lat="59.8690516" lon="17.6960005">
        <ele>15.5184</ele>
        <time>2012-05-27T09:00:34Z</time>
      </trkpt>
      <trkpt lat="59.8687375" lon="17.6964253">
        <ele>15.5184</ele>
        <time>2012-05-27T09:00:40Z</time>
      </trkpt>
      <trkpt lat="59.868444" lon="17.696664">
        <ele>14.557</ele>
        <time>2012-05-27T09:00:45Z</time>
      </trkpt>
      <trkpt lat="59.8680286" lon="17.6970743">
        <ele>13.5958</ele>
        <time>2012-05-27T09:00:52Z</time>
      </trkpt>
      <trkpt lat="59.8676937" lon="17.6974609">
        <ele>14.557</ele>
        <time>2012-05-27T09:00:58Z</time>
      </trkpt>
      <trkpt lat="59.8676353" lon="17.6975073">
        <ele>14.557</ele>
        <time>2012-05-27T09:00:59Z</time>
      </trkpt>
      <trkpt lat="59.8673201" lon="17.6976761">
        <ele>14.557</ele>
        <time>2012-05-27T09:01:04Z</time>
      </trkpt>
      <trkpt lat="59.8672576" lon="17.6977415">
        <ele>14.557</ele>
        <time>2012-05-27T09:01:05Z</time>
      </trkpt>
      <trkpt lat="59.8667973" lon="17.6983875">
        <ele>15.0377</ele>
        <time>2012-05-27T09:01:13Z</time>
      </trkpt>
      <trkpt lat="59.8664787" lon="17.6988329">
        <ele>15.999</ele>
        <time>2012-05-27T09:01:19Z</time>
      </trkpt>
      <trkpt lat="59.8660649" lon="17.6993981">
        <ele>16.4797</ele>
        <time>2012-05-27T09:01:27Z</time>
      </trkpt>
      <trkpt lat="59.8657711" lon="17.7001045">
        <ele>16.9604</ele>
        <time>2012-05-27T09:01:34Z</time>
      </trkpt>
      <trkpt lat="59.8656951" lon="17.7003227">
        <ele>16.4797</ele>
        <time>2012-05-27T09:01:36Z</time>
      </trkpt>
      <trkpt lat="59.8656122" lon="17.7005217">
        <ele>15.999</ele>
        <time>2012-05-27T09:01:38Z</time>
      </trkpt>
      <trkpt lat="59.8654634" lon="17.7010619">
        <ele>15.0377</ele>
        <time>2012-05-27T09:01:42Z</time>
      </trkpt>
      <trkpt lat="59.86538" lon="17.7013488">
        <ele>14.557</ele>
        <time>2012-05-27T09:01:44Z</time>
      </trkpt>
      <trkpt lat="59.8650102" lon="17.702068">
        <ele>14.557</ele>
        <time>2012-05-27T09:01:50Z</time>
      </trkpt>
      <trkpt lat="59.8645978" lon="17.7026461">
        <ele>13.5958</ele>
        <time>2012-05-27T09:01:56Z</time>
      </trkpt>
      <trkpt lat="59.8644968" lon="17.7027762">
        <ele>13.1151</ele>
        <time>2012-05-27T09:01:58Z</time>
      </trkpt>
      <trkpt lat="59.8644362" lon="17.7031029">
        <ele>11.6732</ele>
        <time>2012-05-27T09:02:02Z</time>
      </trkpt>
      <trkpt lat="59.8645187" lon="17.7033967">
        <ele>12.1538</ele>
        <time>2012-05-27T09:02:05Z</time>
      </trkpt>
      <trkpt lat="59.8648431" lon="17.7042421">
        <ele>13.5958</ele>
        <time>2012-05-27T09:02:13Z</time>
      </trkpt>
      <trkpt lat="59.8651638" lon="17.7052105">
        <ele>15.0377</ele>
        <time>2012-05-27T09:02:21Z</time>
      </trkpt>
      <trkpt lat="59.865467" lon="17.7059875">
        <ele>16.4797</ele>
        <time>2012-05-27T09:02:28Z</time>
      </trkpt>
      <trkpt lat="59.8657689" lon="17.7069305">
        <ele>16.9604</ele>
        <time>2012-05-27T09:02:36Z</time>
      </trkpt>
      <trkpt lat="59.8657313" lon="17.7074328">
        <ele>15.5184</ele>
        <time>2012-05-27T09:02:40Z</time>
      </trkpt>
      <trkpt lat="59.8656464" lon="17.7076538">
        <ele>14.557</ele>
        <time>2012-05-27T09:02:42Z</time>
      </trkpt>
      <trkpt lat="59.8652711" lon="17.7083841">
        <ele>13.5958</ele>
        <time>2012-05-27T09:02:49Z</time>
      </trkpt>
      <trkpt lat="59.8648155" lon="17.7089974">
        <ele>14.0764</ele>
        <time>2012-05-27T09:02:56Z</time>
      </trkpt>
      <trkpt lat="59.8642861" lon="17.7096727">
        <ele>14.0764</ele>
        <time>2012-05-27T09:03:04Z</time>
      </trkpt>
      <trkpt lat="59.8639257" lon="17.7102116">
        <ele>15.999</ele>
        <time>2012-05-27T09:03:10Z</time>
      </trkpt>
      <trkpt lat="59.8635099" lon="17.7108969">
        <ele>16.9604</ele>
        <time>2012-05-27T09:03:18Z</time>
      </trkpt>
      <trkpt lat="59.8631908" lon="17.7114075">
        <ele>15.999</ele>
        <time>2012-05-27T09:03:24Z</time>
      </trkpt>
      <trkpt lat="59.8628652" lon="17.7116421">
        <ele>16.4797</ele>
        <time>2012-05-27T09:03:29Z</time>
      </trkpt>
      <trkpt lat="59.8625221" lon="17.7116199">
        <ele>18.4023</ele>
        <time>2012-05-27T09:03:34Z</time>
      </trkpt>
      <trkpt lat="59.8623896" lon="17.7115196">
        <ele>19.3638</ele>
        <time>2012-05-27T09:03:36Z</time>
      </trkpt>
      <trkpt lat="59.8622638" lon="17.711377">
        <ele>19.8444</ele>
        <time>2012-05-27T09:03:38Z</time>
      </trkpt>
      <trkpt lat="59.861935" lon="17.7107203">
        <ele>19.3638</ele>
        <time>2012-05-27T09:03:44Z</time>
      </trkpt>
      <trkpt lat="59.8614918" lon="17.7097406">
        <ele>17.9218</ele>
        <time>2012-05-27T09:03:52Z</time>
      </trkpt>
      <trkpt lat="59.8609552" lon="17.7086612">
        <ele>16.4797</ele>
        <time>2012-05-27T09:04:01Z</time>
      </trkpt>
      <trkpt lat="59.8605868" lon="17.7080728">
        <ele>14.557</ele>
        <time>2012-05-27T09:04:07Z</time>
      </trkpt>
      <trkpt lat="59.8599342" lon="17.707172">
        <ele>12.1538</ele>
        <time>2012-05-27T09:04:17Z</time>
      </trkpt>
      <trkpt lat="59.8594216" lon="17.7064198">
        <ele>11.1925</ele>
        <time>2012-05-27T09:04:25Z</time>
      </trkpt>
      <trkpt lat="59.8590722" lon="17.7056759">
        <ele>9.75061</ele>
        <time>2012-05-27T09:04:32Z</time>
      </trkpt>
      <trkpt lat="59.859025" lon="17.7055615">
        <ele>10.2312</ele>
        <time>2012-05-27T09:04:33Z</time>
      </trkpt>
      <trkpt lat="59.8588499" lon="17.7054162">
        <ele>9.75061</ele>
        <time>2012-05-27T09:04:36Z</time>
      </trkpt>
      <trkpt lat="59.8587394" lon="17.7056192">
        <ele>9.75061</ele>
        <time>2012-05-27T09:04:38Z</time>
      </trkpt>
      <trkpt lat="59.8587022" lon="17.7057541">
        <ele>10.7118</ele>
        <time>2012-05-27T09:04:39Z</time>
      </trkpt>
      <trkpt lat="59.8585247" lon="17.7067912">
        <ele>12.6344</ele>
        <time>2012-05-27T09:04:47Z</time>
      </trkpt>
      <trkpt lat="59.8584361" lon="17.707611">
        <ele>14.0764</ele>
        <time>2012-05-27T09:04:53Z</time>
      </trkpt>
      <trkpt lat="59.8583398" lon="17.7084533">
        <ele>14.557</ele>
        <time>2012-05-27T09:05:00Z</time>
      </trkpt>
      <trkpt lat="59.8583274" lon="17.7085607">
        <ele>15.0377</ele>
        <time>2012-05-27T09:05:01Z</time>
      </trkpt>
      <trkpt lat="59.8582894" lon="17.7092015">
        <ele>16.4797</ele>
        <time>2012-05-27T09:05:07Z</time>
      </trkpt>
      <trkpt lat="59.8583635" lon="17.709965">
        <ele>18.8831</ele>
        <time>2012-05-27T09:05:14Z</time>
      </trkpt>
      <trkpt lat="59.858476" lon="17.7106265">
        <ele>19.8444</ele>
        <time>2012-05-27T09:05:20Z</time>
      </trkpt>
      <trkpt lat="59.8585141" lon="17.7108549">
        <ele>18.8831</ele>
        <time>2012-05-27T09:05:22Z</time>
      </trkpt>
      <trkpt lat="59.8585049" lon="17.7115107">
        <ele>16.9604</ele>
        <time>2012-05-27T09:05:27Z</time>
      </trkpt>
      <trkpt lat="59.8584604" lon="17.7117744">
        <ele>15.5184</ele>
        <time>2012-05-27T09:05:29Z</time>
      </trkpt>
      <trkpt lat="59.8582632" lon="17.7128421">
        <ele>13.5958</ele>
        <time>2012-05-27T09:05:37Z</time>
      </trkpt>
      <trkpt lat="59.8581718" lon="17.7135961">
        <ele>12.6344</ele>
        <time>2012-05-27T09:05:42Z</time>
      </trkpt>
      <trkpt lat="59.8580366" lon="17.714135">
        <ele>12.1538</ele>
        <time>2012-05-27T09:05:46Z</time>
      </trkpt>
      <trkpt lat="59.8577257" lon="17.7151426">
        <ele>12.1538</ele>
        <time>2012-05-27T09:05:54Z</time>
      </trkpt>
      <trkpt lat="59.8576009" lon="17.7159992">
        <ele>12.6344</ele>
        <time>2012-05-27T09:06:00Z</time>
      </trkpt>
      <trkpt lat="59.8576244" lon="17.7170421">
        <ele>12.1538</ele>
        <time>2012-05-27T09:06:07Z</time>
      </trkpt>
      <trkpt lat="59.8576253" lon="17.7181888">
        <ele>11.6732</ele>
        <time>2012-05-27T09:06:15Z</time>
      </trkpt>
      <trkpt lat="59.8576352" lon="17.7194722">
        <ele>11.6732</ele>
        <time>2012-05-27T09:06:24Z</time>
      </trkpt>
      <trkpt lat="59.8576675" lon="17.7206982">
        <ele>13.5958</ele>
        <time>2012-05-27T09:06:33Z</time>
      </trkpt>
      <trkpt lat="59.8576497" lon="17.721462">
        <ele>15.0377</ele>
        <time>2012-05-27T09:06:40Z</time>
      </trkpt>
      <trkpt lat="59.8576159" lon="17.7217808">
        <ele>15.0377</ele>
        <time>2012-05-27T09:06:43Z</time>
      </trkpt>
      <trkpt lat="59.8574736" lon="17.7222554">
        <ele>15.999</ele>
        <time>2012-05-27T09:06:48Z</time>
      </trkpt>
      <trkpt lat="59.8571329" lon="17.7228464">
        <ele>15.0377</ele>
        <time>2012-05-27T09:06:55Z</time>
      </trkpt>
      <trkpt lat="59.8567748" lon="17.7235279">
        <ele>11.1925</ele>
        <time>2012-05-27T09:07:02Z</time>
      </trkpt>
      <trkpt lat="59.856255" lon="17.7247317">
        <ele>10.2312</ele>
        <time>2012-05-27T09:07:12Z</time>
      </trkpt>
      <trkpt lat="59.8556449" lon="17.7262726">
        <ele>9.75061</ele>
        <time>2012-05-27T09:07:24Z</time>
      </trkpt>
      <trkpt lat="59.8551789" lon="17.7275732">
        <ele>9.75061</ele>
        <time>2012-05-27T09:07:34Z</time>
      </trkpt>
      <trkpt lat="59.8546645" lon="17.7288998">
        <ele>9.75061</ele>
        <time>2012-05-27T09:07:45Z</time>
      </trkpt>
      <trkpt lat="59.8542837" lon="17.7299053">
        <ele>9.2699</ele>
        <time>2012-05-27T09:07:53Z</time>
      </trkpt>
      <trkpt lat="59.8540527" lon="17.7306576">
        <ele>7.82788</ele>
        <time>2012-05-27T09:07:58Z</time>
      </trkpt>
      <trkpt lat="59.853908" lon="17.7315836">
        <ele>5.90527</ele>
        <time>2012-05-27T09:08:03Z</time>
      </trkpt>
      <trkpt lat="59.8537497" lon="17.733024">
        <ele>4.94385</ele>
        <time>2012-05-27T09:08:11Z</time>
      </trkpt>
      <trkpt lat="59.8536182" lon="17.733624">
        <ele>5.90527</ele>
        <time>2012-05-27T09:08:15Z</time>
      </trkpt>
      <trkpt lat="59.8534132" lon="17.7341318">
        <ele>7.82788</ele>
        <time>2012-05-27T09:08:20Z</time>
      </trkpt>
      <trkpt lat="59.8531522" lon="17.7344991">
        <ele>9.75061</ele>
        <time>2012-05-27T09:08:26Z</time>
      </trkpt>
      <trkpt lat="59.8527419" lon="17.7350003">
        <ele>9.75061</ele>
        <time>2012-05-27T09:08:35Z</time>
      </trkpt>
      <trkpt lat="59.8523075" lon="17.7355329">
        <ele>9.2699</ele>
        <time>2012-05-27T09:08:44Z</time>
      </trkpt>
      <trkpt lat="59.8518226" lon="17.736198">
        <ele>9.2699</ele>
        <time>2012-05-27T09:08:54Z</time>
      </trkpt>
      <trkpt lat="59.8514466" lon="17.7367767">
        <ele>9.75061</ele>
        <time>2012-05-27T09:09:02Z</time>
      </trkpt>
      <trkpt lat="59.8510675" lon="17.7371476">
        <ele>9.75061</ele>
        <time>2012-05-27T09:09:09Z</time>
      </trkpt>
      <trkpt lat="59.8505292" lon="17.7375787">
        <ele>9.2699</ele>
        <time>2012-05-27T09:09:18Z</time>
      </trkpt>
      <trkpt lat="59.8499655" lon="17.7379003">
        <ele>9.75061</ele>
        <time>2012-05-27T09:09:27Z</time>
      </trkpt>
      <trkpt lat="59.8494518" lon="17.7381019">
        <ele>10.7118</ele>
        <time>2012-05-27T09:09:35Z</time>
      </trkpt>
      <trkpt lat="59.8487208" lon="17.7384535">
        <ele>11.1925</ele>
        <time>2012-05-27T09:09:46Z</time>
      </trkpt>
      <trkpt lat="59.8482021" lon="17.7387571">
        <ele>11.1925</ele>
        <time>2012-05-27T09:09:54Z</time>
      </trkpt>
      <trkpt lat="59.8480168" lon="17.7388525">
        <ele>11.1925</ele>
        <time>2012-05-27T09:09:57Z</time>
      </trkpt>
      <trkpt lat="59.8478376" lon="17.7391404">
        <ele>11.6732</ele>
        <time>2012-05-27T09:10:01Z</time>
      </trkpt>
      <trkpt lat="59.8478143" lon="17.7393767">
        <ele>11.6732</ele>
        <time>2012-05-27T09:10:03Z</time>
      </trkpt>
      <trkpt lat="59.8478027" lon="17.7405141">
        <ele>11.6732</ele>
        <time>2012-05-27T09:10:12Z</time>
      </trkpt>
      <trkpt lat="59.8477832" lon="17.7418325">
        <ele>12.6344</ele>
        <time>2012-05-27T09:10:22Z</time>
      </trkpt>
      <trkpt lat="59.8477614" lon="17.7433244">
        <ele>12.6344</ele>
        <time>2012-05-27T09:10:33Z</time>
      </trkpt>
      <trkpt lat="59.847738" lon="17.7446945">
        <ele>13.5958</ele>
        <time>2012-05-27T09:10:43Z</time>
      </trkpt>
      <trkpt lat="59.8477174" lon="17.7459135">
        <ele>14.557</ele>
        <time>2012-05-27T09:10:53Z</time>
      </trkpt>
      <trkpt lat="59.8477024" lon="17.7469854">
        <ele>15.999</ele>
        <time>2012-05-27T09:11:03Z</time>
      </trkpt>
      <trkpt lat="59.8476939" lon="17.7478826">
        <ele>16.9604</ele>
        <time>2012-05-27T09:11:12Z</time>
      </trkpt>
      <trkpt lat="59.8477055" lon="17.7487013">
        <ele>17.9218</ele>
        <time>2012-05-27T09:11:20Z</time>
      </trkpt>
      <trkpt lat="59.8477494" lon="17.7497646">
        <ele>19.3638</ele>
        <time>2012-05-27T09:11:30Z</time>
      </trkpt>
      <trkpt lat="59.8478064" lon="17.7506771">
        <ele>17.9218</ele>
        <time>2012-05-27T09:11:38Z</time>
      </trkpt>
      <trkpt lat="59.8478696" lon="17.7514664">
        <ele>17.4412</ele>
        <time>2012-05-27T09:11:44Z</time>
      </trkpt>
      <trkpt lat="59.8480193" lon="17.7525942">
        <ele>15.5184</ele>
        <time>2012-05-27T09:11:52Z</time>
      </trkpt>
      <trkpt lat="59.8482205" lon="17.7541227">
        <ele>13.5958</ele>
        <time>2012-05-27T09:12:02Z</time>
      </trkpt>
      <trkpt lat="59.8483946" lon="17.7557626">
        <ele>10.7118</ele>
        <time>2012-05-27T09:12:13Z</time>
      </trkpt>
      <trkpt lat="59.8484526" lon="17.7572356">
        <ele>9.75061</ele>
        <time>2012-05-27T09:12:23Z</time>
      </trkpt>
      <trkpt lat="59.8484261" lon="17.7585756">
        <ele>9.2699</ele>
        <time>2012-05-27T09:12:32Z</time>
      </trkpt>
      <trkpt lat="59.8483715" lon="17.7603218">
        <ele>11.1925</ele>
        <time>2012-05-27T09:12:44Z</time>
      </trkpt>
      <trkpt lat="59.8483313" lon="17.7617503">
        <ele>12.1538</ele>
        <time>2012-05-27T09:12:54Z</time>
      </trkpt>
      <trkpt lat="59.848307" lon="17.7626062">
        <ele>12.1538</ele>
        <time>2012-05-27T09:13:00Z</time>
      </trkpt>
      <trkpt lat="59.8482095" lon="17.7631262">
        <ele>12.1538</ele>
        <time>2012-05-27T09:13:04Z</time>
      </trkpt>
      <trkpt lat="59.8481594" lon="17.7632325">
        <ele>12.1538</ele>
        <time>2012-05-27T09:13:05Z</time>
      </trkpt>
      <trkpt lat="59.8475937" lon="17.7643897">
        <ele>11.6732</ele>
        <time>2012-05-27T09:13:16Z</time>
      </trkpt>
      <trkpt lat="59.8472347" lon="17.7651427">
        <ele>10.7118</ele>
        <time>2012-05-27T09:13:23Z</time>
      </trkpt>
      <trkpt lat="59.8471487" lon="17.7656527">
        <ele>10.7118</ele>
        <time>2012-05-27T09:13:27Z</time>
      </trkpt>
      <trkpt lat="59.8471657" lon="17.765791">
        <ele>10.7118</ele>
        <time>2012-05-27T09:13:28Z</time>
      </trkpt>
      <trkpt lat="59.8473662" lon="17.766959">
        <ele>10.7118</ele>
        <time>2012-05-27T09:13:37Z</time>
      </trkpt>
      <trkpt lat="59.8475574" lon="17.768054">
        <ele>10.2312</ele>
        <time>2012-05-27T09:13:45Z</time>
      </trkpt>
      <trkpt lat="59.8477502" lon="17.7692521">
        <ele>10.7118</ele>
        <time>2012-05-27T09:13:54Z</time>
      </trkpt>
      <trkpt lat="59.8479111" lon="17.769994">
        <ele>10.7118</ele>
        <time>2012-05-27T09:14:00Z</time>
      </trkpt>
      <trkpt lat="59.8479842" lon="17.7702182">
        <ele>11.1925</ele>
        <time>2012-05-27T09:14:02Z</time>
      </trkpt>
      <trkpt lat="59.8480655" lon="17.7708517">
        <ele>11.1925</ele>
        <time>2012-05-27T09:14:07Z</time>
      </trkpt>
      <trkpt lat="59.8481748" lon="17.7715936">
        <ele>12.1538</ele>
        <time>2012-05-27T09:14:13Z</time>
      </trkpt>
      <trkpt lat="59.8483576" lon="17.7725904">
        <ele>14.0764</ele>
        <time>2012-05-27T09:14:22Z</time>
      </trkpt>
      <trkpt lat="59.8484157" lon="17.7729737">
        <ele>15.5184</ele>
        <time>2012-05-27T09:14:26Z</time>
      </trkpt>
      <trkpt lat="59.8484653" lon="17.7735517">
        <ele>18.8831</ele>
        <time>2012-05-27T09:14:33Z</time>
      </trkpt>
      <trkpt lat="59.8485379" lon="17.7741452">
        <ele>20.8057</ele>
        <time>2012-05-27T09:14:40Z</time>
      </trkpt>
      <trkpt lat="59.8486089" lon="17.7747198">
        <ele>22.7283</ele>
        <time>2012-05-27T09:14:47Z</time>
      </trkpt>
      <trkpt lat="59.8486814" lon="17.7755019">
        <ele>24.651</ele>
        <time>2012-05-27T09:14:56Z</time>
      </trkpt>
      <trkpt lat="59.8486957" lon="17.7756798">
        <ele>23.6896</ele>
        <time>2012-05-27T09:14:58Z</time>
      </trkpt>
      <trkpt lat="59.848727" lon="17.7763683">
        <ele>23.209</ele>
        <time>2012-05-27T09:15:07Z</time>
      </trkpt>
      <trkpt lat="59.8487621" lon="17.7769865">
        <ele>23.209</ele>
        <time>2012-05-27T09:15:15Z</time>
      </trkpt>
      <trkpt lat="59.8487794" lon="17.7773342">
        <ele>23.209</ele>
        <time>2012-05-27T09:15:19Z</time>
      </trkpt>
      <trkpt lat="59.8488187" lon="17.7777796">
        <ele>23.6896</ele>
        <time>2012-05-27T09:15:24Z</time>
      </trkpt>
      <trkpt lat="59.8488404" lon="17.7786996">
        <ele>23.209</ele>
        <time>2012-05-27T09:15:33Z</time>
      </trkpt>
      <trkpt lat="59.8489094" lon="17.7796715">
        <ele>23.209</ele>
        <time>2012-05-27T09:15:42Z</time>
      </trkpt>
      <trkpt lat="59.8489243" lon="17.7797786">
        <ele>23.209</ele>
        <time>2012-05-27T09:15:43Z</time>
      </trkpt>
      <trkpt lat="59.8490488" lon="17.7804631">
        <ele>23.209</ele>
        <time>2012-05-27T09:15:49Z</time>
      </trkpt>
      <trkpt lat="59.8492572" lon="17.7815913">
        <ele>23.6896</ele>
        <time>2012-05-27T09:15:58Z</time>
      </trkpt>
      <trkpt lat="59.8495313" lon="17.7828473">
        <ele>25.6123</ele>
        <time>2012-05-27T09:16:08Z</time>
      </trkpt>
      <trkpt lat="59.8497722" lon="17.783928">
        <ele>27.0543</ele>
        <time>2012-05-27T09:16:17Z</time>
      </trkpt>
      <trkpt lat="59.8498848" lon="17.7844885">
        <ele>28.0155</ele>
        <time>2012-05-27T09:16:22Z</time>
      </trkpt>
      <trkpt lat="59.8501235" lon="17.7853329">
        <ele>28.4962</ele>
        <time>2012-05-27T09:16:31Z</time>
      </trkpt>
      <trkpt lat="59.8501521" lon="17.7854164">
        <ele>28.4962</ele>
        <time>2012-05-27T09:16:32Z</time>
      </trkpt>
      <trkpt lat="59.8502385" lon="17.7856307">
        <ele>28.4962</ele>
        <time>2012-05-27T09:16:35Z</time>
      </trkpt>
      <trkpt lat="59.8504485" lon="17.7862223">
        <ele>27.5349</ele>
        <time>2012-05-27T09:16:44Z</time>
      </trkpt>
      <trkpt lat="59.8506503" lon="17.7867455">
        <ele>26.5736</ele>
        <time>2012-05-27T09:16:52Z</time>
      </trkpt>
      <trkpt lat="59.8509249" lon="17.7874755">
        <ele>25.6123</ele>
        <time>2012-05-27T09:17:03Z</time>
      </trkpt>
      <trkpt lat="59.8512035" lon="17.7881628">
        <ele>24.1703</ele>
        <time>2012-05-27T09:17:13Z</time>
      </trkpt>
      <trkpt lat="59.851518" lon="17.7889386">
        <ele>24.1703</ele>
        <time>2012-05-27T09:17:23Z</time>
      </trkpt>
      <trkpt lat="59.8518079" lon="17.7896671">
        <ele>23.6896</ele>
        <time>2012-05-27T09:17:31Z</time>
      </trkpt>
      <trkpt lat="59.8522008" lon="17.7905994">
        <ele>25.1317</ele>
        <time>2012-05-27T09:17:40Z</time>
      </trkpt>
      <trkpt lat="59.8525704" lon="17.7915085">
        <ele>24.651</ele>
        <time>2012-05-27T09:17:48Z</time>
      </trkpt>
      <trkpt lat="59.8529369" lon="17.7924768">
        <ele>25.1317</ele>
        <time>2012-05-27T09:17:56Z</time>
      </trkpt>
      <trkpt lat="59.8532589" lon="17.7934152">
        <ele>25.1317</ele>
        <time>2012-05-27T09:18:04Z</time>
      </trkpt>
      <trkpt lat="59.8534948" lon="17.7941126">
        <ele>24.1703</ele>
        <time>2012-05-27T09:18:10Z</time>
      </trkpt>
      <trkpt lat="59.8537429" lon="17.7948912">
        <ele>23.6896</ele>
        <time>2012-05-27T09:18:17Z</time>
      </trkpt>
      <trkpt lat="59.8539625" lon="17.7956906">
        <ele>22.7283</ele>
        <time>2012-05-27T09:18:24Z</time>
      </trkpt>
      <trkpt lat="59.854207" lon="17.7965109">
        <ele>22.7283</ele>
        <time>2012-05-27T09:18:31Z</time>
      </trkpt>
      <trkpt lat="59.8544297" lon="17.79725">
        <ele>23.6896</ele>
        <time>2012-05-27T09:18:37Z</time>
      </trkpt>
      <trkpt lat="59.8547043" lon="17.7983293">
        <ele>25.6123</ele>
        <time>2012-05-27T09:18:45Z</time>
      </trkpt>
      <trkpt lat="59.8549942" lon="17.7994347">
        <ele>24.1703</ele>
        <time>2012-05-27T09:18:54Z</time>
      </trkpt>
      <trkpt lat="59.8552608" lon="17.8003574">
        <ele>25.1317</ele>
        <time>2012-05-27T09:19:02Z</time>
      </trkpt>
      <trkpt lat="59.8555264" lon="17.801301">
        <ele>25.6123</ele>
        <time>2012-05-27T09:19:10Z</time>
      </trkpt>
      <trkpt lat="59.8557031" lon="17.8020941">
        <ele>23.209</ele>
        <time>2012-05-27T09:19:16Z</time>
      </trkpt>
      <trkpt lat="59.8560445" lon="17.8032119">
        <ele>20.8057</ele>
        <time>2012-05-27T09:19:24Z</time>
      </trkpt>
      <trkpt lat="59.8560989" lon="17.8033393">
        <ele>20.8057</ele>
        <time>2012-05-27T09:19:25Z</time>
      </trkpt>
      <trkpt lat="59.856551" lon="17.8047241">
        <ele>18.8831</ele>
        <time>2012-05-27T09:19:35Z</time>
      </trkpt>
      <trkpt lat="59.8566003" lon="17.8048655">
        <ele>18.8831</ele>
        <time>2012-05-27T09:19:36Z</time>
      </trkpt>
      <trkpt lat="59.8568286" lon="17.8053089">
        <ele>17.4412</ele>
        <time>2012-05-27T09:19:40Z</time>
      </trkpt>
      <trkpt lat="59.8568111" lon="17.8055471">
        <ele>15.5184</ele>
        <time>2012-05-27T09:19:42Z</time>
      </trkpt>
      <trkpt lat="59.8567738" lon="17.8056524">
        <ele>15.0377</ele>
        <time>2012-05-27T09:19:43Z</time>
      </trkpt>
      <trkpt lat="59.8566208" lon="17.8059211">
        <ele>14.0764</ele>
        <time>2012-05-27T09:19:46Z</time>
      </trkpt>
      <trkpt lat="59.8566205" lon="17.8064292">
        <ele>17.9218</ele>
        <time>2012-05-27T09:19:50Z</time>
      </trkpt>
      <trkpt lat="59.8566698" lon="17.8066474">
        <ele>18.8831</ele>
        <time>2012-05-27T09:19:52Z</time>
      </trkpt>
      <trkpt lat="59.8566664" lon="17.8070826">
        <ele>19.8444</ele>
        <time>2012-05-27T09:19:56Z</time>
      </trkpt>
      <trkpt lat="59.8566448" lon="17.8071873">
        <ele>19.8444</ele>
        <time>2012-05-27T09:19:57Z</time>
      </trkpt>
      <trkpt lat="59.8564478" lon="17.8080154">
        <ele>20.325</ele>
        <time>2012-05-27T09:20:05Z</time>
      </trkpt>
      <trkpt lat="59.8564024" lon="17.8082036">
        <ele>21.2864</ele>
        <time>2012-05-27T09:20:07Z</time>
      </trkpt>
      <trkpt lat="59.8563454" lon="17.8085843">
        <ele>23.209</ele>
        <time>2012-05-27T09:20:11Z</time>
      </trkpt>
      <trkpt lat="59.8564084" lon="17.8091044">
        <ele>23.209</ele>
        <time>2012-05-27T09:20:16Z</time>
      </trkpt>
      <trkpt lat="59.8564851" lon="17.8092836">
        <ele>21.767</ele>
        <time>2012-05-27T09:20:18Z</time>
      </trkpt>
      <trkpt lat="59.856828" lon="17.8099974">
        <ele>20.8057</ele>
        <time>2012-05-27T09:20:26Z</time>
      </trkpt>
      <trkpt lat="59.8568607" lon="17.8101046">
        <ele>20.8057</ele>
        <time>2012-05-27T09:20:27Z</time>
      </trkpt>
      <trkpt lat="59.8569184" lon="17.810691">
        <ele>19.8444</ele>
        <time>2012-05-27T09:20:32Z</time>
      </trkpt>
      <trkpt lat="59.8569124" lon="17.8115903">
        <ele>19.3638</ele>
        <time>2012-05-27T09:20:40Z</time>
      </trkpt>
      <trkpt lat="59.8570084" lon="17.8121859">
        <ele>19.3638</ele>
        <time>2012-05-27T09:20:45Z</time>
      </trkpt>
      <trkpt lat="59.8571814" lon="17.8128492">
        <ele>20.325</ele>
        <time>2012-05-27T09:20:51Z</time>
      </trkpt>
      <trkpt lat="59.8573983" lon="17.8133536">
        <ele>17.9218</ele>
        <time>2012-05-27T09:20:56Z</time>
      </trkpt>
      <trkpt lat="59.8575093" lon="17.8140005">
        <ele>17.9218</ele>
        <time>2012-05-27T09:21:01Z</time>
      </trkpt>
      <trkpt lat="59.8574964" lon="17.8141311">
        <ele>17.4412</ele>
        <time>2012-05-27T09:21:02Z</time>
      </trkpt>
      <trkpt lat="59.8574706" lon="17.8143845">
        <ele>17.4412</ele>
        <time>2012-05-27T09:21:04Z</time>
      </trkpt>
      <trkpt lat="59.8575143" lon="17.8146901">
        <ele>18.4023</ele>
        <time>2012-05-27T09:21:07Z</time>
      </trkpt>
      <trkpt lat="59.857627" lon="17.8148257">
        <ele>17.9218</ele>
        <time>2012-05-27T09:21:10Z</time>
      </trkpt>
      <trkpt lat="59.8579075" lon="17.8150366">
        <ele>17.9218</ele>
        <time>2012-05-27T09:21:16Z</time>
      </trkpt>
      <trkpt lat="59.8583045" lon="17.815284">
        <ele>21.767</ele>
        <time>2012-05-27T09:21:24Z</time>
      </trkpt>
      <trkpt lat="59.8585728" lon="17.8154702">
        <ele>20.325</ele>
        <time>2012-05-27T09:21:29Z</time>
      </trkpt>
      <trkpt lat="59.8590823" lon="17.8159038">
        <ele>18.4023</ele>
        <time>2012-05-27T09:21:37Z</time>
      </trkpt>
      <trkpt lat="59.859662" lon="17.8164267">
        <ele>15.5184</ele>
        <time>2012-05-27T09:21:46Z</time>
      </trkpt>
      <trkpt lat="59.8601056" lon="17.8168696">
        <ele>14.557</ele>
        <time>2012-05-27T09:21:53Z</time>
      </trkpt>
      <trkpt lat="59.8606216" lon="17.8175793">
        <ele>15.0377</ele>
        <time>2012-05-27T09:22:02Z</time>
      </trkpt>
      <trkpt lat="59.8608966" lon="17.8179648">
        <ele>14.557</ele>
        <time>2012-05-27T09:22:08Z</time>
      </trkpt>
      <trkpt lat="59.8612544" lon="17.8183488">
        <ele>14.557</ele>
        <time>2012-05-27T09:22:15Z</time>
      </trkpt>
      <trkpt lat="59.8615653" lon="17.8185641">
        <ele>18.8831</ele>
        <time>2012-05-27T09:22:21Z</time>
      </trkpt>
      <trkpt lat="59.8619021" lon="17.8187186">
        <ele>19.8444</ele>
        <time>2012-05-27T09:22:27Z</time>
      </trkpt>
      <trkpt lat="59.8622173" lon="17.8189849">
        <ele>17.9218</ele>
        <time>2012-05-27T09:22:32Z</time>
      </trkpt>
      <trkpt lat="59.8623987" lon="17.819392">
        <ele>16.4797</ele>
        <time>2012-05-27T09:22:36Z</time>
      </trkpt>
      <trkpt lat="59.8624263" lon="17.8195199">
        <ele>15.999</ele>
        <time>2012-05-27T09:22:37Z</time>
      </trkpt>
      <trkpt lat="59.8626475" lon="17.8206105">
        <ele>12.6344</ele>
        <time>2012-05-27T09:22:45Z</time>
      </trkpt>
      <trkpt lat="59.8628678" lon="17.8214113">
        <ele>9.75061</ele>
        <time>2012-05-27T09:22:50Z</time>
      </trkpt>
      <trkpt lat="59.8632587" lon="17.8225995">
        <ele>7.82788</ele>
        <time>2012-05-27T09:22:57Z</time>
      </trkpt>
      <trkpt lat="59.8636561" lon="17.8235454">
        <ele>6.38586</ele>
        <time>2012-05-27T09:23:03Z</time>
      </trkpt>
      <trkpt lat="59.8640807" lon="17.8244749">
        <ele>7.34717</ele>
        <time>2012-05-27T09:23:10Z</time>
      </trkpt>
      <trkpt lat="59.8645556" lon="17.8254966">
        <ele>9.2699</ele>
        <time>2012-05-27T09:23:19Z</time>
      </trkpt>
      <trkpt lat="59.8648084" lon="17.826019">
        <ele>11.1925</ele>
        <time>2012-05-27T09:23:25Z</time>
      </trkpt>
      <trkpt lat="59.8650474" lon="17.8264625">
        <ele>12.1538</ele>
        <time>2012-05-27T09:23:32Z</time>
      </trkpt>
      <trkpt lat="59.865233" lon="17.826612">
        <ele>12.1538</ele>
        <time>2012-05-27T09:23:36Z</time>
      </trkpt>
      <trkpt lat="59.8657633" lon="17.8267409">
        <ele>14.557</ele>
        <time>2012-05-27T09:23:44Z</time>
      </trkpt>
      <trkpt lat="59.8661561" lon="17.82681">
        <ele>15.5184</ele>
        <time>2012-05-27T09:23:50Z</time>
      </trkpt>
      <trkpt lat="59.8662175" lon="17.8268132">
        <ele>15.5184</ele>
        <time>2012-05-27T09:23:51Z</time>
      </trkpt>
      <trkpt lat="59.8667248" lon="17.8266638">
        <ele>15.5184</ele>
        <time>2012-05-27T09:23:59Z</time>
      </trkpt>
      <trkpt lat="59.8671747" lon="17.8263837">
        <ele>16.4797</ele>
        <time>2012-05-27T09:24:07Z</time>
      </trkpt>
      <trkpt lat="59.8675919" lon="17.8260625">
        <ele>16.9604</ele>
        <time>2012-05-27T09:24:16Z</time>
      </trkpt>
      <trkpt lat="59.8678824" lon="17.8258129">
        <ele>15.5184</ele>
        <time>2012-05-27T09:24:23Z</time>
      </trkpt>
      <trkpt lat="59.8681605" lon="17.8256649">
        <ele>16.4797</ele>
        <time>2012-05-27T09:24:29Z</time>
      </trkpt>
      <trkpt lat="59.868418" lon="17.825732">
        <ele>18.4023</ele>
        <time>2012-05-27T09:24:34Z</time>
      </trkpt>
      <trkpt lat="59.8685172" lon="17.8258336">
        <ele>19.3638</ele>
        <time>2012-05-27T09:24:36Z</time>
      </trkpt>
      <trkpt lat="59.8688522" lon="17.8263577">
        <ele>16.9604</ele>
        <time>2012-05-27T09:24:43Z</time>
      </trkpt>
      <trkpt lat="59.8692457" lon="17.8270897">
        <ele>13.5958</ele>
        <time>2012-05-27T09:24:51Z</time>
      </trkpt>
      <trkpt lat="59.8696412" lon="17.8278117">
        <ele>9.75061</ele>
        <time>2012-05-27T09:24:59Z</time>
      </trkpt>
      <trkpt lat="59.8700334" lon="17.8282888">
        <ele>8.78918</ele>
        <time>2012-05-27T09:25:05Z</time>
      </trkpt>
      <trkpt lat="59.8706397" lon="17.8288716">
        <ele>8.30859</ele>
        <time>2012-05-27T09:25:13Z</time>
      </trkpt>
      <trkpt lat="59.8713212" lon="17.8295212">
        <ele>6.86646</ele>
        <time>2012-05-27T09:25:22Z</time>
      </trkpt>
      <trkpt lat="59.8717786" lon="17.8299459">
        <ele>6.86646</ele>
        <time>2012-05-27T09:25:29Z</time>
      </trkpt>
      <trkpt lat="59.8720875" lon="17.830232">
        <ele>9.75061</ele>
        <time>2012-05-27T09:25:35Z</time>
      </trkpt>
      <trkpt lat="59.8724322" lon="17.8305364">
        <ele>11.1925</ele>
        <time>2012-05-27T09:25:43Z</time>
      </trkpt>
      <trkpt lat="59.872513" lon="17.8305988">
        <ele>11.1925</ele>
        <time>2012-05-27T09:25:45Z</time>
      </trkpt>
      <trkpt lat="59.8729616" lon="17.8307907">
        <ele>16.9604</ele>
        <time>2012-05-27T09:25:55Z</time>
      </trkpt>
      <trkpt lat="59.8732891" lon="17.8310119">
        <ele>21.767</ele>
        <time>2012-05-27T09:26:02Z</time>
      </trkpt>
      <trkpt lat="59.8735522" lon="17.83126">
        <ele>21.767</ele>
        <time>2012-05-27T09:26:09Z</time>
      </trkpt>
      <trkpt lat="59.8738624" lon="17.8316528">
        <ele>21.767</ele>
        <time>2012-05-27T09:26:18Z</time>
      </trkpt>
      <trkpt lat="59.8740467" lon="17.831886">
        <ele>22.2476</ele>
        <time>2012-05-27T09:26:23Z</time>
      </trkpt>
      <trkpt lat="59.8743322" lon="17.8322128">
        <ele>18.4023</ele>
        <time>2012-05-27T09:26:30Z</time>
      </trkpt>
      <trkpt lat="59.8747668" lon="17.8324091">
        <ele>15.0377</ele>
        <time>2012-05-27T09:26:37Z</time>
      </trkpt>
      <trkpt lat="59.8753324" lon="17.8325721">
        <ele>19.8444</ele>
        <time>2012-05-27T09:26:45Z</time>
      </trkpt>
      <trkpt lat="59.8756786" lon="17.8328374">
        <ele>21.2864</ele>
        <time>2012-05-27T09:26:51Z</time>
      </trkpt>
      <trkpt lat="59.8760321" lon="17.8331824">
        <ele>20.8057</ele>
        <time>2012-05-27T09:26:57Z</time>
      </trkpt>
      <trkpt lat="59.8763875" lon="17.8334208">
        <ele>21.2864</ele>
        <time>2012-05-27T09:27:03Z</time>
      </trkpt>
      <trkpt lat="59.8767467" lon="17.8336466">
        <ele>21.2864</ele>
        <time>2012-05-27T09:27:10Z</time>
      </trkpt>
      <trkpt lat="59.8770585" lon="17.8339093">
        <ele>19.3638</ele>
        <time>2012-05-27T09:27:15Z</time>
      </trkpt>
      <trkpt lat="59.8774095" lon="17.8343634">
        <ele>16.9604</ele>
        <time>2012-05-27T09:27:21Z</time>
      </trkpt>
      <trkpt lat="59.8778449" lon="17.834939">
        <ele>13.1151</ele>
        <time>2012-05-27T09:27:29Z</time>
      </trkpt>
      <trkpt lat="59.8783599" lon="17.8354534">
        <ele>11.1925</ele>
        <time>2012-05-27T09:27:37Z</time>
      </trkpt>
      <trkpt lat="59.8787851" lon="17.8357337">
        <ele>14.557</ele>
        <time>2012-05-27T09:27:43Z</time>
      </trkpt>
      <trkpt lat="59.8791176" lon="17.8358412">
        <ele>18.8831</ele>
        <time>2012-05-27T09:27:48Z</time>
      </trkpt>
      <trkpt lat="59.879565" lon="17.8358859">
        <ele>24.1703</ele>
        <time>2012-05-27T09:27:54Z</time>
      </trkpt>
      <trkpt lat="59.8798526" lon="17.8359314">
        <ele>23.209</ele>
        <time>2012-05-27T09:27:59Z</time>
      </trkpt>
      <trkpt lat="59.8801422" lon="17.8361341">
        <ele>21.767</ele>
        <time>2012-05-27T09:28:04Z</time>
      </trkpt>
      <trkpt lat="59.8805823" lon="17.8366584">
        <ele>20.325</ele>
        <time>2012-05-27T09:28:11Z</time>
      </trkpt>
      <trkpt lat="59.8808882" lon="17.8371746">
        <ele>20.8057</ele>
        <time>2012-05-27T09:28:17Z</time>
      </trkpt>
      <trkpt lat="59.8812264" lon="17.837748">
        <ele>16.9604</ele>
        <time>2012-05-27T09:28:24Z</time>
      </trkpt>
      <trkpt lat="59.8816884" lon="17.8384723">
        <ele>13.5958</ele>
        <time>2012-05-27T09:28:33Z</time>
      </trkpt>
      <trkpt lat="59.881887" lon="17.8387668">
        <ele>13.5958</ele>
        <time>2012-05-27T09:28:37Z</time>
      </trkpt>
      <trkpt lat="59.8821939" lon="17.838997">
        <ele>18.4023</ele>
        <time>2012-05-27T09:28:42Z</time>
      </trkpt>
      <trkpt lat="59.8827477" lon="17.8392099">
        <ele>29.9381</ele>
        <time>2012-05-27T09:28:52Z</time>
      </trkpt>
      <trkpt lat="59.8830629" lon="17.8395322">
        <ele>29.9381</ele>
        <time>2012-05-27T09:28:58Z</time>
      </trkpt>
      <trkpt lat="59.8834332" lon="17.8400519">
        <ele>26.0929</ele>
        <time>2012-05-27T09:29:04Z</time>
      </trkpt>
      <trkpt lat="59.8838419" lon="17.8406154">
        <ele>21.767</ele>
        <time>2012-05-27T09:29:10Z</time>
      </trkpt>
      <trkpt lat="59.884379" lon="17.8412624">
        <ele>18.8831</ele>
        <time>2012-05-27T09:29:18Z</time>
      </trkpt>
      <trkpt lat="59.8847348" lon="17.8414924">
        <ele>17.4412</ele>
        <time>2012-05-27T09:29:23Z</time>
      </trkpt>
      <trkpt lat="59.8851244" lon="17.8415353">
        <ele>18.4023</ele>
        <time>2012-05-27T09:29:28Z</time>
      </trkpt>
      <trkpt lat="59.8855523" lon="17.8414878">
        <ele>21.767</ele>
        <time>2012-05-27T09:29:34Z</time>
      </trkpt>
      <trkpt lat="59.8861481" lon="17.8413951">
        <ele>21.767</ele>
        <time>2012-05-27T09:29:43Z</time>
      </trkpt>
      <trkpt lat="59.8865959" lon="17.841189">
        <ele>20.8057</ele>
        <time>2012-05-27T09:29:50Z</time>
      </trkpt>
      <trkpt lat="59.8867308" lon="17.8411365">
        <ele>21.2864</ele>
        <time>2012-05-27T09:29:52Z</time>
      </trkpt>
      <trkpt lat="59.8870618" lon="17.841254">
        <ele>20.8057</ele>
        <time>2012-05-27T09:29:57Z</time>
      </trkpt>
      <trkpt lat="59.8872545" lon="17.8415566">
        <ele>20.8057</ele>
        <time>2012-05-27T09:30:01Z</time>
      </trkpt>
      <trkpt lat="59.8872876" lon="17.8416416">
        <ele>20.8057</ele>
        <time>2012-05-27T09:30:02Z</time>
      </trkpt>
      <trkpt lat="59.8875342" lon="17.8422302">
        <ele>20.325</ele>
        <time>2012-05-27T09:30:09Z</time>
      </trkpt>
      <trkpt lat="59.8878895" lon="17.8427196">
        <ele>18.8831</ele>
        <time>2012-05-27T09:30:16Z</time>
      </trkpt>
      <trkpt lat="59.8883269" lon="17.8430818">
        <ele>19.3638</ele>
        <time>2012-05-27T09:30:24Z</time>
      </trkpt>
      <trkpt lat="59.888683" lon="17.8431609">
        <ele>24.651</ele>
        <time>2012-05-27T09:30:30Z</time>
      </trkpt>
      <trkpt lat="59.8889272" lon="17.8432169">
        <ele>25.6123</ele>
        <time>2012-05-27T09:30:34Z</time>
      </trkpt>
      <trkpt lat="59.8892976" lon="17.8434327">
        <ele>29.9381</ele>
        <time>2012-05-27T09:30:40Z</time>
      </trkpt>
      <trkpt lat="59.8895524" lon="17.84337">
        <ele>31.3801</ele>
        <time>2012-05-27T09:30:44Z</time>
      </trkpt>
      <trkpt lat="59.88972" lon="17.8430195">
        <ele>32.8223</ele>
        <time>2012-05-27T09:30:48Z</time>
      </trkpt>
      <trkpt lat="59.8897767" lon="17.8426836">
        <ele>33.7834</ele>
        <time>2012-05-27T09:30:51Z</time>
      </trkpt>
      <trkpt lat="59.8898568" lon="17.8417781">
        <ele>35.7061</ele>
        <time>2012-05-27T09:31:00Z</time>
      </trkpt>
      <trkpt lat="59.8898709" lon="17.8416779">
        <ele>35.7061</ele>
        <time>2012-05-27T09:31:01Z</time>
      </trkpt>
      <trkpt lat="59.889972" lon="17.8411951">
        <ele>32.8223</ele>
        <time>2012-05-27T09:31:06Z</time>
      </trkpt>
      <trkpt lat="59.8901419" lon="17.8409013">
        <ele>32.8223</ele>
        <time>2012-05-27T09:31:10Z</time>
      </trkpt>
      <trkpt lat="59.8903199" lon="17.8409455">
        <ele>32.3416</ele>
        <time>2012-05-27T09:31:13Z</time>
      </trkpt>
      <trkpt lat="59.8904227" lon="17.8410785">
        <ele>32.3416</ele>
        <time>2012-05-27T09:31:15Z</time>
      </trkpt>
      <trkpt lat="59.8908133" lon="17.8417461">
        <ele>29.9381</ele>
        <time>2012-05-27T09:31:24Z</time>
      </trkpt>
      <trkpt lat="59.8910819" lon="17.8420373">
        <ele>29.4575</ele>
        <time>2012-05-27T09:31:29Z</time>
      </trkpt>
      <trkpt lat="59.8914538" lon="17.8422773">
        <ele>28.9769</ele>
        <time>2012-05-27T09:31:35Z</time>
      </trkpt>
      <trkpt lat="59.8918802" lon="17.842369">
        <ele>29.4575</ele>
        <time>2012-05-27T09:31:41Z</time>
      </trkpt>
      <trkpt lat="59.8923362" lon="17.8425361">
        <ele>30.8995</ele>
        <time>2012-05-27T09:31:47Z</time>
      </trkpt>
      <trkpt lat="59.8929564" lon="17.8428157">
        <ele>30.8995</ele>
        <time>2012-05-27T09:31:55Z</time>
      </trkpt>
      <trkpt lat="59.8936369" lon="17.8430512">
        <ele>31.3801</ele>
        <time>2012-05-27T09:32:03Z</time>
      </trkpt>
      <trkpt lat="59.8940295" lon="17.843091">
        <ele>30.4188</ele>
        <time>2012-05-27T09:32:08Z</time>
      </trkpt>
      <trkpt lat="59.8943289" lon="17.8431424">
        <ele>26.0929</ele>
        <time>2012-05-27T09:32:12Z</time>
      </trkpt>
      <trkpt lat="59.894782" lon="17.8432209">
        <ele>20.8057</ele>
        <time>2012-05-27T09:32:18Z</time>
      </trkpt>
      <trkpt lat="59.8948582" lon="17.8432277">
        <ele>20.8057</ele>
        <time>2012-05-27T09:32:19Z</time>
      </trkpt>
      <trkpt lat="59.8953087" lon="17.843077">
        <ele>18.8831</ele>
        <time>2012-05-27T09:32:25Z</time>
      </trkpt>
      <trkpt lat="59.89563" lon="17.8429148">
        <ele>14.557</ele>
        <time>2012-05-27T09:32:30Z</time>
      </trkpt>
      <trkpt lat="59.8956902" lon="17.8428878">
        <ele>13.5958</ele>
        <time>2012-05-27T09:32:31Z</time>
      </trkpt>
      <trkpt lat="59.8961941" lon="17.8428801">
        <ele>20.325</ele>
        <time>2012-05-27T09:32:38Z</time>
      </trkpt>
      <trkpt lat="59.8963412" lon="17.8429349">
        <ele>22.2476</ele>
        <time>2012-05-27T09:32:40Z</time>
      </trkpt>
      <trkpt lat="59.8966139" lon="17.8429624">
        <ele>26.5736</ele>
        <time>2012-05-27T09:32:44Z</time>
      </trkpt>
      <trkpt lat="59.8968577" lon="17.8428886">
        <ele>28.0155</ele>
        <time>2012-05-27T09:32:49Z</time>
      </trkpt>
      <trkpt lat="59.8970298" lon="17.8428014">
        <ele>26.5736</ele>
        <time>2012-05-27T09:32:53Z</time>
      </trkpt>
      <trkpt lat="59.8973154" lon="17.8425603">
        <ele>29.4575</ele>
        <time>2012-05-27T09:33:01Z</time>
      </trkpt>
      <trkpt lat="59.8973997" lon="17.8424947">
        <ele>31.3801</ele>
        <time>2012-05-27T09:33:03Z</time>
      </trkpt>
      <trkpt lat="59.8975713" lon="17.8423892">
        <ele>32.3416</ele>
        <time>2012-05-27T09:33:07Z</time>
      </trkpt>
      <trkpt lat="59.897917" lon="17.8423274">
        <ele>33.7834</ele>
        <time>2012-05-27T09:33:14Z</time>
      </trkpt>
      <trkpt lat="59.8980559" lon="17.8423467">
        <ele>36.1868</ele>
        <time>2012-05-27T09:33:17Z</time>
      </trkpt>
      <trkpt lat="59.8982539" lon="17.8423314">
        <ele>37.1481</ele>
        <time>2012-05-27T09:33:21Z</time>
      </trkpt>
      <trkpt lat="59.8986554" lon="17.8421444">
        <ele>31.8607</ele>
        <time>2012-05-27T09:33:29Z</time>
      </trkpt>
      <trkpt lat="59.8988269" lon="17.8420466">
        <ele>28.9769</ele>
        <time>2012-05-27T09:33:33Z</time>
      </trkpt>
      <trkpt lat="59.8989119" lon="17.8419936">
        <ele>27.5349</ele>
        <time>2012-05-27T09:33:35Z</time>
      </trkpt>
      <trkpt lat="59.8992807" lon="17.8416635">
        <ele>33.3029</ele>
        <time>2012-05-27T09:33:41Z</time>
      </trkpt>
      <trkpt lat="59.8993502" lon="17.8416086">
        <ele>33.7834</ele>
        <time>2012-05-27T09:33:42Z</time>
      </trkpt>
      <trkpt lat="59.8997089" lon="17.841466">
        <ele>28.9769</ele>
        <time>2012-05-27T09:33:47Z</time>
      </trkpt>
      <trkpt lat="59.9003315" lon="17.8414106">
        <ele>29.4575</ele>
        <time>2012-05-27T09:33:53Z</time>
      </trkpt>
      <trkpt lat="59.9010978" lon="17.8414789">
        <ele>28.9769</ele>
        <time>2012-05-27T09:34:00Z</time>
      </trkpt>
      <trkpt lat="59.9017846" lon="17.8415759">
        <ele>30.8995</ele>
        <time>2012-05-27T09:34:07Z</time>
      </trkpt>
      <trkpt lat="59.902107" lon="17.841623">
        <ele>30.8995</ele>
        <time>2012-05-27T09:34:11Z</time>
      </trkpt>
      <trkpt lat="59.9025571" lon="17.8414991">
        <ele>27.5349</ele>
        <time>2012-05-27T09:34:16Z</time>
      </trkpt>
      <trkpt lat="59.9029517" lon="17.8413076">
        <ele>27.0543</ele>
        <time>2012-05-27T09:34:20Z</time>
      </trkpt>
      <trkpt lat="59.9033355" lon="17.8413975">
        <ele>25.1317</ele>
        <time>2012-05-27T09:34:24Z</time>
      </trkpt>
      <trkpt lat="59.9034906" lon="17.8416093">
        <ele>22.2476</ele>
        <time>2012-05-27T09:34:26Z</time>
      </trkpt>
      <trkpt lat="59.903639" lon="17.8418431">
        <ele>19.8444</ele>
        <time>2012-05-27T09:34:28Z</time>
      </trkpt>
      <trkpt lat="59.9041021" lon="17.8420867">
        <ele>17.4412</ele>
        <time>2012-05-27T09:34:33Z</time>
      </trkpt>
      <trkpt lat="59.9043064" lon="17.8419468">
        <ele>18.8831</ele>
        <time>2012-05-27T09:34:35Z</time>
      </trkpt>
      <trkpt lat="59.9048292" lon="17.8415866">
        <ele>20.8057</ele>
        <time>2012-05-27T09:34:41Z</time>
      </trkpt>
      <trkpt lat="59.9052424" lon="17.8414124">
        <ele>14.557</ele>
        <time>2012-05-27T09:34:45Z</time>
      </trkpt>
      <trkpt lat="59.9056962" lon="17.8412251">
        <ele>11.1925</ele>
        <time>2012-05-27T09:34:49Z</time>
      </trkpt>
      <trkpt lat="59.9060412" lon="17.8408433">
        <ele>4.46326</ele>
        <time>2012-05-27T09:34:53Z</time>
      </trkpt>
      <trkpt lat="59.9064038" lon="17.8403581">
        <ele>3.02124</ele>
        <time>2012-05-27T09:34:58Z</time>
      </trkpt>
      <trkpt lat="59.9067451" lon="17.8400606">
        <ele>4.46326</ele>
        <time>2012-05-27T09:35:03Z</time>
      </trkpt>
      <trkpt lat="59.9071229" lon="17.8397835">
        <ele>12.1538</ele>
        <time>2012-05-27T09:35:09Z</time>
      </trkpt>
      <trkpt lat="59.9074586" lon="17.8394925">
        <ele>19.3638</ele>
        <time>2012-05-27T09:35:16Z</time>
      </trkpt>
      <trkpt lat="59.907735" lon="17.8391755">
        <ele>23.6896</ele>
        <time>2012-05-27T09:35:22Z</time>
      </trkpt>
      <trkpt lat="59.908053" lon="17.8388381">
        <ele>23.6896</ele>
        <time>2012-05-27T09:35:27Z</time>
      </trkpt>
      <trkpt lat="59.9081215" lon="17.8387864">
        <ele>23.209</ele>
        <time>2012-05-27T09:35:28Z</time>
      </trkpt>
      <trkpt lat="59.9084788" lon="17.8387422">
        <ele>19.3638</ele>
        <time>2012-05-27T09:35:33Z</time>
      </trkpt>
      <trkpt lat="59.9087828" lon="17.8390348">
        <ele>17.9218</ele>
        <time>2012-05-27T09:35:37Z</time>
      </trkpt>
      <trkpt lat="59.9089695" lon="17.8394322">
        <ele>16.4797</ele>
        <time>2012-05-27T09:35:40Z</time>
      </trkpt>
      <trkpt lat="59.9094747" lon="17.840844">
        <ele>12.6344</ele>
        <time>2012-05-27T09:35:49Z</time>
      </trkpt>
      <trkpt lat="59.9095973" lon="17.8414966">
        <ele>13.1151</ele>
        <time>2012-05-27T09:35:53Z</time>
      </trkpt>
      <trkpt lat="59.909603" lon="17.8419632">
        <ele>14.557</ele>
        <time>2012-05-27T09:35:56Z</time>
      </trkpt>
      <trkpt lat="59.9095578" lon="17.8426283">
        <ele>17.4412</ele>
        <time>2012-05-27T09:36:01Z</time>
      </trkpt>
      <trkpt lat="59.9096527" lon="17.8430769">
        <ele>17.9218</ele>
        <time>2012-05-27T09:36:05Z</time>
      </trkpt>
      <trkpt lat="59.9097092" lon="17.8431433">
        <ele>17.4412</ele>
        <time>2012-05-27T09:36:06Z</time>
      </trkpt>
      <trkpt lat="59.9100756" lon="17.8435071">
        <ele>13.5958</ele>
        <time>2012-05-27T09:36:12Z</time>
      </trkpt>
      <trkpt lat="59.9103529" lon="17.8437766">
        <ele>6.86646</ele>
        <time>2012-05-27T09:36:16Z</time>
      </trkpt>
      <trkpt lat="59.9107547" lon="17.8441149">
        <ele>4.94385</ele>
        <time>2012-05-27T09:36:21Z</time>
      </trkpt>
      <trkpt lat="59.9108312" lon="17.8441936">
        <ele>3.98267</ele>
        <time>2012-05-27T09:36:22Z</time>
      </trkpt>
      <trkpt lat="59.9113093" lon="17.8443663">
        <ele>10.7118</ele>
        <time>2012-05-27T09:36:27Z</time>
      </trkpt>
      <trkpt lat="59.9117793" lon="17.8443242">
        <ele>13.5958</ele>
        <time>2012-05-27T09:36:33Z</time>
      </trkpt>
      <trkpt lat="59.9118418" lon="17.8443004">
        <ele>13.1151</ele>
        <time>2012-05-27T09:36:34Z</time>
      </trkpt>
      <trkpt lat="59.9121911" lon="17.8440121">
        <ele>10.7118</ele>
        <time>2012-05-27T09:36:40Z</time>
      </trkpt>
      <trkpt lat="59.912636" lon="17.8435441">
        <ele>9.75061</ele>
        <time>2012-05-27T09:36:48Z</time>
      </trkpt>
      <trkpt lat="59.9129512" lon="17.843389">
        <ele>7.82788</ele>
        <time>2012-05-27T09:36:53Z</time>
      </trkpt>
      <trkpt lat="59.9135609" lon="17.843175">
        <ele>8.78918</ele>
        <time>2012-05-27T09:37:01Z</time>
      </trkpt>
      <trkpt lat="59.913985" lon="17.8428251">
        <ele>9.75061</ele>
        <time>2012-05-27T09:37:07Z</time>
      </trkpt>
      <trkpt lat="59.9144991" lon="17.8422524">
        <ele>10.7118</ele>
        <time>2012-05-27T09:37:15Z</time>
      </trkpt>
      <trkpt lat="59.9146221" lon="17.8421076">
        <ele>11.1925</ele>
        <time>2012-05-27T09:37:17Z</time>
      </trkpt>
      <trkpt lat="59.9150858" lon="17.8418351">
        <ele>14.0764</ele>
        <time>2012-05-27T09:37:24Z</time>
      </trkpt>
      <trkpt lat="59.9151514" lon="17.8418127">
        <ele>14.557</ele>
        <time>2012-05-27T09:37:25Z</time>
      </trkpt>
      <trkpt lat="59.9155989" lon="17.8418504">
        <ele>14.557</ele>
        <time>2012-05-27T09:37:32Z</time>
      </trkpt>
      <trkpt lat="59.9159103" lon="17.8418586">
        <ele>14.557</ele>
        <time>2012-05-27T09:37:37Z</time>
      </trkpt>
      <trkpt lat="59.9160935" lon="17.8419271">
        <ele>14.557</ele>
        <time>2012-05-27T09:37:40Z</time>
      </trkpt>
      <trkpt lat="59.9163273" lon="17.8422155">
        <ele>14.0764</ele>
        <time>2012-05-27T09:37:45Z</time>
      </trkpt>
      <trkpt lat="59.9166557" lon="17.8427801">
        <ele>10.7118</ele>
        <time>2012-05-27T09:37:54Z</time>
      </trkpt>
      <trkpt lat="59.9169034" lon="17.8432303">
        <ele>10.2312</ele>
        <time>2012-05-27T09:38:02Z</time>
      </trkpt>
      <trkpt lat="59.9171261" lon="17.8436622">
        <ele>10.7118</ele>
        <time>2012-05-27T09:38:09Z</time>
      </trkpt>
      <trkpt lat="59.9173094" lon="17.8441322">
        <ele>9.2699</ele>
        <time>2012-05-27T09:38:16Z</time>
      </trkpt>
      <trkpt lat="59.9174181" lon="17.8445773">
        <ele>10.7118</ele>
        <time>2012-05-27T09:38:24Z</time>
      </trkpt>
      <trkpt lat="59.9175479" lon="17.84489">
        <ele>12.1538</ele>
        <time>2012-05-27T09:38:30Z</time>
      </trkpt>
      <trkpt lat="59.9177617" lon="17.8451722">
        <ele>11.6732</ele>
        <time>2012-05-27T09:38:35Z</time>
      </trkpt>
      <trkpt lat="59.9182035" lon="17.8456691">
        <ele>10.2312</ele>
        <time>2012-05-27T09:38:43Z</time>
      </trkpt>
      <trkpt lat="59.9187253" lon="17.8462125">
        <ele>10.7118</ele>
        <time>2012-05-27T09:38:52Z</time>
      </trkpt>
      <trkpt lat="59.9193085" lon="17.8468237">
        <ele>17.4412</ele>
        <time>2012-05-27T09:39:02Z</time>
      </trkpt>
      <trkpt lat="59.9196975" lon="17.8474256">
        <ele>20.325</ele>
        <time>2012-05-27T09:39:10Z</time>
      </trkpt>
      <trkpt lat="59.9201279" lon="17.8480401">
        <ele>24.1703</ele>
        <time>2012-05-27T09:39:19Z</time>
      </trkpt>
      <trkpt lat="59.9202979" lon="17.8482161">
        <ele>25.1317</ele>
        <time>2012-05-27T09:39:22Z</time>
      </trkpt>
      <trkpt lat="59.920576" lon="17.8488042">
        <ele>25.1317</ele>
        <time>2012-05-27T09:39:28Z</time>
      </trkpt>
      <trkpt lat="59.9208998" lon="17.8496293">
        <ele>28.4962</ele>
        <time>2012-05-27T09:39:36Z</time>
      </trkpt>
      <trkpt lat="59.9211689" lon="17.8501939">
        <ele>28.9769</ele>
        <time>2012-05-27T09:39:42Z</time>
      </trkpt>
      <trkpt lat="59.9215318" lon="17.8509773">
        <ele>26.0929</ele>
        <time>2012-05-27T09:39:50Z</time>
      </trkpt>
      <trkpt lat="59.9218719" lon="17.8517923">
        <ele>20.8057</ele>
        <time>2012-05-27T09:39:58Z</time>
      </trkpt>
      <trkpt lat="59.9222745" lon="17.8525063">
        <ele>17.4412</ele>
        <time>2012-05-27T09:40:06Z</time>
      </trkpt>
      <trkpt lat="59.9223309" lon="17.8525793">
        <ele>16.4797</ele>
        <time>2012-05-27T09:40:07Z</time>
      </trkpt>
      <trkpt lat="59.9228309" lon="17.8530579">
        <ele>14.0764</ele>
        <time>2012-05-27T09:40:15Z</time>
      </trkpt>
      <trkpt lat="59.9233192" lon="17.8534329">
        <ele>12.1538</ele>
        <time>2012-05-27T09:40:23Z</time>
      </trkpt>
      <trkpt lat="59.9239421" lon="17.8539279">
        <ele>12.1538</ele>
        <time>2012-05-27T09:40:33Z</time>
      </trkpt>
      <trkpt lat="59.9244842" lon="17.8544516">
        <ele>13.5958</ele>
        <time>2012-05-27T09:40:42Z</time>
      </trkpt>
      <trkpt lat="59.9250692" lon="17.855086">
        <ele>14.557</ele>
        <time>2012-05-27T09:40:52Z</time>
      </trkpt>
      <trkpt lat="59.9254583" lon="17.8555853">
        <ele>14.557</ele>
        <time>2012-05-27T09:40:59Z</time>
      </trkpt>
      <trkpt lat="59.9258271" lon="17.856112">
        <ele>15.0377</ele>
        <time>2012-05-27T09:41:06Z</time>
      </trkpt>
      <trkpt lat="59.926256" lon="17.8567867">
        <ele>15.5184</ele>
        <time>2012-05-27T09:41:15Z</time>
      </trkpt>
      <trkpt lat="59.9265015" lon="17.8571249">
        <ele>17.4412</ele>
        <time>2012-05-27T09:41:21Z</time>
      </trkpt>
      <trkpt lat="59.9269335" lon="17.8575974">
        <ele>16.9604</ele>
        <time>2012-05-27T09:41:29Z</time>
      </trkpt>
      <trkpt lat="59.9274467" lon="17.8579755">
        <ele>16.9604</ele>
        <time>2012-05-27T09:41:37Z</time>
      </trkpt>
      <trkpt lat="59.9279323" lon="17.8584017">
        <ele>17.9218</ele>
        <time>2012-05-27T09:41:45Z</time>
      </trkpt>
      <trkpt lat="59.9282949" lon="17.8588057">
        <ele>17.9218</ele>
        <time>2012-05-27T09:41:52Z</time>
      </trkpt>
      <trkpt lat="59.9286901" lon="17.8592229">
        <ele>18.4023</ele>
        <time>2012-05-27T09:41:59Z</time>
      </trkpt>
      <trkpt lat="59.9290995" lon="17.8596091">
        <ele>18.8831</ele>
        <time>2012-05-27T09:42:06Z</time>
      </trkpt>
      <trkpt lat="59.9295805" lon="17.8600536">
        <ele>18.8831</ele>
        <time>2012-05-27T09:42:15Z</time>
      </trkpt>
      <trkpt lat="59.9300302" lon="17.8604218">
        <ele>16.9604</ele>
        <time>2012-05-27T09:42:23Z</time>
      </trkpt>
      <trkpt lat="59.9304339" lon="17.8606608">
        <ele>14.0764</ele>
        <time>2012-05-27T09:42:30Z</time>
      </trkpt>
      <trkpt lat="59.9308343" lon="17.8608499">
        <ele>10.2312</ele>
        <time>2012-05-27T09:42:37Z</time>
      </trkpt>
      <trkpt lat="59.9313318" lon="17.8611365">
        <ele>6.86646</ele>
        <time>2012-05-27T09:42:46Z</time>
      </trkpt>
      <trkpt lat="59.9317807" lon="17.8614574">
        <ele>5.42456</ele>
        <time>2012-05-27T09:42:54Z</time>
      </trkpt>
      <trkpt lat="59.9321515" lon="17.8615918">
        <ele>4.94385</ele>
        <time>2012-05-27T09:43:00Z</time>
      </trkpt>
      <trkpt lat="59.9325493" lon="17.8617497">
        <ele>4.46326</ele>
        <time>2012-05-27T09:43:06Z</time>
      </trkpt>
      <trkpt lat="59.9329076" lon="17.8620367">
        <ele>3.98267</ele>
        <time>2012-05-27T09:43:12Z</time>
      </trkpt>
      <trkpt lat="59.9332845" lon="17.8625428">
        <ele>4.46326</ele>
        <time>2012-05-27T09:43:19Z</time>
      </trkpt>
      <trkpt lat="59.9333709" lon="17.8627224">
        <ele>4.46326</ele>
        <time>2012-05-27T09:43:21Z</time>
      </trkpt>
      <trkpt lat="59.9334828" lon="17.8630126">
        <ele>4.94385</ele>
        <time>2012-05-27T09:43:24Z</time>
      </trkpt>
      <trkpt lat="59.9337123" lon="17.8637994">
        <ele>3.02124</ele>
        <time>2012-05-27T09:43:32Z</time>
      </trkpt>
      <trkpt lat="59.9340272" lon="17.8646037">
        <ele>1.57935</ele>
        <time>2012-05-27T09:43:40Z</time>
      </trkpt>
      <trkpt lat="59.9343065" lon="17.8654899">
        <ele>0.137451</ele>
        <time>2012-05-27T09:43:48Z</time>
      </trkpt>
      <trkpt lat="59.9344376" lon="17.8657901">
        <ele>0</ele>
        <time>2012-05-27T09:43:51Z</time>
      </trkpt>
      <trkpt lat="59.9346741" lon="17.8660658">
        <ele>0.137451</ele>
        <time>2012-05-27T09:43:55Z</time>
      </trkpt>
      <trkpt lat="59.9351632" lon="17.8663294">
        <ele>2.06006</ele>
        <time>2012-05-27T09:44:02Z</time>
      </trkpt>
      <trkpt lat="59.9353664" lon="17.866501">
        <ele>2.54065</ele>
        <time>2012-05-27T09:44:05Z</time>
      </trkpt>
      <trkpt lat="59.9356377" lon="17.8669535">
        <ele>1.09863</ele>
        <time>2012-05-27T09:44:10Z</time>
      </trkpt>
      <trkpt lat="59.9358698" lon="17.867899">
        <ele>2.06006</ele>
        <time>2012-05-27T09:44:18Z</time>
      </trkpt>
      <trkpt lat="59.9359635" lon="17.8682547">
        <ele>1.57935</ele>
        <time>2012-05-27T09:44:21Z</time>
      </trkpt>
      <trkpt lat="59.936084" lon="17.8688675">
        <ele>2.54065</ele>
        <time>2012-05-27T09:44:26Z</time>
      </trkpt>
      <trkpt lat="59.9362741" lon="17.8692826">
        <ele>3.98267</ele>
        <time>2012-05-27T09:44:30Z</time>
      </trkpt>
      <trkpt lat="59.9364016" lon="17.8694381">
        <ele>4.46326</ele>
        <time>2012-05-27T09:44:32Z</time>
      </trkpt>
      <trkpt lat="59.9369629" lon="17.8700006">
        <ele>5.42456</ele>
        <time>2012-05-27T09:44:41Z</time>
      </trkpt>
      <trkpt lat="59.9372662" lon="17.8705164">
        <ele>6.86646</ele>
        <time>2012-05-27T09:44:47Z</time>
      </trkpt>
      <trkpt lat="59.9375021" lon="17.8711799">
        <ele>7.34717</ele>
        <time>2012-05-27T09:44:53Z</time>
      </trkpt>
      <trkpt lat="59.9377675" lon="17.8716726">
        <ele>7.82788</ele>
        <time>2012-05-27T09:44:58Z</time>
      </trkpt>
      <trkpt lat="59.938501" lon="17.8724046">
        <ele>7.82788</ele>
        <time>2012-05-27T09:45:09Z</time>
      </trkpt>
      <trkpt lat="59.9389833" lon="17.8726728">
        <ele>7.82788</ele>
        <time>2012-05-27T09:45:16Z</time>
      </trkpt>
      <trkpt lat="59.9391238" lon="17.8727396">
        <ele>7.82788</ele>
        <time>2012-05-27T09:45:18Z</time>
      </trkpt>
      <trkpt lat="59.9394916" lon="17.8731294">
        <ele>10.7118</ele>
        <time>2012-05-27T09:45:24Z</time>
      </trkpt>
      <trkpt lat="59.9399169" lon="17.8738282">
        <ele>9.75061</ele>
        <time>2012-05-27T09:45:32Z</time>
      </trkpt>
      <trkpt lat="59.9403732" lon="17.8744844">
        <ele>10.2312</ele>
        <time>2012-05-27T09:45:40Z</time>
      </trkpt>
      <trkpt lat="59.9407568" lon="17.8748761">
        <ele>10.7118</ele>
        <time>2012-05-27T09:45:46Z</time>
      </trkpt>
      <trkpt lat="59.9411488" lon="17.8751307">
        <ele>11.1925</ele>
        <time>2012-05-27T09:45:52Z</time>
      </trkpt>
      <trkpt lat="59.941617" lon="17.8752597">
        <ele>11.6732</ele>
        <time>2012-05-27T09:45:59Z</time>
      </trkpt>
      <trkpt lat="59.9420183" lon="17.8754485">
        <ele>11.6732</ele>
        <time>2012-05-27T09:46:05Z</time>
      </trkpt>
      <trkpt lat="59.9423253" lon="17.8757692">
        <ele>10.2312</ele>
        <time>2012-05-27T09:46:10Z</time>
      </trkpt>
      <trkpt lat="59.9428471" lon="17.8764798">
        <ele>8.78918</ele>
        <time>2012-05-27T09:46:19Z</time>
      </trkpt>
      <trkpt lat="59.9433374" lon="17.8771175">
        <ele>6.38586</ele>
        <time>2012-05-27T09:46:27Z</time>
      </trkpt>
      <trkpt lat="59.9438052" lon="17.8777042">
        <ele>8.30859</ele>
        <time>2012-05-27T09:46:35Z</time>
      </trkpt>
      <trkpt lat="59.9441491" lon="17.8779224">
        <ele>8.30859</ele>
        <time>2012-05-27T09:46:40Z</time>
      </trkpt>
      <trkpt lat="59.9446718" lon="17.8781402">
        <ele>9.75061</ele>
        <time>2012-05-27T09:46:47Z</time>
      </trkpt>
      <trkpt lat="59.9454208" lon="17.8784662">
        <ele>14.0764</ele>
        <time>2012-05-27T09:46:57Z</time>
      </trkpt>
      <trkpt lat="59.9460148" lon="17.8787259">
        <ele>16.9604</ele>
        <time>2012-05-27T09:47:06Z</time>
      </trkpt>
      <trkpt lat="59.9466483" lon="17.8790479">
        <ele>18.8831</ele>
        <time>2012-05-27T09:47:16Z</time>
      </trkpt>
      <trkpt lat="59.9471637" lon="17.8793558">
        <ele>19.8444</ele>
        <time>2012-05-27T09:47:24Z</time>
      </trkpt>
      <trkpt lat="59.9476061" lon="17.879503">
        <ele>20.8057</ele>
        <time>2012-05-27T09:47:31Z</time>
      </trkpt>
      <trkpt lat="59.9481674" lon="17.8796629">
        <ele>20.325</ele>
        <time>2012-05-27T09:47:40Z</time>
      </trkpt>
      <trkpt lat="59.9486621" lon="17.8799256">
        <ele>18.8831</ele>
        <time>2012-05-27T09:47:48Z</time>
      </trkpt>
      <trkpt lat="59.9492229" lon="17.8803604">
        <ele>17.4412</ele>
        <time>2012-05-27T09:47:57Z</time>
      </trkpt>
      <trkpt lat="59.9494797" lon="17.8805276">
        <ele>15.5184</ele>
        <time>2012-05-27T09:48:01Z</time>
      </trkpt>
      <trkpt lat="59.9498155" lon="17.8805004">
        <ele>15.0377</ele>
        <time>2012-05-27T09:48:06Z</time>
      </trkpt>
      <trkpt lat="59.950056" lon="17.8802511">
        <ele>15.5184</ele>
        <time>2012-05-27T09:48:10Z</time>
      </trkpt>
      <trkpt lat="59.9503947" lon="17.8794359">
        <ele>15.0377</ele>
        <time>2012-05-27T09:48:18Z</time>
      </trkpt>
      <trkpt lat="59.9507594" lon="17.878485">
        <ele>13.5958</ele>
        <time>2012-05-27T09:48:27Z</time>
      </trkpt>
      <trkpt lat="59.9510153" lon="17.8781628">
        <ele>12.6344</ele>
        <time>2012-05-27T09:48:32Z</time>
      </trkpt>
      <trkpt lat="59.9511293" lon="17.8780815">
        <ele>12.1538</ele>
        <time>2012-05-27T09:48:34Z</time>
      </trkpt>
      <trkpt lat="59.9513026" lon="17.8778035">
        <ele>11.6732</ele>
        <time>2012-05-27T09:48:38Z</time>
      </trkpt>
      <trkpt lat="59.9513552" lon="17.8775112">
        <ele>11.1925</ele>
        <time>2012-05-27T09:48:41Z</time>
      </trkpt>
      <trkpt lat="59.9513482" lon="17.8770969">
        <ele>11.1925</ele>
        <time>2012-05-27T09:48:45Z</time>
      </trkpt>
      <trkpt lat="59.9511819" lon="17.8770394">
        <ele>9.75061</ele>
        <time>2012-05-27T10:25:08Z</time>
      </trkpt>
      <trkpt lat="59.9511824" lon="17.8770142">
        <ele>10.7118</ele>
        <time>2012-05-27T10:25:09Z</time>
      </trkpt>
      <trkpt lat="59.9512681" lon="17.8768217">
        <ele>11.1925</ele>
        <time>2012-05-27T10:25:13Z</time>
      </trkpt>
      <trkpt lat="59.951334" lon="17.876528">
        <ele>12.1538</ele>
        <time>2012-05-27T10:25:17Z</time>
      </trkpt>
      <trkpt lat="59.951394" lon="17.8761175">
        <ele>13.1151</ele>
        <time>2012-05-27T10:25:21Z</time>
      </trkpt>
      <trkpt lat="59.9514313" lon="17.8752359">
        <ele>15.5184</ele>
        <time>2012-05-27T10:25:28Z</time>
      </trkpt>
      <trkpt lat="59.9515072" lon="17.8741478">
        <ele>15.999</ele>
        <time>2012-05-27T10:25:36Z</time>
      </trkpt>
      <trkpt lat="59.9516362" lon="17.8727781">
        <ele>16.4797</ele>
        <time>2012-05-27T10:25:46Z</time>
      </trkpt>
      <trkpt lat="59.9516722" lon="17.8718566">
        <ele>16.9604</ele>
        <time>2012-05-27T10:25:53Z</time>
      </trkpt>
      <trkpt lat="59.9516707" lon="17.8712158">
        <ele>17.4412</ele>
        <time>2012-05-27T10:25:58Z</time>
      </trkpt>
      <trkpt lat="59.9517736" lon="17.8707504">
        <ele>17.4412</ele>
        <time>2012-05-27T10:26:02Z</time>
      </trkpt>
      <trkpt lat="59.9518904" lon="17.8706884">
        <ele>17.4412</ele>
        <time>2012-05-27T10:26:04Z</time>
      </trkpt>
      <trkpt lat="59.9521544" lon="17.8705246">
        <ele>17.9218</ele>
        <time>2012-05-27T10:26:09Z</time>
      </trkpt>
      <trkpt lat="59.9522425" lon="17.8702253">
        <ele>17.9218</ele>
        <time>2012-05-27T10:26:12Z</time>
      </trkpt>
      <trkpt lat="59.9523302" lon="17.8697732">
        <ele>17.4412</ele>
        <time>2012-05-27T10:26:16Z</time>
      </trkpt>
      <trkpt lat="59.952345" lon="17.8691446">
        <ele>17.9218</ele>
        <time>2012-05-27T10:26:21Z</time>
      </trkpt>
      <trkpt lat="59.9523321" lon="17.8690257">
        <ele>17.9218</ele>
        <time>2012-05-27T10:26:22Z</time>
      </trkpt>
      <trkpt lat="59.9522073" lon="17.8681293">
        <ele>18.4023</ele>
        <time>2012-05-27T10:26:30Z</time>
      </trkpt>
      <trkpt lat="59.9522051" lon="17.867366">
        <ele>19.3638</ele>
        <time>2012-05-27T10:26:37Z</time>
      </trkpt>
      <trkpt lat="59.9522814" lon="17.8665619">
        <ele>21.2864</ele>
        <time>2012-05-27T10:26:45Z</time>
      </trkpt>
      <trkpt lat="59.9523912" lon="17.8654758">
        <ele>22.7283</ele>
        <time>2012-05-27T10:26:55Z</time>
      </trkpt>
      <trkpt lat="59.9524938" lon="17.8644821">
        <ele>22.7283</ele>
        <time>2012-05-27T10:27:03Z</time>
      </trkpt>
      <trkpt lat="59.9526218" lon="17.8632184">
        <ele>22.2476</ele>
        <time>2012-05-27T10:27:12Z</time>
      </trkpt>
      <trkpt lat="59.9527842" lon="17.8616016">
        <ele>22.7283</ele>
        <time>2012-05-27T10:27:23Z</time>
      </trkpt>
      <trkpt lat="59.9529155" lon="17.8602853">
        <ele>23.209</ele>
        <time>2012-05-27T10:27:32Z</time>
      </trkpt>
      <trkpt lat="59.9530966" lon="17.8584975">
        <ele>24.1703</ele>
        <time>2012-05-27T10:27:44Z</time>
      </trkpt>
      <trkpt lat="59.9532748" lon="17.8567194">
        <ele>24.651</ele>
        <time>2012-05-27T10:27:56Z</time>
      </trkpt>
      <trkpt lat="59.9534034" lon="17.8554739">
        <ele>24.1703</ele>
        <time>2012-05-27T10:28:05Z</time>
      </trkpt>
      <trkpt lat="59.953494" lon="17.8545385">
        <ele>24.1703</ele>
        <time>2012-05-27T10:28:12Z</time>
      </trkpt>
      <trkpt lat="59.9536675" lon="17.8528016">
        <ele>25.6123</ele>
        <time>2012-05-27T10:28:25Z</time>
      </trkpt>
      <trkpt lat="59.9538141" lon="17.8513103">
        <ele>25.6123</ele>
        <time>2012-05-27T10:28:36Z</time>
      </trkpt>
      <trkpt lat="59.9539628" lon="17.8498044">
        <ele>24.1703</ele>
        <time>2012-05-27T10:28:46Z</time>
      </trkpt>
      <trkpt lat="59.9540779" lon="17.8483556">
        <ele>23.209</ele>
        <time>2012-05-27T10:28:55Z</time>
      </trkpt>
      <trkpt lat="59.9541353" lon="17.8470517">
        <ele>23.209</ele>
        <time>2012-05-27T10:29:03Z</time>
      </trkpt>
      <trkpt lat="59.9541451" lon="17.8452719">
        <ele>22.7283</ele>
        <time>2012-05-27T10:29:14Z</time>
      </trkpt>
      <trkpt lat="59.9540571" lon="17.8435109">
        <ele>22.7283</ele>
        <time>2012-05-27T10:29:25Z</time>
      </trkpt>
      <trkpt lat="59.9539182" lon="17.8420118">
        <ele>23.209</ele>
        <time>2012-05-27T10:29:35Z</time>
      </trkpt>
      <trkpt lat="59.953722" lon="17.8404818">
        <ele>23.6896</ele>
        <time>2012-05-27T10:29:46Z</time>
      </trkpt>
      <trkpt lat="59.9534857" lon="17.839169">
        <ele>23.209</ele>
        <time>2012-05-27T10:29:56Z</time>
      </trkpt>
      <trkpt lat="59.9532127" lon="17.837944">
        <ele>23.6896</ele>
        <time>2012-05-27T10:30:05Z</time>
      </trkpt>
      <trkpt lat="59.9528335" lon="17.8366015">
        <ele>23.6896</ele>
        <time>2012-05-27T10:30:15Z</time>
      </trkpt>
      <trkpt lat="59.9523847" lon="17.8353113">
        <ele>24.651</ele>
        <time>2012-05-27T10:30:25Z</time>
      </trkpt>
      <trkpt lat="59.9518781" lon="17.8341134">
        <ele>23.6896</ele>
        <time>2012-05-27T10:30:35Z</time>
      </trkpt>
      <trkpt lat="59.9513344" lon="17.8328901">
        <ele>23.209</ele>
        <time>2012-05-27T10:30:45Z</time>
      </trkpt>
      <trkpt lat="59.9508499" lon="17.8318134">
        <ele>22.7283</ele>
        <time>2012-05-27T10:30:54Z</time>
      </trkpt>
      <trkpt lat="59.9502604" lon="17.8304892">
        <ele>22.2476</ele>
        <time>2012-05-27T10:31:06Z</time>
      </trkpt>
      <trkpt lat="59.9502202" lon="17.8303826">
        <ele>22.2476</ele>
        <time>2012-05-27T10:31:07Z</time>
      </trkpt>
      <trkpt lat="59.9501456" lon="17.8297424">
        <ele>18.8831</ele>
        <time>2012-05-27T10:31:12Z</time>
      </trkpt>
      <trkpt lat="59.9501316" lon="17.8296103">
        <ele>18.4023</ele>
        <time>2012-05-27T10:31:13Z</time>
      </trkpt>
      <trkpt lat="59.9501082" lon="17.8285763">
        <ele>17.9218</ele>
        <time>2012-05-27T10:31:20Z</time>
      </trkpt>
      <trkpt lat="59.9501008" lon="17.8273842">
        <ele>17.9218</ele>
        <time>2012-05-27T10:31:28Z</time>
      </trkpt>
      <trkpt lat="59.9501637" lon="17.8262542">
        <ele>18.4023</ele>
        <time>2012-05-27T10:31:36Z</time>
      </trkpt>
      <trkpt lat="59.9503249" lon="17.8254871">
        <ele>19.8444</ele>
        <time>2012-05-27T10:31:42Z</time>
      </trkpt>
      <trkpt lat="59.9506347" lon="17.8241121">
        <ele>20.8057</ele>
        <time>2012-05-27T10:31:53Z</time>
      </trkpt>
      <trkpt lat="59.9507577" lon="17.8233715">
        <ele>18.8831</ele>
        <time>2012-05-27T10:31:59Z</time>
      </trkpt>
      <trkpt lat="59.9508745" lon="17.8222141">
        <ele>17.9218</ele>
        <time>2012-05-27T10:32:08Z</time>
      </trkpt>
      <trkpt lat="59.9509976" lon="17.8208061">
        <ele>19.3638</ele>
        <time>2012-05-27T10:32:19Z</time>
      </trkpt>
      <trkpt lat="59.9510498" lon="17.8196605">
        <ele>20.325</ele>
        <time>2012-05-27T10:32:28Z</time>
      </trkpt>
      <trkpt lat="59.951081" lon="17.8186648">
        <ele>20.8057</ele>
        <time>2012-05-27T10:32:36Z</time>
      </trkpt>
      <trkpt lat="59.9512081" lon="17.8174142">
        <ele>21.2864</ele>
        <time>2012-05-27T10:32:46Z</time>
      </trkpt>
      <trkpt lat="59.951351" lon="17.8157876">
        <ele>21.2864</ele>
        <time>2012-05-27T10:32:58Z</time>
      </trkpt>
      <trkpt lat="59.9513944" lon="17.8144293">
        <ele>22.2476</ele>
        <time>2012-05-27T10:33:08Z</time>
      </trkpt>
      <trkpt lat="59.9513991" lon="17.8131267">
        <ele>22.2476</ele>
        <time>2012-05-27T10:33:18Z</time>
      </trkpt>
      <trkpt lat="59.9514266" lon="17.8117504">
        <ele>22.7283</ele>
        <time>2012-05-27T10:33:29Z</time>
      </trkpt>
      <trkpt lat="59.951555" lon="17.8108111">
        <ele>22.7283</ele>
        <time>2012-05-27T10:33:37Z</time>
      </trkpt>
      <trkpt lat="59.9517845" lon="17.8098114">
        <ele>24.1703</ele>
        <time>2012-05-27T10:33:46Z</time>
      </trkpt>
      <trkpt lat="59.952076" lon="17.8087123">
        <ele>25.1317</ele>
        <time>2012-05-27T10:33:56Z</time>
      </trkpt>
      <trkpt lat="59.9523881" lon="17.8075183">
        <ele>27.5349</ele>
        <time>2012-05-27T10:34:07Z</time>
      </trkpt>
      <trkpt lat="59.9526037" lon="17.8066567">
        <ele>28.4962</ele>
        <time>2012-05-27T10:34:16Z</time>
      </trkpt>
      <trkpt lat="59.9527339" lon="17.8059957">
        <ele>28.0155</ele>
        <time>2012-05-27T10:34:23Z</time>
      </trkpt>
      <trkpt lat="59.9528261" lon="17.8051037">
        <ele>28.9769</ele>
        <time>2012-05-27T10:34:31Z</time>
      </trkpt>
      <trkpt lat="59.9528855" lon="17.8046515">
        <ele>29.4575</ele>
        <time>2012-05-27T10:34:35Z</time>
      </trkpt>
      <trkpt lat="59.9530003" lon="17.804268">
        <ele>29.4575</ele>
        <time>2012-05-27T10:34:39Z</time>
      </trkpt>
      <trkpt lat="59.9531129" lon="17.8040506">
        <ele>28.4962</ele>
        <time>2012-05-27T10:34:42Z</time>
      </trkpt>
      <trkpt lat="59.9534149" lon="17.8033394">
        <ele>29.4575</ele>
        <time>2012-05-27T10:34:51Z</time>
      </trkpt>
      <trkpt lat="59.9535034" lon="17.8030477">
        <ele>30.4188</ele>
        <time>2012-05-27T10:34:54Z</time>
      </trkpt>
      <trkpt lat="59.9536872" lon="17.8022186">
        <ele>30.8995</ele>
        <time>2012-05-27T10:35:01Z</time>
      </trkpt>
      <trkpt lat="59.9538918" lon="17.8015575">
        <ele>29.9381</ele>
        <time>2012-05-27T10:35:06Z</time>
      </trkpt>
      <trkpt lat="59.9543524" lon="17.8003682">
        <ele>30.8995</ele>
        <time>2012-05-27T10:35:15Z</time>
      </trkpt>
      <trkpt lat="59.9547871" lon="17.7993625">
        <ele>28.4962</ele>
        <time>2012-05-27T10:35:23Z</time>
      </trkpt>
      <trkpt lat="59.9551455" lon="17.7986569">
        <ele>28.0155</ele>
        <time>2012-05-27T10:35:30Z</time>
      </trkpt>
      <trkpt lat="59.9554028" lon="17.7979413">
        <ele>26.0929</ele>
        <time>2012-05-27T10:35:36Z</time>
      </trkpt>
      <trkpt lat="59.9557094" lon="17.7968515">
        <ele>24.651</ele>
        <time>2012-05-27T10:35:44Z</time>
      </trkpt>
      <trkpt lat="59.9558974" lon="17.7958281">
        <ele>25.1317</ele>
        <time>2012-05-27T10:35:51Z</time>
      </trkpt>
      <trkpt lat="59.9561053" lon="17.7948552">
        <ele>25.1317</ele>
        <time>2012-05-27T10:35:58Z</time>
      </trkpt>
      <trkpt lat="59.956404" lon="17.793501">
        <ele>26.5736</ele>
        <time>2012-05-27T10:36:08Z</time>
      </trkpt>
      <trkpt lat="59.9566166" lon="17.7923712">
        <ele>27.5349</ele>
        <time>2012-05-27T10:36:17Z</time>
      </trkpt>
      <trkpt lat="59.9567585" lon="17.7914992">
        <ele>28.4962</ele>
        <time>2012-05-27T10:36:24Z</time>
      </trkpt>
      <trkpt lat="59.9567336" lon="17.7908849">
        <ele>28.4962</ele>
        <time>2012-05-27T10:36:29Z</time>
      </trkpt>
      <trkpt lat="59.9566084" lon="17.7902291">
        <ele>26.5736</ele>
        <time>2012-05-27T10:36:34Z</time>
      </trkpt>
      <trkpt lat="59.9566477" lon="17.7896345">
        <ele>25.6123</ele>
        <time>2012-05-27T10:36:38Z</time>
      </trkpt>
      <trkpt lat="59.9568196" lon="17.7893459">
        <ele>25.1317</ele>
        <time>2012-05-27T10:36:41Z</time>
      </trkpt>
      <trkpt lat="59.9570644" lon="17.789015">
        <ele>24.1703</ele>
        <time>2012-05-27T10:36:45Z</time>
      </trkpt>
      <trkpt lat="59.9573189" lon="17.7883834">
        <ele>24.651</ele>
        <time>2012-05-27T10:36:51Z</time>
      </trkpt>
      <trkpt lat="59.9576318" lon="17.78719">
        <ele>26.5736</ele>
        <time>2012-05-27T10:37:01Z</time>
      </trkpt>
      <trkpt lat="59.9577161" lon="17.7868306">
        <ele>25.6123</ele>
        <time>2012-05-27T10:37:04Z</time>
      </trkpt>
      <trkpt lat="59.9579309" lon="17.7864278">
        <ele>24.651</ele>
        <time>2012-05-27T10:37:08Z</time>
      </trkpt>
      <trkpt lat="59.9584981" lon="17.7857696">
        <ele>24.1703</ele>
        <time>2012-05-27T10:37:17Z</time>
      </trkpt>
      <trkpt lat="59.9589834" lon="17.7853449">
        <ele>24.1703</ele>
        <time>2012-05-27T10:37:25Z</time>
      </trkpt>
      <trkpt lat="59.9593951" lon="17.7849343">
        <ele>24.651</ele>
        <time>2012-05-27T10:37:32Z</time>
      </trkpt>
      <trkpt lat="59.9598304" lon="17.7842158">
        <ele>24.1703</ele>
        <time>2012-05-27T10:37:41Z</time>
      </trkpt>
      <trkpt lat="59.96011" lon="17.7835317">
        <ele>23.209</ele>
        <time>2012-05-27T10:37:48Z</time>
      </trkpt>
      <trkpt lat="59.9604178" lon="17.7826152">
        <ele>22.7283</ele>
        <time>2012-05-27T10:37:57Z</time>
      </trkpt>
      <trkpt lat="59.9606446" lon="17.7819591">
        <ele>22.2476</ele>
        <time>2012-05-27T10:38:03Z</time>
      </trkpt>
      <trkpt lat="59.9610491" lon="17.781225">
        <ele>22.2476</ele>
        <time>2012-05-27T10:38:11Z</time>
      </trkpt>
      <trkpt lat="59.9615796" lon="17.7802326">
        <ele>22.7283</ele>
        <time>2012-05-27T10:38:22Z</time>
      </trkpt>
      <trkpt lat="59.9619705" lon="17.7793471">
        <ele>23.209</ele>
        <time>2012-05-27T10:38:31Z</time>
      </trkpt>
      <trkpt lat="59.9624391" lon="17.778265">
        <ele>23.209</ele>
        <time>2012-05-27T10:38:41Z</time>
      </trkpt>
      <trkpt lat="59.9629349" lon="17.7771908">
        <ele>24.1703</ele>
        <time>2012-05-27T10:38:51Z</time>
      </trkpt>
      <trkpt lat="59.9631737" lon="17.7764849">
        <ele>26.0929</ele>
        <time>2012-05-27T10:38:57Z</time>
      </trkpt>
      <trkpt lat="59.9635673" lon="17.7751895">
        <ele>26.5736</ele>
        <time>2012-05-27T10:39:08Z</time>
      </trkpt>
      <trkpt lat="59.9637229" lon="17.7743654">
        <ele>27.0543</ele>
        <time>2012-05-27T10:39:14Z</time>
      </trkpt>
      <trkpt lat="59.9638781" lon="17.7733663">
        <ele>27.5349</ele>
        <time>2012-05-27T10:39:21Z</time>
      </trkpt>
      <trkpt lat="59.9638996" lon="17.773075">
        <ele>28.0155</ele>
        <time>2012-05-27T10:39:23Z</time>
      </trkpt>
      <trkpt lat="59.9638464" lon="17.7723447">
        <ele>28.4962</ele>
        <time>2012-05-27T10:39:28Z</time>
      </trkpt>
      <trkpt lat="59.9638206" lon="17.7722024">
        <ele>28.9769</ele>
        <time>2012-05-27T10:39:29Z</time>
      </trkpt>
      <trkpt lat="59.9635683" lon="17.7710793">
        <ele>31.3801</ele>
        <time>2012-05-27T10:39:38Z</time>
      </trkpt>
      <trkpt lat="59.963543" lon="17.7709576">
        <ele>31.8607</ele>
        <time>2012-05-27T10:39:39Z</time>
      </trkpt>
      <trkpt lat="59.9634801" lon="17.7704779">
        <ele>33.3029</ele>
        <time>2012-05-27T10:39:43Z</time>
      </trkpt>
      <trkpt lat="59.9634994" lon="17.7697843">
        <ele>35.2255</ele>
        <time>2012-05-27T10:39:49Z</time>
      </trkpt>
      <trkpt lat="59.9636288" lon="17.7692133">
        <ele>35.2255</ele>
        <time>2012-05-27T10:39:54Z</time>
      </trkpt>
      <trkpt lat="59.9639796" lon="17.7679791">
        <ele>38.5901</ele>
        <time>2012-05-27T10:40:05Z</time>
      </trkpt>
      <trkpt lat="59.9641146" lon="17.767192">
        <ele>40.0321</ele>
        <time>2012-05-27T10:40:12Z</time>
      </trkpt>
      <trkpt lat="59.9641292" lon="17.766441">
        <ele>40.5128</ele>
        <time>2012-05-27T10:40:18Z</time>
      </trkpt>
      <trkpt lat="59.9641381" lon="17.7657225">
        <ele>36.1868</ele>
        <time>2012-05-27T10:40:23Z</time>
      </trkpt>
      <trkpt lat="59.9642049" lon="17.7650148">
        <ele>31.8607</ele>
        <time>2012-05-27T10:40:27Z</time>
      </trkpt>
      <trkpt lat="59.9643956" lon="17.7641601">
        <ele>29.4575</ele>
        <time>2012-05-27T10:40:32Z</time>
      </trkpt>
      <trkpt lat="59.9647812" lon="17.7626155">
        <ele>27.0543</ele>
        <time>2012-05-27T10:40:42Z</time>
      </trkpt>
      <trkpt lat="59.9651589" lon="17.761563">
        <ele>27.0543</ele>
        <time>2012-05-27T10:40:50Z</time>
      </trkpt>
      <trkpt lat="59.9655429" lon="17.7606679">
        <ele>25.6123</ele>
        <time>2012-05-27T10:40:58Z</time>
      </trkpt>
      <trkpt lat="59.9658155" lon="17.7602135">
        <ele>24.651</ele>
        <time>2012-05-27T10:41:03Z</time>
      </trkpt>
      <trkpt lat="59.9663208" lon="17.7593522">
        <ele>23.6896</ele>
        <time>2012-05-27T10:41:12Z</time>
      </trkpt>
      <trkpt lat="59.9667253" lon="17.7588356">
        <ele>23.209</ele>
        <time>2012-05-27T10:41:19Z</time>
      </trkpt>
      <trkpt lat="59.9671488" lon="17.7584969">
        <ele>20.8057</ele>
        <time>2012-05-27T10:41:26Z</time>
      </trkpt>
      <trkpt lat="59.9677127" lon="17.75797">
        <ele>20.325</ele>
        <time>2012-05-27T10:41:36Z</time>
      </trkpt>
      <trkpt lat="59.9680457" lon="17.7575798">
        <ele>21.767</ele>
        <time>2012-05-27T10:41:43Z</time>
      </trkpt>
      <trkpt lat="59.9682986" lon="17.7572319">
        <ele>23.6896</ele>
        <time>2012-05-27T10:41:50Z</time>
      </trkpt>
      <trkpt lat="59.9685944" lon="17.7567656">
        <ele>24.651</ele>
        <time>2012-05-27T10:41:58Z</time>
      </trkpt>
      <trkpt lat="59.9689499" lon="17.756106">
        <ele>23.6896</ele>
        <time>2012-05-27T10:42:07Z</time>
      </trkpt>
      <trkpt lat="59.9693581" lon="17.7552432">
        <ele>23.209</ele>
        <time>2012-05-27T10:42:16Z</time>
      </trkpt>
      <trkpt lat="59.9698279" lon="17.7542813">
        <ele>22.2476</ele>
        <time>2012-05-27T10:42:26Z</time>
      </trkpt>
      <trkpt lat="59.9702323" lon="17.7532959">
        <ele>21.2864</ele>
        <time>2012-05-27T10:42:35Z</time>
      </trkpt>
      <trkpt lat="59.9705947" lon="17.7523582">
        <ele>20.8057</ele>
        <time>2012-05-27T10:42:43Z</time>
      </trkpt>
      <trkpt lat="59.9709857" lon="17.7517209">
        <ele>20.8057</ele>
        <time>2012-05-27T10:42:50Z</time>
      </trkpt>
      <trkpt lat="59.9714467" lon="17.751184">
        <ele>21.2864</ele>
        <time>2012-05-27T10:42:58Z</time>
      </trkpt>
      <trkpt lat="59.9717803" lon="17.7506628">
        <ele>23.209</ele>
        <time>2012-05-27T10:43:05Z</time>
      </trkpt>
      <trkpt lat="59.9720895" lon="17.7499782">
        <ele>27.5349</ele>
        <time>2012-05-27T10:43:13Z</time>
      </trkpt>
      <trkpt lat="59.9724297" lon="17.7491655">
        <ele>33.3029</ele>
        <time>2012-05-27T10:43:22Z</time>
      </trkpt>
      <trkpt lat="59.9727168" lon="17.7485317">
        <ele>35.2255</ele>
        <time>2012-05-27T10:43:29Z</time>
      </trkpt>
      <trkpt lat="59.9730177" lon="17.7479698">
        <ele>33.3029</ele>
        <time>2012-05-27T10:43:35Z</time>
      </trkpt>
      <trkpt lat="59.9735059" lon="17.7474375">
        <ele>31.3801</ele>
        <time>2012-05-27T10:43:43Z</time>
      </trkpt>
      <trkpt lat="59.974043" lon="17.7468412">
        <ele>32.3416</ele>
        <time>2012-05-27T10:43:52Z</time>
      </trkpt>
      <trkpt lat="59.9745479" lon="17.746163">
        <ele>31.8607</ele>
        <time>2012-05-27T10:44:01Z</time>
      </trkpt>
      <trkpt lat="59.9748644" lon="17.7455254">
        <ele>30.4188</ele>
        <time>2012-05-27T10:44:08Z</time>
      </trkpt>
      <trkpt lat="59.97511" lon="17.7448037">
        <ele>29.9381</ele>
        <time>2012-05-27T10:44:14Z</time>
      </trkpt>
      <trkpt lat="59.9753266" lon="17.7438905">
        <ele>30.4188</ele>
        <time>2012-05-27T10:44:21Z</time>
      </trkpt>
      <trkpt lat="59.9755266" lon="17.7429725">
        <ele>30.4188</ele>
        <time>2012-05-27T10:44:28Z</time>
      </trkpt>
      <trkpt lat="59.9758202" lon="17.7418029">
        <ele>31.3801</ele>
        <time>2012-05-27T10:44:37Z</time>
      </trkpt>
      <trkpt lat="59.9760994" lon="17.7407053">
        <ele>30.8995</ele>
        <time>2012-05-27T10:44:45Z</time>
      </trkpt>
      <trkpt lat="59.9763037" lon="17.7400049">
        <ele>32.3416</ele>
        <time>2012-05-27T10:44:50Z</time>
      </trkpt>
      <trkpt lat="59.9766226" lon="17.7394762">
        <ele>33.3029</ele>
        <time>2012-05-27T10:44:55Z</time>
      </trkpt>
      <trkpt lat="59.9766957" lon="17.7394304">
        <ele>33.3029</ele>
        <time>2012-05-27T10:44:56Z</time>
      </trkpt>
      <trkpt lat="59.9771343" lon="17.7392388">
        <ele>34.7449</ele>
        <time>2012-05-27T10:45:03Z</time>
      </trkpt>
      <trkpt lat="59.9774878" lon="17.7390294">
        <ele>39.5513</ele>
        <time>2012-05-27T10:45:10Z</time>
      </trkpt>
      <trkpt lat="59.977831" lon="17.7390798">
        <ele>41.474</ele>
        <time>2012-05-27T10:45:18Z</time>
      </trkpt>
      <trkpt lat="59.9779721" lon="17.7391714">
        <ele>41.474</ele>
        <time>2012-05-27T10:45:22Z</time>
      </trkpt>
      <trkpt lat="59.9782897" lon="17.739291">
        <ele>38.5901</ele>
        <time>2012-05-27T10:45:30Z</time>
      </trkpt>
      <trkpt lat="59.9786766" lon="17.7393548">
        <ele>38.1094</ele>
        <time>2012-05-27T10:45:37Z</time>
      </trkpt>
    </trkseg>
  </trk>
</gpx>